<?xml version='1.0' encoding='UTF-8'?>
<gpx version="1.1" creator="https://www.komoot.de" xmlns="http://www.topografix.com/GPX/1/1" xmlns:xsi="http://www.w3.org/2001/XMLSchema-instance" xsi:schemaLocation="http://www.topografix.com/GPX/1/1 http://www.topografix.com/GPX/1/1/gpx.xsd">
  <metadata>
    <name>COLOMBES PARMAIN COLOMBES GRAVEL</name>
    <author>
      <link href="https://www.komoot.de">
        <text>komoot</text>
        <type>text/html</type>
      </link>
    </author>
  </metadata>
  <trk>
    <name>COLOMBES PARMAIN COLOMBES GRAVEL</name>
    <trkseg>
      <trkpt lat="48.923892" lon="2.231706">
        <ele>28.076591</ele>
        <time>2025-03-06T15:14:45.974Z</time>
      </trkpt>
      <trkpt lat="48.923469" lon="2.232012">
        <ele>28.076591</ele>
        <time>2025-03-06T15:14:56.593Z</time>
      </trkpt>
      <trkpt lat="48.922254" lon="2.232909">
        <ele>28.212138</ele>
        <time>2025-03-06T15:15:27.653Z</time>
      </trkpt>
      <trkpt lat="48.922765" lon="2.234120">
        <ele>28.356082</ele>
        <time>2025-03-06T15:15:49.984Z</time>
      </trkpt>
      <trkpt lat="48.922889" lon="2.234481">
        <ele>28.413784</ele>
        <time>2025-03-06T15:15:56.802Z</time>
      </trkpt>
      <trkpt lat="48.922932" lon="2.234607">
        <ele>28.433895</ele>
        <time>2025-03-06T15:15:59.250Z</time>
      </trkpt>
      <trkpt lat="48.922981" lon="2.234920">
        <ele>28.479473</ele>
        <time>2025-03-06T15:16:04.841Z</time>
      </trkpt>
      <trkpt lat="48.923126" lon="2.235391">
        <ele>28.553151</ele>
        <time>2025-03-06T15:16:13.044Z</time>
      </trkpt>
      <trkpt lat="48.923164" lon="2.235545">
        <ele>28.576452</ele>
        <time>2025-03-06T15:16:15.506Z</time>
      </trkpt>
      <trkpt lat="48.923305" lon="2.236013">
        <ele>28.649382</ele>
        <time>2025-03-06T15:16:23.119Z</time>
      </trkpt>
      <trkpt lat="48.923352" lon="2.236141">
        <ele>28.670152</ele>
        <time>2025-03-06T15:16:25.246Z</time>
      </trkpt>
      <trkpt lat="48.923457" lon="2.236413">
        <ele>28.714838</ele>
        <time>2025-03-06T15:16:29.792Z</time>
      </trkpt>
      <trkpt lat="48.923482" lon="2.236477">
        <ele>28.725385</ele>
        <time>2025-03-06T15:16:30.848Z</time>
      </trkpt>
      <trkpt lat="48.923584" lon="2.236743">
        <ele>28.665614</ele>
        <time>2025-03-06T15:16:35.194Z</time>
      </trkpt>
      <trkpt lat="48.923982" lon="2.237611">
        <ele>28.423172</ele>
        <time>2025-03-06T15:16:49.758Z</time>
      </trkpt>
      <trkpt lat="48.924046" lon="2.237703">
        <ele>28.392483</ele>
        <time>2025-03-06T15:16:51.519Z</time>
      </trkpt>
      <trkpt lat="48.924208" lon="2.238072">
        <ele>28.290832</ele>
        <time>2025-03-06T15:16:57.488Z</time>
      </trkpt>
      <trkpt lat="48.924577" lon="2.238888">
        <ele>28.102570</ele>
        <time>2025-03-06T15:17:11.857Z</time>
      </trkpt>
      <trkpt lat="48.924654" lon="2.239061">
        <ele>28.102666</ele>
        <time>2025-03-06T15:17:14.883Z</time>
      </trkpt>
      <trkpt lat="48.924715" lon="2.239193">
        <ele>28.102740</ele>
        <time>2025-03-06T15:17:17.237Z</time>
      </trkpt>
      <trkpt lat="48.924872" lon="2.239538">
        <ele>28.102934</ele>
        <time>2025-03-06T15:17:23.239Z</time>
      </trkpt>
      <trkpt lat="48.925029" lon="2.239901">
        <ele>28.103134</ele>
        <time>2025-03-06T15:17:29.414Z</time>
      </trkpt>
      <trkpt lat="48.925130" lon="2.240122">
        <ele>28.103259</ele>
        <time>2025-03-06T15:17:33.361Z</time>
      </trkpt>
      <trkpt lat="48.925548" lon="2.241036">
        <ele>28.107041</ele>
        <time>2025-03-06T15:17:50.394Z</time>
      </trkpt>
      <trkpt lat="48.925557" lon="2.241061">
        <ele>28.109491</ele>
        <time>2025-03-06T15:17:50.838Z</time>
      </trkpt>
      <trkpt lat="48.925749" lon="2.241695">
        <ele>28.169479</ele>
        <time>2025-03-06T15:18:01.212Z</time>
      </trkpt>
      <trkpt lat="48.926142" lon="2.242954">
        <ele>28.289254</ele>
        <time>2025-03-06T15:18:21.843Z</time>
      </trkpt>
      <trkpt lat="48.926454" lon="2.243949">
        <ele>28.405346</ele>
        <time>2025-03-06T15:18:38.729Z</time>
      </trkpt>
      <trkpt lat="48.926574" lon="2.244336">
        <ele>28.459567</ele>
        <time>2025-03-06T15:18:45.511Z</time>
      </trkpt>
      <trkpt lat="48.926628" lon="2.244513">
        <ele>28.484293</ele>
        <time>2025-03-06T15:18:48.727Z</time>
      </trkpt>
      <trkpt lat="48.926846" lon="2.245241">
        <ele>28.585662</ele>
        <time>2025-03-06T15:19:01.731Z</time>
      </trkpt>
      <trkpt lat="48.927152" lon="2.246266">
        <ele>28.517990</ele>
        <time>2025-03-06T15:19:18.016Z</time>
      </trkpt>
      <trkpt lat="48.927321" lon="2.246801">
        <ele>28.220659</ele>
        <time>2025-03-06T15:19:26.099Z</time>
      </trkpt>
      <trkpt lat="48.927388" lon="2.247001">
        <ele>28.108214</ele>
        <time>2025-03-06T15:19:29.088Z</time>
      </trkpt>
      <trkpt lat="48.927432" lon="2.247124">
        <ele>28.038067</ele>
        <time>2025-03-06T15:19:30.891Z</time>
      </trkpt>
      <trkpt lat="48.927552" lon="2.247574">
        <ele>27.794817</ele>
        <time>2025-03-06T15:19:37.077Z</time>
      </trkpt>
      <trkpt lat="48.927612" lon="2.247825">
        <ele>27.661036</ele>
        <time>2025-03-06T15:19:40.425Z</time>
      </trkpt>
      <trkpt lat="48.927797" lon="2.248846">
        <ele>27.365421</ele>
        <time>2025-03-06T15:19:54.366Z</time>
      </trkpt>
      <trkpt lat="48.927863" lon="2.249349">
        <ele>27.436258</ele>
        <time>2025-03-06T15:20:01.472Z</time>
      </trkpt>
      <trkpt lat="48.927880" lon="2.249474">
        <ele>27.453886</ele>
        <time>2025-03-06T15:20:03.241Z</time>
      </trkpt>
      <trkpt lat="48.928027" lon="2.250643">
        <ele>27.618258</ele>
        <time>2025-03-06T15:20:22.377Z</time>
      </trkpt>
      <trkpt lat="48.928063" lon="2.251138">
        <ele>27.687036</ele>
        <time>2025-03-06T15:20:31.657Z</time>
      </trkpt>
      <trkpt lat="48.928060" lon="2.251587">
        <ele>27.881671</ele>
        <time>2025-03-06T15:20:40.096Z</time>
      </trkpt>
      <trkpt lat="48.928006" lon="2.252134">
        <ele>28.137958</ele>
        <time>2025-03-06T15:20:50.220Z</time>
      </trkpt>
      <trkpt lat="48.927972" lon="2.252297">
        <ele>28.217196</ele>
        <time>2025-03-06T15:20:53.306Z</time>
      </trkpt>
      <trkpt lat="48.927915" lon="2.252554">
        <ele>28.342874</ele>
        <time>2025-03-06T15:20:58.240Z</time>
      </trkpt>
      <trkpt lat="48.927786" lon="2.253098">
        <ele>28.610842</ele>
        <time>2025-03-06T15:21:08.618Z</time>
      </trkpt>
      <trkpt lat="48.927635" lon="2.253725">
        <ele>28.920255</ele>
        <time>2025-03-06T15:21:19.142Z</time>
      </trkpt>
      <trkpt lat="48.928247" lon="2.254052">
        <ele>28.702559</ele>
        <time>2025-03-06T15:21:32.571Z</time>
      </trkpt>
      <trkpt lat="48.928865" lon="2.254406">
        <ele>28.413435</ele>
        <time>2025-03-06T15:21:46.271Z</time>
      </trkpt>
      <trkpt lat="48.929057" lon="2.254518">
        <ele>28.323403</ele>
        <time>2025-03-06T15:21:50.436Z</time>
      </trkpt>
      <trkpt lat="48.929204" lon="2.254604">
        <ele>28.254447</ele>
        <time>2025-03-06T15:21:53.662Z</time>
      </trkpt>
      <trkpt lat="48.929776" lon="2.254915">
        <ele>28.307813</ele>
        <time>2025-03-06T15:22:06.406Z</time>
      </trkpt>
      <trkpt lat="48.929842" lon="2.254943">
        <ele>28.329562</ele>
        <time>2025-03-06T15:22:08.039Z</time>
      </trkpt>
      <trkpt lat="48.929875" lon="2.254953">
        <ele>28.340242</ele>
        <time>2025-03-06T15:22:08.834Z</time>
      </trkpt>
      <trkpt lat="48.929905" lon="2.254963">
        <ele>28.349991</ele>
        <time>2025-03-06T15:22:09.509Z</time>
      </trkpt>
      <trkpt lat="48.930071" lon="2.255015">
        <ele>28.403788</ele>
        <time>2025-03-06T15:22:13.641Z</time>
      </trkpt>
      <trkpt lat="48.930176" lon="2.255048">
        <ele>28.437821</ele>
        <time>2025-03-06T15:22:16.510Z</time>
      </trkpt>
      <trkpt lat="48.930277" lon="2.255080">
        <ele>28.470569</ele>
        <time>2025-03-06T15:22:19.221Z</time>
      </trkpt>
      <trkpt lat="48.930491" lon="2.255125">
        <ele>28.539144</ele>
        <time>2025-03-06T15:22:24.788Z</time>
      </trkpt>
      <trkpt lat="48.930719" lon="2.255155">
        <ele>28.611787</ele>
        <time>2025-03-06T15:22:30.544Z</time>
      </trkpt>
      <trkpt lat="48.931057" lon="2.255190">
        <ele>28.719326</ele>
        <time>2025-03-06T15:22:39.090Z</time>
      </trkpt>
      <trkpt lat="48.931674" lon="2.255251">
        <ele>28.671306</ele>
        <time>2025-03-06T15:22:55.762Z</time>
      </trkpt>
      <trkpt lat="48.932211" lon="2.255308">
        <ele>28.598134</ele>
        <time>2025-03-06T15:23:06.967Z</time>
      </trkpt>
      <trkpt lat="48.932289" lon="2.255317">
        <ele>28.587501</ele>
        <time>2025-03-06T15:23:08.489Z</time>
      </trkpt>
      <trkpt lat="48.932397" lon="2.255342">
        <ele>28.572651</ele>
        <time>2025-03-06T15:23:10.591Z</time>
      </trkpt>
      <trkpt lat="48.932528" lon="2.255375">
        <ele>28.554602</ele>
        <time>2025-03-06T15:23:13.184Z</time>
      </trkpt>
      <trkpt lat="48.932725" lon="2.255443">
        <ele>28.527143</ele>
        <time>2025-03-06T15:23:17.301Z</time>
      </trkpt>
      <trkpt lat="48.933278" lon="2.255550">
        <ele>28.524411</ele>
        <time>2025-03-06T15:23:29.881Z</time>
      </trkpt>
      <trkpt lat="48.933791" lon="2.255733">
        <ele>28.560235</ele>
        <time>2025-03-06T15:23:41.140Z</time>
      </trkpt>
      <trkpt lat="48.933920" lon="2.255797">
        <ele>28.569460</ele>
        <time>2025-03-06T15:23:44.112Z</time>
      </trkpt>
      <trkpt lat="48.934328" lon="2.256047">
        <ele>28.599362</ele>
        <time>2025-03-06T15:23:55.321Z</time>
      </trkpt>
      <trkpt lat="48.934409" lon="2.256100">
        <ele>28.605357</ele>
        <time>2025-03-06T15:23:57.813Z</time>
      </trkpt>
      <trkpt lat="48.934539" lon="2.256160">
        <ele>28.614593</ele>
        <time>2025-03-06T15:24:01.643Z</time>
      </trkpt>
      <trkpt lat="48.934941" lon="2.256316">
        <ele>28.559563</ele>
        <time>2025-03-06T15:24:11.891Z</time>
      </trkpt>
      <trkpt lat="48.935110" lon="2.256406">
        <ele>28.522193</ele>
        <time>2025-03-06T15:24:15.450Z</time>
      </trkpt>
      <trkpt lat="48.935415" lon="2.256599">
        <ele>28.453253</ele>
        <time>2025-03-06T15:24:22.003Z</time>
      </trkpt>
      <trkpt lat="48.936063" lon="2.257080">
        <ele>28.302781</ele>
        <time>2025-03-06T15:24:37.379Z</time>
      </trkpt>
      <trkpt lat="48.936194" lon="2.257178">
        <ele>28.272316</ele>
        <time>2025-03-06T15:24:40.474Z</time>
      </trkpt>
      <trkpt lat="48.936631" lon="2.257499">
        <ele>28.348909</ele>
        <time>2025-03-06T15:24:51.023Z</time>
      </trkpt>
      <trkpt lat="48.937285" lon="2.257974">
        <ele>28.552121</ele>
        <time>2025-03-06T15:25:09.100Z</time>
      </trkpt>
      <trkpt lat="48.937435" lon="2.258214">
        <ele>28.613148</ele>
        <time>2025-03-06T15:25:14.718Z</time>
      </trkpt>
      <trkpt lat="48.937599" lon="2.258186">
        <ele>28.659428</ele>
        <time>2025-03-06T15:25:18.741Z</time>
      </trkpt>
      <trkpt lat="48.937759" lon="2.257989">
        <ele>28.717138</ele>
        <time>2025-03-06T15:25:23.571Z</time>
      </trkpt>
      <trkpt lat="48.937817" lon="2.257995">
        <ele>28.733441</ele>
        <time>2025-03-06T15:25:24.985Z</time>
      </trkpt>
      <trkpt lat="48.938543" lon="2.257090">
        <ele>28.664986</ele>
        <time>2025-03-06T15:25:46.270Z</time>
      </trkpt>
      <trkpt lat="48.939234" lon="2.256303">
        <ele>28.579760</ele>
        <time>2025-03-06T15:26:04.867Z</time>
      </trkpt>
      <trkpt lat="48.939249" lon="2.256284">
        <ele>28.577833</ele>
        <time>2025-03-06T15:26:05.265Z</time>
      </trkpt>
      <trkpt lat="48.939235" lon="2.256254">
        <ele>28.575446</ele>
        <time>2025-03-06T15:26:05.784Z</time>
      </trkpt>
      <trkpt lat="48.939221" lon="2.256224">
        <ele>28.570896</ele>
        <time>2025-03-06T15:26:06.297Z</time>
      </trkpt>
      <trkpt lat="48.939264" lon="2.256181">
        <ele>28.549120</ele>
        <time>2025-03-06T15:26:07.353Z</time>
      </trkpt>
      <trkpt lat="48.939318" lon="2.256128">
        <ele>28.521927</ele>
        <time>2025-03-06T15:26:08.685Z</time>
      </trkpt>
      <trkpt lat="48.940128" lon="2.255262">
        <ele>28.102995</ele>
        <time>2025-03-06T15:26:29.050Z</time>
      </trkpt>
      <trkpt lat="48.941232" lon="2.254103">
        <ele>27.892825</ele>
        <time>2025-03-06T15:26:58.410Z</time>
      </trkpt>
      <trkpt lat="48.941751" lon="2.253564">
        <ele>27.969991</ele>
        <time>2025-03-06T15:27:12.961Z</time>
      </trkpt>
      <trkpt lat="48.941921" lon="2.253483">
        <ele>27.991870</ele>
        <time>2025-03-06T15:27:17.229Z</time>
      </trkpt>
      <trkpt lat="48.942092" lon="2.253486">
        <ele>28.012875</ele>
        <time>2025-03-06T15:27:21.390Z</time>
      </trkpt>
      <trkpt lat="48.942309" lon="2.253595">
        <ele>28.038319</ele>
        <time>2025-03-06T15:27:26.924Z</time>
      </trkpt>
      <trkpt lat="48.942574" lon="2.254126">
        <ele>28.073527</ele>
        <time>2025-03-06T15:27:37.100Z</time>
      </trkpt>
      <trkpt lat="48.943103" lon="2.255223">
        <ele>28.145374</ele>
        <time>2025-03-06T15:27:56.826Z</time>
      </trkpt>
      <trkpt lat="48.943169" lon="2.255354">
        <ele>28.154090</ele>
        <time>2025-03-06T15:27:59.251Z</time>
      </trkpt>
      <trkpt lat="48.943158" lon="2.255460">
        <ele>28.159755</ele>
        <time>2025-03-06T15:28:00.835Z</time>
      </trkpt>
      <trkpt lat="48.943204" lon="2.255659">
        <ele>28.170893</ele>
        <time>2025-03-06T15:28:03.925Z</time>
      </trkpt>
      <trkpt lat="48.943317" lon="2.255770">
        <ele>28.228375</ele>
        <time>2025-03-06T15:28:06.918Z</time>
      </trkpt>
      <trkpt lat="48.943427" lon="2.255769">
        <ele>28.346459</ele>
        <time>2025-03-06T15:28:09.408Z</time>
      </trkpt>
      <trkpt lat="48.943478" lon="2.255737">
        <ele>28.405672</ele>
        <time>2025-03-06T15:28:10.700Z</time>
      </trkpt>
      <trkpt lat="48.943537" lon="2.255659">
        <ele>28.489551</ele>
        <time>2025-03-06T15:28:12.482Z</time>
      </trkpt>
      <trkpt lat="48.943574" lon="2.255554">
        <ele>28.573564</ele>
        <time>2025-03-06T15:28:14.313Z</time>
      </trkpt>
      <trkpt lat="48.943692" lon="2.255453">
        <ele>28.718877</ele>
        <time>2025-03-06T15:28:17.490Z</time>
      </trkpt>
      <trkpt lat="48.943827" lon="2.255328">
        <ele>28.888490</ele>
        <time>2025-03-06T15:28:21.454Z</time>
      </trkpt>
      <trkpt lat="48.944020" lon="2.255108">
        <ele>29.147300</ele>
        <time>2025-03-06T15:28:27.927Z</time>
      </trkpt>
      <trkpt lat="48.944207" lon="2.254978">
        <ele>29.367974</ele>
        <time>2025-03-06T15:28:33.787Z</time>
      </trkpt>
      <trkpt lat="48.944647" lon="2.254795">
        <ele>29.857605</ele>
        <time>2025-03-06T15:28:47.857Z</time>
      </trkpt>
      <trkpt lat="48.945185" lon="2.255330">
        <ele>30.773129</ele>
        <time>2025-03-06T15:29:09.006Z</time>
      </trkpt>
      <trkpt lat="48.945644" lon="2.255788">
        <ele>31.665362</ele>
        <time>2025-03-06T15:29:26.749Z</time>
      </trkpt>
      <trkpt lat="48.945701" lon="2.255845">
        <ele>31.776235</ele>
        <time>2025-03-06T15:29:28.848Z</time>
      </trkpt>
      <trkpt lat="48.945957" lon="2.256112">
        <ele>32.280734</ele>
        <time>2025-03-06T15:29:37.896Z</time>
      </trkpt>
      <trkpt lat="48.946764" lon="2.254886">
        <ele>34.068112</ele>
        <time>2025-03-06T15:30:09.851Z</time>
      </trkpt>
      <trkpt lat="48.946936" lon="2.255129">
        <ele>34.426704</ele>
        <time>2025-03-06T15:30:16.848Z</time>
      </trkpt>
      <trkpt lat="48.947243" lon="2.255551">
        <ele>35.058799</ele>
        <time>2025-03-06T15:30:30.407Z</time>
      </trkpt>
      <trkpt lat="48.947492" lon="2.255842">
        <ele>35.538513</ele>
        <time>2025-03-06T15:30:40.646Z</time>
      </trkpt>
      <trkpt lat="48.947694" lon="2.255938">
        <ele>35.821207</ele>
        <time>2025-03-06T15:30:47.472Z</time>
      </trkpt>
      <trkpt lat="48.947793" lon="2.255879">
        <ele>35.901061</ele>
        <time>2025-03-06T15:30:50.811Z</time>
      </trkpt>
      <trkpt lat="48.947918" lon="2.255569">
        <ele>36.080505</ele>
        <time>2025-03-06T15:30:57.951Z</time>
      </trkpt>
      <trkpt lat="48.947938" lon="2.255529">
        <ele>36.105304</ele>
        <time>2025-03-06T15:30:58.906Z</time>
      </trkpt>
      <trkpt lat="48.948186" lon="2.254963">
        <ele>36.440944</ele>
        <time>2025-03-06T15:31:11.382Z</time>
      </trkpt>
      <trkpt lat="48.948744" lon="2.253672">
        <ele>37.209312</ele>
        <time>2025-03-06T15:31:33.943Z</time>
      </trkpt>
      <trkpt lat="48.948890" lon="2.253343">
        <ele>37.421825</ele>
        <time>2025-03-06T15:31:39.732Z</time>
      </trkpt>
      <trkpt lat="48.948981" lon="2.253503">
        <ele>37.535106</ele>
        <time>2025-03-06T15:31:42.952Z</time>
      </trkpt>
      <trkpt lat="48.949089" lon="2.253535">
        <ele>37.624771</ele>
        <time>2025-03-06T15:31:45.602Z</time>
      </trkpt>
      <trkpt lat="48.949279" lon="2.253535">
        <ele>37.779612</ele>
        <time>2025-03-06T15:31:50.288Z</time>
      </trkpt>
      <trkpt lat="48.949561" lon="2.253561">
        <ele>38.009848</ele>
        <time>2025-03-06T15:31:57.618Z</time>
      </trkpt>
      <trkpt lat="48.950874" lon="2.253710">
        <ele>39.386211</ele>
        <time>2025-03-06T15:32:37.007Z</time>
      </trkpt>
      <trkpt lat="48.951724" lon="2.253798">
        <ele>40.515539</ele>
        <time>2025-03-06T15:33:01.302Z</time>
      </trkpt>
      <trkpt lat="48.952084" lon="2.253837">
        <ele>40.998852</ele>
        <time>2025-03-06T15:33:11.019Z</time>
      </trkpt>
      <trkpt lat="48.952429" lon="2.253906">
        <ele>41.664365</ele>
        <time>2025-03-06T15:33:20.949Z</time>
      </trkpt>
      <trkpt lat="48.952649" lon="2.253965">
        <ele>42.091612</ele>
        <time>2025-03-06T15:33:27.827Z</time>
      </trkpt>
      <trkpt lat="48.953188" lon="2.254178">
        <ele>43.156648</ele>
        <time>2025-03-06T15:33:45.439Z</time>
      </trkpt>
      <trkpt lat="48.953569" lon="2.254322">
        <ele>43.907456</ele>
        <time>2025-03-06T15:33:58.994Z</time>
      </trkpt>
      <trkpt lat="48.953768" lon="2.254371">
        <ele>44.293006</ele>
        <time>2025-03-06T15:34:05.999Z</time>
      </trkpt>
      <trkpt lat="48.954082" lon="2.254568">
        <ele>44.999999</ele>
        <time>2025-03-06T15:34:17.832Z</time>
      </trkpt>
      <trkpt lat="48.954600" lon="2.254875">
        <ele>46.180692</ele>
        <time>2025-03-06T15:34:37.108Z</time>
      </trkpt>
      <trkpt lat="48.954904" lon="2.255065">
        <ele>46.878698</ele>
        <time>2025-03-06T15:34:47.578Z</time>
      </trkpt>
      <trkpt lat="48.955655" lon="2.255529">
        <ele>48.572076</ele>
        <time>2025-03-06T15:35:12.777Z</time>
      </trkpt>
      <trkpt lat="48.956786" lon="2.256230">
        <ele>50.961229</ele>
        <time>2025-03-06T15:35:51.756Z</time>
      </trkpt>
      <trkpt lat="48.958607" lon="2.257355">
        <ele>54.877113</ele>
        <time>2025-03-06T15:36:55.669Z</time>
      </trkpt>
      <trkpt lat="48.959529" lon="2.257954">
        <ele>56.496208</ele>
        <time>2025-03-06T15:37:26.665Z</time>
      </trkpt>
      <trkpt lat="48.959661" lon="2.258043">
        <ele>56.711489</ele>
        <time>2025-03-06T15:37:30.940Z</time>
      </trkpt>
      <trkpt lat="48.959843" lon="2.258224">
        <ele>57.035649</ele>
        <time>2025-03-06T15:37:37.250Z</time>
      </trkpt>
      <trkpt lat="48.960001" lon="2.258460">
        <ele>57.365682</ele>
        <time>2025-03-06T15:37:43.619Z</time>
      </trkpt>
      <trkpt lat="48.960011" lon="2.258551">
        <ele>57.456026</ele>
        <time>2025-03-06T15:37:45.304Z</time>
      </trkpt>
      <trkpt lat="48.960085" lon="2.258693">
        <ele>57.633542</ele>
        <time>2025-03-06T15:37:48.737Z</time>
      </trkpt>
      <trkpt lat="48.960193" lon="2.258734">
        <ele>57.799532</ele>
        <time>2025-03-06T15:37:51.899Z</time>
      </trkpt>
      <trkpt lat="48.960275" lon="2.258694">
        <ele>57.927939</ele>
        <time>2025-03-06T15:37:54.299Z</time>
      </trkpt>
      <trkpt lat="48.960327" lon="2.258620">
        <ele>58.034071</ele>
        <time>2025-03-06T15:37:56.342Z</time>
      </trkpt>
      <trkpt lat="48.960518" lon="2.258700">
        <ele>58.263244</ele>
        <time>2025-03-06T15:38:01.926Z</time>
      </trkpt>
      <trkpt lat="48.960813" lon="2.258985">
        <ele>58.662352</ele>
        <time>2025-03-06T15:38:11.813Z</time>
      </trkpt>
      <trkpt lat="48.961374" lon="2.259344">
        <ele>59.357541</ele>
        <time>2025-03-06T15:38:29.289Z</time>
      </trkpt>
      <trkpt lat="48.961524" lon="2.259441">
        <ele>59.543715</ele>
        <time>2025-03-06T15:38:33.843Z</time>
      </trkpt>
      <trkpt lat="48.962002" lon="2.259687">
        <ele>60.116321</ele>
        <time>2025-03-06T15:38:47.536Z</time>
      </trkpt>
      <trkpt lat="48.962223" lon="2.259793">
        <ele>60.327720</ele>
        <time>2025-03-06T15:38:53.595Z</time>
      </trkpt>
      <trkpt lat="48.963081" lon="2.260306">
        <ele>61.168706</ele>
        <time>2025-03-06T15:39:17.633Z</time>
      </trkpt>
      <trkpt lat="48.963685" lon="2.260679">
        <ele>61.751362</ele>
        <time>2025-03-06T15:39:35.394Z</time>
      </trkpt>
      <trkpt lat="48.963930" lon="2.260862">
        <ele>61.858913</ele>
        <time>2025-03-06T15:39:43.154Z</time>
      </trkpt>
      <trkpt lat="48.964247" lon="2.261023">
        <ele>61.990618</ele>
        <time>2025-03-06T15:39:52.804Z</time>
      </trkpt>
      <trkpt lat="48.964336" lon="2.261070">
        <ele>62.027745</ele>
        <time>2025-03-06T15:39:55.417Z</time>
      </trkpt>
      <trkpt lat="48.965164" lon="2.261501">
        <ele>62.372624</ele>
        <time>2025-03-06T15:40:16.120Z</time>
      </trkpt>
      <trkpt lat="48.965307" lon="2.261547">
        <ele>62.430229</ele>
        <time>2025-03-06T15:40:19.193Z</time>
      </trkpt>
      <trkpt lat="48.965385" lon="2.261593">
        <ele>62.393062</ele>
        <time>2025-03-06T15:40:20.911Z</time>
      </trkpt>
      <trkpt lat="48.965437" lon="2.261670">
        <ele>62.255153</ele>
        <time>2025-03-06T15:40:22.381Z</time>
      </trkpt>
      <trkpt lat="48.965504" lon="2.261641">
        <ele>62.122702</ele>
        <time>2025-03-06T15:40:23.760Z</time>
      </trkpt>
      <trkpt lat="48.965609" lon="2.261652">
        <ele>61.922562</ele>
        <time>2025-03-06T15:40:25.836Z</time>
      </trkpt>
      <trkpt lat="48.965691" lon="2.261678">
        <ele>61.763288</ele>
        <time>2025-03-06T15:40:27.451Z</time>
      </trkpt>
      <trkpt lat="48.966104" lon="2.261837">
        <ele>60.953231</ele>
        <time>2025-03-06T15:40:35.353Z</time>
      </trkpt>
      <trkpt lat="48.966201" lon="2.261837">
        <ele>60.768775</ele>
        <time>2025-03-06T15:40:37.097Z</time>
      </trkpt>
      <trkpt lat="48.966274" lon="2.261866">
        <ele>60.625315</ele>
        <time>2025-03-06T15:40:38.417Z</time>
      </trkpt>
      <trkpt lat="48.966353" lon="2.261901">
        <ele>60.468863</ele>
        <time>2025-03-06T15:40:39.852Z</time>
      </trkpt>
      <trkpt lat="48.966173" lon="2.262949">
        <ele>59.116499</ele>
        <time>2025-03-06T15:40:52.442Z</time>
      </trkpt>
      <trkpt lat="48.966105" lon="2.263218">
        <ele>58.757362</ele>
        <time>2025-03-06T15:40:55.808Z</time>
      </trkpt>
      <trkpt lat="48.966033" lon="2.263580">
        <ele>58.286394</ele>
        <time>2025-03-06T15:41:00.264Z</time>
      </trkpt>
      <trkpt lat="48.966026" lon="2.263661">
        <ele>58.184669</ele>
        <time>2025-03-06T15:41:01.249Z</time>
      </trkpt>
      <trkpt lat="48.966032" lon="2.263769">
        <ele>58.049714</ele>
        <time>2025-03-06T15:41:02.541Z</time>
      </trkpt>
      <trkpt lat="48.966030" lon="2.264002">
        <ele>57.759574</ele>
        <time>2025-03-06T15:41:05.353Z</time>
      </trkpt>
      <trkpt lat="48.966058" lon="2.264176">
        <ele>57.536508</ele>
        <time>2025-03-06T15:41:07.498Z</time>
      </trkpt>
      <trkpt lat="48.966103" lon="2.264327">
        <ele>57.330029</ele>
        <time>2025-03-06T15:41:09.468Z</time>
      </trkpt>
      <trkpt lat="48.966110" lon="2.264464">
        <ele>57.158930</ele>
        <time>2025-03-06T15:41:11.119Z</time>
      </trkpt>
      <trkpt lat="48.966172" lon="2.264548">
        <ele>57.001557</ele>
        <time>2025-03-06T15:41:12.623Z</time>
      </trkpt>
      <trkpt lat="48.966213" lon="2.264559">
        <ele>56.922599</ele>
        <time>2025-03-06T15:41:13.392Z</time>
      </trkpt>
      <trkpt lat="48.966277" lon="2.264530">
        <ele>56.795960</ele>
        <time>2025-03-06T15:41:14.603Z</time>
      </trkpt>
      <trkpt lat="48.966319" lon="2.264452">
        <ele>56.670351</ele>
        <time>2025-03-06T15:41:15.839Z</time>
      </trkpt>
      <trkpt lat="48.966431" lon="2.264389">
        <ele>56.443911</ele>
        <time>2025-03-06T15:41:18.045Z</time>
      </trkpt>
      <trkpt lat="48.966773" lon="2.264299">
        <ele>55.785665</ele>
        <time>2025-03-06T15:41:24.775Z</time>
      </trkpt>
      <trkpt lat="48.966813" lon="2.264294">
        <ele>55.709546</ele>
        <time>2025-03-06T15:41:25.567Z</time>
      </trkpt>
      <trkpt lat="48.966990" lon="2.264293">
        <ele>55.515072</ele>
        <time>2025-03-06T15:41:29.052Z</time>
      </trkpt>
      <trkpt lat="48.967445" lon="2.264399">
        <ele>55.143868</ele>
        <time>2025-03-06T15:41:38.200Z</time>
      </trkpt>
      <trkpt lat="48.967606" lon="2.264398">
        <ele>55.014027</ele>
        <time>2025-03-06T15:41:41.405Z</time>
      </trkpt>
      <trkpt lat="48.968159" lon="2.264528">
        <ele>54.562778</ele>
        <time>2025-03-06T15:41:52.751Z</time>
      </trkpt>
      <trkpt lat="48.968624" lon="2.264613">
        <ele>54.185085</ele>
        <time>2025-03-06T15:42:02.756Z</time>
      </trkpt>
      <trkpt lat="48.969117" lon="2.264588">
        <ele>53.968819</ele>
        <time>2025-03-06T15:42:13.152Z</time>
      </trkpt>
      <trkpt lat="48.969243" lon="2.264655">
        <ele>53.912375</ele>
        <time>2025-03-06T15:42:15.969Z</time>
      </trkpt>
      <trkpt lat="48.969341" lon="2.264544">
        <ele>53.860724</ele>
        <time>2025-03-06T15:42:18.527Z</time>
      </trkpt>
      <trkpt lat="48.969361" lon="2.264531">
        <ele>53.851528</ele>
        <time>2025-03-06T15:42:18.983Z</time>
      </trkpt>
      <trkpt lat="48.969390" lon="2.264517">
        <ele>53.838661</ele>
        <time>2025-03-06T15:42:19.631Z</time>
      </trkpt>
      <trkpt lat="48.970033" lon="2.264377">
        <ele>53.563945</ele>
        <time>2025-03-06T15:42:33.468Z</time>
      </trkpt>
      <trkpt lat="48.970221" lon="2.264337">
        <ele>53.483660</ele>
        <time>2025-03-06T15:42:37.498Z</time>
      </trkpt>
      <trkpt lat="48.970899" lon="2.264187">
        <ele>52.972967</ele>
        <time>2025-03-06T15:42:51.842Z</time>
      </trkpt>
      <trkpt lat="48.971654" lon="2.264034">
        <ele>52.318888</ele>
        <time>2025-03-06T15:43:07.415Z</time>
      </trkpt>
      <trkpt lat="48.971860" lon="2.264055">
        <ele>52.141587</ele>
        <time>2025-03-06T15:43:11.452Z</time>
      </trkpt>
      <trkpt lat="48.972564" lon="2.264438">
        <ele>51.238427</ele>
        <time>2025-03-06T15:43:25.624Z</time>
      </trkpt>
      <trkpt lat="48.973052" lon="2.264714">
        <ele>50.470686</ele>
        <time>2025-03-06T15:43:35.346Z</time>
      </trkpt>
      <trkpt lat="48.973532" lon="2.264988">
        <ele>49.714677</ele>
        <time>2025-03-06T15:43:45.061Z</time>
      </trkpt>
      <trkpt lat="48.973972" lon="2.265236">
        <ele>49.124786</ele>
        <time>2025-03-06T15:43:54.240Z</time>
      </trkpt>
      <trkpt lat="48.974109" lon="2.265318">
        <ele>49.025427</ele>
        <time>2025-03-06T15:43:57.189Z</time>
      </trkpt>
      <trkpt lat="48.974384" lon="2.265477">
        <ele>48.826879</ele>
        <time>2025-03-06T15:44:03.152Z</time>
      </trkpt>
      <trkpt lat="48.975212" lon="2.265929">
        <ele>48.233169</ele>
        <time>2025-03-06T15:44:21.594Z</time>
      </trkpt>
      <trkpt lat="48.975895" lon="2.266426">
        <ele>47.735497</ele>
        <time>2025-03-06T15:44:37.293Z</time>
      </trkpt>
      <trkpt lat="48.976276" lon="2.266703">
        <ele>47.464288</ele>
        <time>2025-03-06T15:44:46.090Z</time>
      </trkpt>
      <trkpt lat="48.976646" lon="2.266986">
        <ele>47.198315</ele>
        <time>2025-03-06T15:44:54.666Z</time>
      </trkpt>
      <trkpt lat="48.976665" lon="2.267104">
        <ele>47.147083</ele>
        <time>2025-03-06T15:44:56.311Z</time>
      </trkpt>
      <trkpt lat="48.976682" lon="2.267228">
        <ele>47.093667</ele>
        <time>2025-03-06T15:44:58.009Z</time>
      </trkpt>
      <trkpt lat="48.976679" lon="2.267389">
        <ele>47.025751</ele>
        <time>2025-03-06T15:45:00.176Z</time>
      </trkpt>
      <trkpt lat="48.976730" lon="2.267467">
        <ele>46.979326</ele>
        <time>2025-03-06T15:45:01.665Z</time>
      </trkpt>
      <trkpt lat="48.976741" lon="2.267579">
        <ele>46.931573</ele>
        <time>2025-03-06T15:45:03.169Z</time>
      </trkpt>
      <trkpt lat="48.976751" lon="2.267709">
        <ele>46.876381</ele>
        <time>2025-03-06T15:45:04.910Z</time>
      </trkpt>
      <trkpt lat="48.976756" lon="2.267815">
        <ele>46.830617</ele>
        <time>2025-03-06T15:45:06.310Z</time>
      </trkpt>
      <trkpt lat="48.976866" lon="2.268330">
        <ele>46.579869</ele>
        <time>2025-03-06T15:45:13.439Z</time>
      </trkpt>
      <trkpt lat="48.976934" lon="2.268743">
        <ele>46.382730</ele>
        <time>2025-03-06T15:45:19.091Z</time>
      </trkpt>
      <trkpt lat="48.976948" lon="2.268967">
        <ele>46.278552</ele>
        <time>2025-03-06T15:45:22.109Z</time>
      </trkpt>
      <trkpt lat="48.977004" lon="2.269233">
        <ele>46.149217</ele>
        <time>2025-03-06T15:45:25.861Z</time>
      </trkpt>
      <trkpt lat="48.977041" lon="2.269399">
        <ele>46.068050</ele>
        <time>2025-03-06T15:45:28.174Z</time>
      </trkpt>
      <trkpt lat="48.977167" lon="2.270297">
        <ele>45.642894</ele>
        <time>2025-03-06T15:45:40.489Z</time>
      </trkpt>
      <trkpt lat="48.977261" lon="2.270779">
        <ele>45.589410</ele>
        <time>2025-03-06T15:45:47.403Z</time>
      </trkpt>
      <trkpt lat="48.977215" lon="2.271099">
        <ele>45.605153</ele>
        <time>2025-03-06T15:45:52.028Z</time>
      </trkpt>
      <trkpt lat="48.977153" lon="2.271187">
        <ele>45.611357</ele>
        <time>2025-03-06T15:45:53.894Z</time>
      </trkpt>
      <trkpt lat="48.977155" lon="2.271316">
        <ele>45.617558</ele>
        <time>2025-03-06T15:45:55.791Z</time>
      </trkpt>
      <trkpt lat="48.977199" lon="2.271386">
        <ele>45.622216</ele>
        <time>2025-03-06T15:45:57.202Z</time>
      </trkpt>
      <trkpt lat="48.977261" lon="2.271405">
        <ele>45.626847</ele>
        <time>2025-03-06T15:45:58.648Z</time>
      </trkpt>
      <trkpt lat="48.977274" lon="2.271401">
        <ele>45.627818</ele>
        <time>2025-03-06T15:45:58.959Z</time>
      </trkpt>
      <trkpt lat="48.977293" lon="2.271390">
        <ele>45.629306</ele>
        <time>2025-03-06T15:45:59.439Z</time>
      </trkpt>
      <trkpt lat="48.977311" lon="2.271374">
        <ele>45.630832</ele>
        <time>2025-03-06T15:45:59.905Z</time>
      </trkpt>
      <trkpt lat="48.977354" lon="2.271517">
        <ele>45.638391</ele>
        <time>2025-03-06T15:46:02.412Z</time>
      </trkpt>
      <trkpt lat="48.977415" lon="2.271485">
        <ele>45.643115</ele>
        <time>2025-03-06T15:46:03.934Z</time>
      </trkpt>
      <trkpt lat="48.977581" lon="2.271493">
        <ele>45.655275</ele>
        <time>2025-03-06T15:46:07.943Z</time>
      </trkpt>
      <trkpt lat="48.977646" lon="2.271457">
        <ele>45.660339</ele>
        <time>2025-03-06T15:46:09.601Z</time>
      </trkpt>
      <trkpt lat="48.977817" lon="2.271369">
        <ele>45.673554</ele>
        <time>2025-03-06T15:46:13.934Z</time>
      </trkpt>
      <trkpt lat="48.977801" lon="2.271282">
        <ele>45.677896</ele>
        <time>2025-03-06T15:46:18.031Z</time>
      </trkpt>
      <trkpt lat="48.978431" lon="2.270987">
        <ele>45.820199</ele>
        <time>2025-03-06T15:47:03.864Z</time>
      </trkpt>
      <trkpt lat="48.978613" lon="2.270921">
        <ele>45.892690</ele>
        <time>2025-03-06T15:47:16.834Z</time>
      </trkpt>
      <trkpt lat="48.978908" lon="2.270814">
        <ele>46.010189</ele>
        <time>2025-03-06T15:47:37.917Z</time>
      </trkpt>
      <trkpt lat="48.979653" lon="2.270412">
        <ele>46.316425</ele>
        <time>2025-03-06T15:48:32.808Z</time>
      </trkpt>
      <trkpt lat="48.979823" lon="2.270394">
        <ele>46.382455</ele>
        <time>2025-03-06T15:48:44.647Z</time>
      </trkpt>
      <trkpt lat="48.979882" lon="2.270392">
        <ele>46.413601</ele>
        <time>2025-03-06T15:48:48.803Z</time>
      </trkpt>
      <trkpt lat="48.979935" lon="2.270510">
        <ele>46.522456</ele>
        <time>2025-03-06T15:48:51.109Z</time>
      </trkpt>
      <trkpt lat="48.980011" lon="2.270523">
        <ele>46.611166</ele>
        <time>2025-03-06T15:48:53.004Z</time>
      </trkpt>
      <trkpt lat="48.980095" lon="2.270527">
        <ele>46.708649</ele>
        <time>2025-03-06T15:48:55.051Z</time>
      </trkpt>
      <trkpt lat="48.980132" lon="2.270525">
        <ele>46.751594</ele>
        <time>2025-03-06T15:48:55.949Z</time>
      </trkpt>
      <trkpt lat="48.980199" lon="2.270468">
        <ele>46.840605</ele>
        <time>2025-03-06T15:48:57.854Z</time>
      </trkpt>
      <trkpt lat="48.980277" lon="2.270454">
        <ele>46.931706</ele>
        <time>2025-03-06T15:48:59.742Z</time>
      </trkpt>
      <trkpt lat="48.980561" lon="2.270476">
        <ele>47.261557</ele>
        <time>2025-03-06T15:49:06.648Z</time>
      </trkpt>
      <trkpt lat="48.980618" lon="2.270492">
        <ele>47.328786</ele>
        <time>2025-03-06T15:49:08.070Z</time>
      </trkpt>
      <trkpt lat="48.981000" lon="2.270612">
        <ele>47.781205</ele>
        <time>2025-03-06T15:49:18.459Z</time>
      </trkpt>
      <trkpt lat="48.981037" lon="2.270628">
        <ele>47.825818</ele>
        <time>2025-03-06T15:49:19.564Z</time>
      </trkpt>
      <trkpt lat="48.981630" lon="2.270997">
        <ele>48.723996</ele>
        <time>2025-03-06T15:49:40.182Z</time>
      </trkpt>
      <trkpt lat="48.981705" lon="2.271022">
        <ele>48.982991</ele>
        <time>2025-03-06T15:49:42.881Z</time>
      </trkpt>
      <trkpt lat="48.981805" lon="2.271101">
        <ele>49.362986</ele>
        <time>2025-03-06T15:49:46.917Z</time>
      </trkpt>
      <trkpt lat="48.982332" lon="2.271453">
        <ele>51.304124</ele>
        <time>2025-03-06T15:50:09.245Z</time>
      </trkpt>
      <trkpt lat="48.982878" lon="2.271762">
        <ele>53.268989</ele>
        <time>2025-03-06T15:50:34.124Z</time>
      </trkpt>
      <trkpt lat="48.983569" lon="2.272030">
        <ele>55.418724</ele>
        <time>2025-03-06T15:51:03.582Z</time>
      </trkpt>
      <trkpt lat="48.984040" lon="2.272210">
        <ele>56.682634</ele>
        <time>2025-03-06T15:51:21.801Z</time>
      </trkpt>
      <trkpt lat="48.984236" lon="2.272287">
        <ele>57.209474</ele>
        <time>2025-03-06T15:51:28.866Z</time>
      </trkpt>
      <trkpt lat="48.984661" lon="2.272418">
        <ele>58.338089</ele>
        <time>2025-03-06T15:51:43.124Z</time>
      </trkpt>
      <trkpt lat="48.985006" lon="2.272570">
        <ele>59.240464</ele>
        <time>2025-03-06T15:51:54.162Z</time>
      </trkpt>
      <trkpt lat="48.985239" lon="2.272669">
        <ele>59.304695</ele>
        <time>2025-03-06T15:52:01.381Z</time>
      </trkpt>
      <trkpt lat="48.985993" lon="2.272993">
        <ele>59.512723</ele>
        <time>2025-03-06T15:52:21.214Z</time>
      </trkpt>
      <trkpt lat="48.986508" lon="2.273214">
        <ele>59.654796</ele>
        <time>2025-03-06T15:52:32.571Z</time>
      </trkpt>
      <trkpt lat="48.986695" lon="2.273291">
        <ele>59.706233</ele>
        <time>2025-03-06T15:52:36.494Z</time>
      </trkpt>
      <trkpt lat="48.987258" lon="2.273537">
        <ele>58.685039</ele>
        <time>2025-03-06T15:52:47.838Z</time>
      </trkpt>
      <trkpt lat="48.987310" lon="2.273559">
        <ele>58.584934</ele>
        <time>2025-03-06T15:52:48.837Z</time>
      </trkpt>
      <trkpt lat="48.987972" lon="2.273854">
        <ele>57.305548</ele>
        <time>2025-03-06T15:53:01.433Z</time>
      </trkpt>
      <trkpt lat="48.988105" lon="2.273909">
        <ele>57.049920</ele>
        <time>2025-03-06T15:53:03.883Z</time>
      </trkpt>
      <trkpt lat="48.988905" lon="2.274260">
        <ele>55.399949</ele>
        <time>2025-03-06T15:53:18.603Z</time>
      </trkpt>
      <trkpt lat="48.989666" lon="2.274597">
        <ele>53.751758</ele>
        <time>2025-03-06T15:53:32.724Z</time>
      </trkpt>
      <trkpt lat="48.990245" lon="2.274846">
        <ele>52.622173</ele>
        <time>2025-03-06T15:53:44.076Z</time>
      </trkpt>
      <trkpt lat="48.990847" lon="2.275033">
        <ele>52.481255</ele>
        <time>2025-03-06T15:53:56.944Z</time>
      </trkpt>
      <trkpt lat="48.991106" lon="2.275011">
        <ele>52.421757</ele>
        <time>2025-03-06T15:54:03.027Z</time>
      </trkpt>
      <trkpt lat="48.991266" lon="2.274950">
        <ele>52.383927</ele>
        <time>2025-03-06T15:54:06.978Z</time>
      </trkpt>
      <trkpt lat="48.991342" lon="2.274921">
        <ele>52.365957</ele>
        <time>2025-03-06T15:54:08.897Z</time>
      </trkpt>
      <trkpt lat="48.991383" lon="2.275060">
        <ele>52.343021</ele>
        <time>2025-03-06T15:54:11.358Z</time>
      </trkpt>
      <trkpt lat="48.991456" lon="2.275129">
        <ele>52.323318</ele>
        <time>2025-03-06T15:54:13.506Z</time>
      </trkpt>
      <trkpt lat="48.991543" lon="2.275130">
        <ele>52.303362</ele>
        <time>2025-03-06T15:54:15.634Z</time>
      </trkpt>
      <trkpt lat="48.991602" lon="2.275083">
        <ele>52.288093</ele>
        <time>2025-03-06T15:54:17.325Z</time>
      </trkpt>
      <trkpt lat="48.991654" lon="2.274959">
        <ele>52.265944</ele>
        <time>2025-03-06T15:54:19.714Z</time>
      </trkpt>
      <trkpt lat="48.991659" lon="2.274885">
        <ele>52.254748</ele>
        <time>2025-03-06T15:54:20.940Z</time>
      </trkpt>
      <trkpt lat="48.991820" lon="2.274796">
        <ele>52.207410</ele>
        <time>2025-03-06T15:54:25.214Z</time>
      </trkpt>
      <trkpt lat="48.991900" lon="2.274752">
        <ele>52.170887</ele>
        <time>2025-03-06T15:54:27.310Z</time>
      </trkpt>
      <trkpt lat="48.993030" lon="2.274703">
        <ele>51.685437</ele>
        <time>2025-03-06T15:54:50.218Z</time>
      </trkpt>
      <trkpt lat="48.993152" lon="2.274690">
        <ele>51.632919</ele>
        <time>2025-03-06T15:54:52.595Z</time>
      </trkpt>
      <trkpt lat="48.993386" lon="2.274701">
        <ele>51.532385</ele>
        <time>2025-03-06T15:54:57.541Z</time>
      </trkpt>
      <trkpt lat="48.993474" lon="2.274707">
        <ele>51.494557</ele>
        <time>2025-03-06T15:54:59.501Z</time>
      </trkpt>
      <trkpt lat="48.993511" lon="2.274777">
        <ele>51.469230</ele>
        <time>2025-03-06T15:55:00.875Z</time>
      </trkpt>
      <trkpt lat="48.993564" lon="2.274809">
        <ele>51.483147</ele>
        <time>2025-03-06T15:55:02.181Z</time>
      </trkpt>
      <trkpt lat="48.993629" lon="2.274795">
        <ele>51.598040</ele>
        <time>2025-03-06T15:55:03.721Z</time>
      </trkpt>
      <trkpt lat="48.993676" lon="2.274734">
        <ele>51.706085</ele>
        <time>2025-03-06T15:55:05.283Z</time>
      </trkpt>
      <trkpt lat="48.993752" lon="2.274755">
        <ele>51.841268</ele>
        <time>2025-03-06T15:55:07.046Z</time>
      </trkpt>
      <trkpt lat="48.993873" lon="2.274800">
        <ele>52.059255</ele>
        <time>2025-03-06T15:55:10.063Z</time>
      </trkpt>
      <trkpt lat="48.994183" lon="2.275024">
        <ele>52.659705</ele>
        <time>2025-03-06T15:55:18.585Z</time>
      </trkpt>
      <trkpt lat="48.994507" lon="2.275259">
        <ele>53.287707</ele>
        <time>2025-03-06T15:55:29.598Z</time>
      </trkpt>
      <trkpt lat="48.994672" lon="2.275440">
        <ele>53.643513</ele>
        <time>2025-03-06T15:55:37.008Z</time>
      </trkpt>
      <trkpt lat="48.994680" lon="2.275535">
        <ele>53.753501</ele>
        <time>2025-03-06T15:55:39.310Z</time>
      </trkpt>
      <trkpt lat="48.994749" lon="2.275667">
        <ele>53.947307</ele>
        <time>2025-03-06T15:55:43.761Z</time>
      </trkpt>
      <trkpt lat="48.994833" lon="2.275731">
        <ele>54.111670</ele>
        <time>2025-03-06T15:55:47.583Z</time>
      </trkpt>
      <trkpt lat="48.994964" lon="2.275807">
        <ele>54.356994</ele>
        <time>2025-03-06T15:55:53.447Z</time>
      </trkpt>
      <trkpt lat="48.995065" lon="2.275755">
        <ele>54.543577</ele>
        <time>2025-03-06T15:55:58.027Z</time>
      </trkpt>
      <trkpt lat="48.995191" lon="2.275769">
        <ele>54.808572</ele>
        <time>2025-03-06T15:56:03.670Z</time>
      </trkpt>
      <trkpt lat="48.995211" lon="2.275696">
        <ele>54.923666</ele>
        <time>2025-03-06T15:56:05.645Z</time>
      </trkpt>
      <trkpt lat="48.995228" lon="2.275716">
        <ele>54.971285</ele>
        <time>2025-03-06T15:56:07.130Z</time>
      </trkpt>
      <trkpt lat="48.996136" lon="2.276264">
        <ele>57.136783</ele>
        <time>2025-03-06T15:56:41.792Z</time>
      </trkpt>
      <trkpt lat="48.996089" lon="2.276382">
        <ele>57.337613</ele>
        <time>2025-03-06T15:56:44.602Z</time>
      </trkpt>
      <trkpt lat="48.996713" lon="2.276683">
        <ele>58.607713</ele>
        <time>2025-03-06T15:57:03.349Z</time>
      </trkpt>
      <trkpt lat="48.996760" lon="2.276707">
        <ele>58.618210</ele>
        <time>2025-03-06T15:57:04.610Z</time>
      </trkpt>
      <trkpt lat="48.997322" lon="2.276970">
        <ele>58.742707</ele>
        <time>2025-03-06T15:57:17.905Z</time>
      </trkpt>
      <trkpt lat="48.997544" lon="2.277058">
        <ele>58.791283</ele>
        <time>2025-03-06T15:57:23.007Z</time>
      </trkpt>
      <trkpt lat="48.997974" lon="2.277152">
        <ele>58.883275</ele>
        <time>2025-03-06T15:57:32.520Z</time>
      </trkpt>
      <trkpt lat="48.998310" lon="2.277231">
        <ele>58.955271</ele>
        <time>2025-03-06T15:57:40.008Z</time>
      </trkpt>
      <trkpt lat="48.999045" lon="2.277514">
        <ele>59.087740</ele>
        <time>2025-03-06T15:57:57.243Z</time>
      </trkpt>
      <trkpt lat="48.999351" lon="2.277620">
        <ele>59.141446</ele>
        <time>2025-03-06T15:58:04.163Z</time>
      </trkpt>
      <trkpt lat="48.999823" lon="2.277850">
        <ele>59.226255</ele>
        <time>2025-03-06T15:58:15.392Z</time>
      </trkpt>
      <trkpt lat="49.000039" lon="2.278007">
        <ele>59.267211</ele>
        <time>2025-03-06T15:58:21.041Z</time>
      </trkpt>
      <trkpt lat="49.000207" lon="2.278178">
        <ele>59.461609</ele>
        <time>2025-03-06T15:58:26.123Z</time>
      </trkpt>
      <trkpt lat="49.000432" lon="2.278400">
        <ele>59.807002</ele>
        <time>2025-03-06T15:58:33.301Z</time>
      </trkpt>
      <trkpt lat="49.000548" lon="2.278514">
        <ele>59.984863</ele>
        <time>2025-03-06T15:58:37.175Z</time>
      </trkpt>
      <trkpt lat="49.000873" lon="2.278870">
        <ele>60.500605</ele>
        <time>2025-03-06T15:58:48.590Z</time>
      </trkpt>
      <trkpt lat="49.001058" lon="2.279058">
        <ele>60.787131</ele>
        <time>2025-03-06T15:58:55.198Z</time>
      </trkpt>
      <trkpt lat="49.001133" lon="2.279119">
        <ele>60.896678</ele>
        <time>2025-03-06T15:58:57.807Z</time>
      </trkpt>
      <trkpt lat="49.001429" lon="2.279366">
        <ele>61.331539</ele>
        <time>2025-03-06T15:59:08.480Z</time>
      </trkpt>
      <trkpt lat="49.002900" lon="2.280605">
        <ele>63.799540</ele>
        <time>2025-03-06T16:00:01.084Z</time>
      </trkpt>
      <trkpt lat="49.003236" lon="2.280924">
        <ele>64.322812</ele>
        <time>2025-03-06T16:00:10.871Z</time>
      </trkpt>
      <trkpt lat="49.003343" lon="2.281090">
        <ele>64.409358</ele>
        <time>2025-03-06T16:00:14.489Z</time>
      </trkpt>
      <trkpt lat="49.003381" lon="2.281230">
        <ele>64.465702</ele>
        <time>2025-03-06T16:00:16.827Z</time>
      </trkpt>
      <trkpt lat="49.003384" lon="2.281344">
        <ele>64.508132</ele>
        <time>2025-03-06T16:00:18.597Z</time>
      </trkpt>
      <trkpt lat="49.003425" lon="2.281439">
        <ele>64.550421</ele>
        <time>2025-03-06T16:00:20.340Z</time>
      </trkpt>
      <trkpt lat="49.003484" lon="2.281484">
        <ele>64.587820</ele>
        <time>2025-03-06T16:00:21.879Z</time>
      </trkpt>
      <trkpt lat="49.003550" lon="2.281481">
        <ele>64.625251</ele>
        <time>2025-03-06T16:00:23.393Z</time>
      </trkpt>
      <trkpt lat="49.003604" lon="2.281437">
        <ele>64.659962</ele>
        <time>2025-03-06T16:00:24.836Z</time>
      </trkpt>
      <trkpt lat="49.003716" lon="2.281417">
        <ele>64.723887</ele>
        <time>2025-03-06T16:00:27.388Z</time>
      </trkpt>
      <trkpt lat="49.003833" lon="2.281443">
        <ele>64.790914</ele>
        <time>2025-03-06T16:00:30.087Z</time>
      </trkpt>
      <trkpt lat="49.004203" lon="2.281683">
        <ele>65.018862</ele>
        <time>2025-03-06T16:00:39.417Z</time>
      </trkpt>
      <trkpt lat="49.004302" lon="2.281795">
        <ele>65.088750</ele>
        <time>2025-03-06T16:00:42.450Z</time>
      </trkpt>
      <trkpt lat="49.005300" lon="2.282537">
        <ele>66.048168</ele>
        <time>2025-03-06T16:01:13.875Z</time>
      </trkpt>
      <trkpt lat="49.005938" lon="2.282960">
        <ele>66.754421</ele>
        <time>2025-03-06T16:01:32.428Z</time>
      </trkpt>
      <trkpt lat="49.006206" lon="2.283162">
        <ele>67.057912</ele>
        <time>2025-03-06T16:01:40.425Z</time>
      </trkpt>
      <trkpt lat="49.006316" lon="2.283332">
        <ele>67.262358</ele>
        <time>2025-03-06T16:01:44.641Z</time>
      </trkpt>
      <trkpt lat="49.006535" lon="2.284036">
        <ele>68.042647</ele>
        <time>2025-03-06T16:01:58.529Z</time>
      </trkpt>
      <trkpt lat="49.006630" lon="2.284248">
        <ele>68.299766</ele>
        <time>2025-03-06T16:02:03.244Z</time>
      </trkpt>
      <trkpt lat="49.006725" lon="2.284299">
        <ele>68.453531</ele>
        <time>2025-03-06T16:02:06.224Z</time>
      </trkpt>
      <trkpt lat="49.007285" lon="2.284487">
        <ele>69.328955</ele>
        <time>2025-03-06T16:02:23.359Z</time>
      </trkpt>
      <trkpt lat="49.007571" lon="2.284573">
        <ele>69.773998</ele>
        <time>2025-03-06T16:02:33.251Z</time>
      </trkpt>
      <trkpt lat="49.007770" lon="2.284620">
        <ele>70.220266</ele>
        <time>2025-03-06T16:02:40.481Z</time>
      </trkpt>
      <trkpt lat="49.008002" lon="2.284663">
        <ele>70.814384</ele>
        <time>2025-03-06T16:02:48.489Z</time>
      </trkpt>
      <trkpt lat="49.008432" lon="2.284663">
        <ele>71.907501</ele>
        <time>2025-03-06T16:03:03.884Z</time>
      </trkpt>
      <trkpt lat="49.008503" lon="2.284666">
        <ele>72.088062</ele>
        <time>2025-03-06T16:03:06.444Z</time>
      </trkpt>
      <trkpt lat="49.008539" lon="2.284668">
        <ele>72.179640</ele>
        <time>2025-03-06T16:03:07.808Z</time>
      </trkpt>
      <trkpt lat="49.008738" lon="2.284700">
        <ele>72.688331</ele>
        <time>2025-03-06T16:03:15.285Z</time>
      </trkpt>
      <trkpt lat="49.008936" lon="2.284722">
        <ele>73.193008</ele>
        <time>2025-03-06T16:03:22.530Z</time>
      </trkpt>
      <trkpt lat="49.009819" lon="2.285021">
        <ele>75.233275</ele>
        <time>2025-03-06T16:03:53.418Z</time>
      </trkpt>
      <trkpt lat="49.009837" lon="2.285028">
        <ele>75.268814</ele>
        <time>2025-03-06T16:03:54.012Z</time>
      </trkpt>
      <trkpt lat="49.010244" lon="2.285159">
        <ele>76.064621</ele>
        <time>2025-03-06T16:04:07.316Z</time>
      </trkpt>
      <trkpt lat="49.010595" lon="2.285223">
        <ele>76.740915</ele>
        <time>2025-03-06T16:04:18.392Z</time>
      </trkpt>
      <trkpt lat="49.010874" lon="2.285398">
        <ele>77.318086</ele>
        <time>2025-03-06T16:04:27.483Z</time>
      </trkpt>
      <trkpt lat="49.011265" lon="2.285566">
        <ele>77.995769</ele>
        <time>2025-03-06T16:04:39.576Z</time>
      </trkpt>
      <trkpt lat="49.012219" lon="2.285852">
        <ele>78.970944</ele>
        <time>2025-03-06T16:05:08.362Z</time>
      </trkpt>
      <trkpt lat="49.012792" lon="2.286133">
        <ele>79.574655</ele>
        <time>2025-03-06T16:05:23.345Z</time>
      </trkpt>
      <trkpt lat="49.013319" lon="2.286307">
        <ele>79.853741</ele>
        <time>2025-03-06T16:05:35.192Z</time>
      </trkpt>
      <trkpt lat="49.013693" lon="2.286373">
        <ele>79.998981</ele>
        <time>2025-03-06T16:05:43.409Z</time>
      </trkpt>
      <trkpt lat="49.013862" lon="2.286430">
        <ele>80.065752</ele>
        <time>2025-03-06T16:05:47.239Z</time>
      </trkpt>
      <trkpt lat="49.014114" lon="2.286629">
        <ele>80.175231</ele>
        <time>2025-03-06T16:05:53.724Z</time>
      </trkpt>
      <trkpt lat="49.014107" lon="2.286666">
        <ele>80.184974</ele>
        <time>2025-03-06T16:05:54.295Z</time>
      </trkpt>
      <trkpt lat="49.014113" lon="2.286741">
        <ele>80.204091</ele>
        <time>2025-03-06T16:05:55.502Z</time>
      </trkpt>
      <trkpt lat="49.014144" lon="2.286799">
        <ele>80.223021</ele>
        <time>2025-03-06T16:05:56.687Z</time>
      </trkpt>
      <trkpt lat="49.014201" lon="2.286821">
        <ele>80.245703</ele>
        <time>2025-03-06T16:05:58.067Z</time>
      </trkpt>
      <trkpt lat="49.014364" lon="2.286990">
        <ele>80.321745</ele>
        <time>2025-03-06T16:06:03.088Z</time>
      </trkpt>
      <trkpt lat="49.015128" lon="2.287934">
        <ele>81.850290</ele>
        <time>2025-03-06T16:06:33.561Z</time>
      </trkpt>
      <trkpt lat="49.015256" lon="2.288055">
        <ele>82.118948</ele>
        <time>2025-03-06T16:06:38.561Z</time>
      </trkpt>
      <trkpt lat="49.015445" lon="2.288223">
        <ele>82.509208</ele>
        <time>2025-03-06T16:06:45.849Z</time>
      </trkpt>
      <trkpt lat="49.016422" lon="2.288902">
        <ele>84.374529</ele>
        <time>2025-03-06T16:07:19.737Z</time>
      </trkpt>
      <trkpt lat="49.016854" lon="2.289112">
        <ele>85.134750</ele>
        <time>2025-03-06T16:07:32.805Z</time>
      </trkpt>
      <trkpt lat="49.017440" lon="2.289353">
        <ele>86.152363</ele>
        <time>2025-03-06T16:07:50.629Z</time>
      </trkpt>
      <trkpt lat="49.017573" lon="2.289435">
        <ele>86.392893</ele>
        <time>2025-03-06T16:07:55.009Z</time>
      </trkpt>
      <trkpt lat="49.017740" lon="2.289605">
        <ele>86.799315</ele>
        <time>2025-03-06T16:08:01.415Z</time>
      </trkpt>
      <trkpt lat="49.017840" lon="2.289765">
        <ele>87.182036</ele>
        <time>2025-03-06T16:08:06.287Z</time>
      </trkpt>
      <trkpt lat="49.018186" lon="2.290366">
        <ele>88.566823</ele>
        <time>2025-03-06T16:08:25.137Z</time>
      </trkpt>
      <trkpt lat="49.018524" lon="2.290821">
        <ele>89.757282</ele>
        <time>2025-03-06T16:08:41.650Z</time>
      </trkpt>
      <trkpt lat="49.018796" lon="2.291087">
        <ele>90.610469</ele>
        <time>2025-03-06T16:08:53.528Z</time>
      </trkpt>
      <trkpt lat="49.019119" lon="2.291348">
        <ele>91.561670</ele>
        <time>2025-03-06T16:09:06.989Z</time>
      </trkpt>
      <trkpt lat="49.019956" lon="2.291801">
        <ele>93.756615</ele>
        <time>2025-03-06T16:09:39.865Z</time>
      </trkpt>
      <trkpt lat="49.020511" lon="2.291956">
        <ele>95.151026</ele>
        <time>2025-03-06T16:09:58.765Z</time>
      </trkpt>
      <trkpt lat="49.020728" lon="2.292067">
        <ele>95.716676</ele>
        <time>2025-03-06T16:10:05.960Z</time>
      </trkpt>
      <trkpt lat="49.020896" lon="2.292255">
        <ele>95.964374</ele>
        <time>2025-03-06T16:10:12.228Z</time>
      </trkpt>
      <trkpt lat="49.021070" lon="2.292558">
        <ele>96.210756</ele>
        <time>2025-03-06T16:10:19.864Z</time>
      </trkpt>
      <trkpt lat="49.021098" lon="2.292624">
        <ele>96.258843</ele>
        <time>2025-03-06T16:10:21.272Z</time>
      </trkpt>
      <trkpt lat="49.021149" lon="2.292747">
        <ele>96.347866</ele>
        <time>2025-03-06T16:10:23.921Z</time>
      </trkpt>
      <trkpt lat="49.021393" lon="2.293552">
        <ele>96.890377</ele>
        <time>2025-03-06T16:10:38.411Z</time>
      </trkpt>
      <trkpt lat="49.021503" lon="2.293803">
        <ele>97.075055</ele>
        <time>2025-03-06T16:10:42.940Z</time>
      </trkpt>
      <trkpt lat="49.021648" lon="2.294005">
        <ele>97.258265</ele>
        <time>2025-03-06T16:10:47.631Z</time>
      </trkpt>
      <trkpt lat="49.022022" lon="2.294429">
        <ele>97.832390</ele>
        <time>2025-03-06T16:10:59.857Z</time>
      </trkpt>
      <trkpt lat="49.022624" lon="2.295066">
        <ele>98.963565</ele>
        <time>2025-03-06T16:11:21.118Z</time>
      </trkpt>
      <trkpt lat="49.023065" lon="2.295434">
        <ele>99.739635</ele>
        <time>2025-03-06T16:11:37.117Z</time>
      </trkpt>
      <trkpt lat="49.023115" lon="2.295476">
        <ele>99.827759</ele>
        <time>2025-03-06T16:11:38.991Z</time>
      </trkpt>
      <trkpt lat="49.023204" lon="2.295332">
        <ele>100.028080</ele>
        <time>2025-03-06T16:11:43.207Z</time>
      </trkpt>
      <trkpt lat="49.023256" lon="2.295317">
        <ele>100.109780</ele>
        <time>2025-03-06T16:11:44.972Z</time>
      </trkpt>
      <trkpt lat="49.025107" lon="2.295154">
        <ele>103.807847</ele>
        <time>2025-03-06T16:12:46.992Z</time>
      </trkpt>
      <trkpt lat="49.026859" lon="2.294941">
        <ele>104.875674</ele>
        <time>2025-03-06T16:13:31.952Z</time>
      </trkpt>
      <trkpt lat="49.027194" lon="2.295615">
        <ele>104.620240</ele>
        <time>2025-03-06T16:13:44.341Z</time>
      </trkpt>
      <trkpt lat="49.027240" lon="2.295707">
        <ele>104.571877</ele>
        <time>2025-03-06T16:13:46.035Z</time>
      </trkpt>
      <trkpt lat="49.027441" lon="2.296061">
        <ele>104.376129</ele>
        <time>2025-03-06T16:13:52.705Z</time>
      </trkpt>
      <trkpt lat="49.027594" lon="2.296106">
        <ele>104.276792</ele>
        <time>2025-03-06T16:13:56.032Z</time>
      </trkpt>
      <trkpt lat="49.027950" lon="2.295886">
        <ele>104.031913</ele>
        <time>2025-03-06T16:14:04.551Z</time>
      </trkpt>
      <trkpt lat="49.028239" lon="2.295638">
        <ele>103.820509</ele>
        <time>2025-03-06T16:14:12.931Z</time>
      </trkpt>
      <trkpt lat="49.028737" lon="2.295009">
        <ele>103.952691</ele>
        <time>2025-03-06T16:14:29.092Z</time>
      </trkpt>
      <trkpt lat="49.028850" lon="2.294934">
        <ele>103.990591</ele>
        <time>2025-03-06T16:14:32.179Z</time>
      </trkpt>
      <trkpt lat="49.029075" lon="2.294512">
        <ele>104.100269</ele>
        <time>2025-03-06T16:14:41.489Z</time>
      </trkpt>
      <trkpt lat="49.029492" lon="2.293844">
        <ele>104.286253</ele>
        <time>2025-03-06T16:14:57.544Z</time>
      </trkpt>
      <trkpt lat="49.029659" lon="2.293613">
        <ele>104.504089</ele>
        <time>2025-03-06T16:15:03.809Z</time>
      </trkpt>
      <trkpt lat="49.029912" lon="2.293385">
        <ele>105.093294</ele>
        <time>2025-03-06T16:15:12.778Z</time>
      </trkpt>
      <trkpt lat="49.029545" lon="2.292727">
        <ele>106.228955</ele>
        <time>2025-03-06T16:15:32.028Z</time>
      </trkpt>
      <trkpt lat="49.029694" lon="2.292620">
        <ele>106.559163</ele>
        <time>2025-03-06T16:15:37.788Z</time>
      </trkpt>
      <trkpt lat="49.029794" lon="2.292505">
        <ele>106.810274</ele>
        <time>2025-03-06T16:15:42.233Z</time>
      </trkpt>
      <trkpt lat="49.029892" lon="2.292322">
        <ele>107.120895</ele>
        <time>2025-03-06T16:15:47.739Z</time>
      </trkpt>
      <trkpt lat="49.029930" lon="2.292192">
        <ele>107.308010</ele>
        <time>2025-03-06T16:15:51.316Z</time>
      </trkpt>
      <trkpt lat="49.029937" lon="2.291998">
        <ele>107.563432</ele>
        <time>2025-03-06T16:15:56.151Z</time>
      </trkpt>
      <trkpt lat="49.029953" lon="2.291141">
        <ele>108.841338</ele>
        <time>2025-03-06T16:16:25.582Z</time>
      </trkpt>
      <trkpt lat="49.030403" lon="2.289930">
        <ele>111.036528</ele>
        <time>2025-03-06T16:16:59.767Z</time>
      </trkpt>
      <trkpt lat="49.030471" lon="2.288262">
        <ele>113.108295</ele>
        <time>2025-03-06T16:17:36.683Z</time>
      </trkpt>
      <trkpt lat="49.030487" lon="2.287501">
        <ele>113.829206</ele>
        <time>2025-03-06T16:17:50.332Z</time>
      </trkpt>
      <trkpt lat="49.030521" lon="2.287133">
        <ele>114.181082</ele>
        <time>2025-03-06T16:17:57.373Z</time>
      </trkpt>
      <trkpt lat="49.030626" lon="2.286584">
        <ele>114.722557</ele>
        <time>2025-03-06T16:18:09.042Z</time>
      </trkpt>
      <trkpt lat="49.030871" lon="2.286794">
        <ele>115.554045</ele>
        <time>2025-03-06T16:18:21.789Z</time>
      </trkpt>
      <trkpt lat="49.032214" lon="2.287945">
        <ele>121.288641</ele>
        <time>2025-03-06T16:19:48.105Z</time>
      </trkpt>
      <trkpt lat="49.034596" lon="2.289867">
        <ele>138.370857</ele>
        <time>2025-03-06T16:22:54.130Z</time>
      </trkpt>
      <trkpt lat="49.035261" lon="2.290336">
        <ele>143.553975</ele>
        <time>2025-03-06T16:23:45.346Z</time>
      </trkpt>
      <trkpt lat="49.035245" lon="2.290036">
        <ele>144.949982</ele>
        <time>2025-03-06T16:24:00.681Z</time>
      </trkpt>
      <trkpt lat="49.035261" lon="2.290336">
        <ele>146.896054</ele>
        <time>2025-03-06T16:24:16.543Z</time>
      </trkpt>
      <trkpt lat="49.035310" lon="2.290368">
        <ele>147.464215</ele>
        <time>2025-03-06T16:24:21.082Z</time>
      </trkpt>
      <trkpt lat="49.037176" lon="2.291921">
        <ele>167.736574</ele>
        <time>2025-03-06T16:27:41.937Z</time>
      </trkpt>
      <trkpt lat="49.037334" lon="2.291885">
        <ele>168.725396</ele>
        <time>2025-03-06T16:27:54.381Z</time>
      </trkpt>
      <trkpt lat="49.040133" lon="2.291581">
        <ele>180.273590</ele>
        <time>2025-03-06T16:30:22.909Z</time>
      </trkpt>
      <trkpt lat="49.040906" lon="2.291497">
        <ele>179.316482</ele>
        <time>2025-03-06T16:30:54.694Z</time>
      </trkpt>
      <trkpt lat="49.041616" lon="2.290624">
        <ele>177.663904</ele>
        <time>2025-03-06T16:31:23.810Z</time>
      </trkpt>
      <trkpt lat="49.042549" lon="2.289633">
        <ele>171.259387</ele>
        <time>2025-03-06T16:31:54.727Z</time>
      </trkpt>
      <trkpt lat="49.042709" lon="2.289411">
        <ele>169.854368</ele>
        <time>2025-03-06T16:32:00.470Z</time>
      </trkpt>
      <trkpt lat="49.043026" lon="2.288969">
        <ele>167.064476</ele>
        <time>2025-03-06T16:32:12.058Z</time>
      </trkpt>
      <trkpt lat="49.043604" lon="2.288100">
        <ele>164.418267</ele>
        <time>2025-03-06T16:32:35.370Z</time>
      </trkpt>
      <trkpt lat="49.044479" lon="2.286858">
        <ele>162.008795</ele>
        <time>2025-03-06T16:33:17.879Z</time>
      </trkpt>
      <trkpt lat="49.044748" lon="2.286539">
        <ele>162.325604</ele>
        <time>2025-03-06T16:33:32.890Z</time>
      </trkpt>
      <trkpt lat="49.044929" lon="2.286249">
        <ele>162.611403</ele>
        <time>2025-03-06T16:33:44.824Z</time>
      </trkpt>
      <trkpt lat="49.046066" lon="2.284643">
        <ele>163.207073</ele>
        <time>2025-03-06T16:34:53.547Z</time>
      </trkpt>
      <trkpt lat="49.046186" lon="2.284416">
        <ele>162.795313</ele>
        <time>2025-03-06T16:35:00.086Z</time>
      </trkpt>
      <trkpt lat="49.046201" lon="2.284263">
        <ele>162.576885</ele>
        <time>2025-03-06T16:35:03.492Z</time>
      </trkpt>
      <trkpt lat="49.046610" lon="2.284536">
        <ele>161.615215</ele>
        <time>2025-03-06T16:35:17.628Z</time>
      </trkpt>
      <trkpt lat="49.047617" lon="2.284452">
        <ele>158.692375</ele>
        <time>2025-03-06T16:35:47.373Z</time>
      </trkpt>
      <trkpt lat="49.048473" lon="2.284435">
        <ele>154.597517</ele>
        <time>2025-03-06T16:36:12.729Z</time>
      </trkpt>
      <trkpt lat="49.049027" lon="2.284653">
        <ele>151.860851</ele>
        <time>2025-03-06T16:36:29.146Z</time>
      </trkpt>
      <trkpt lat="49.049170" lon="2.284830">
        <ele>150.689371</ele>
        <time>2025-03-06T16:36:34.312Z</time>
      </trkpt>
      <trkpt lat="49.049922" lon="2.285597">
        <ele>143.709423</ele>
        <time>2025-03-06T16:36:58.786Z</time>
      </trkpt>
      <trkpt lat="49.050359" lon="2.286248">
        <ele>138.996596</ele>
        <time>2025-03-06T16:37:14.806Z</time>
      </trkpt>
      <trkpt lat="49.050845" lon="2.287037">
        <ele>133.465158</ele>
        <time>2025-03-06T16:37:33.451Z</time>
      </trkpt>
      <trkpt lat="49.050963" lon="2.287229">
        <ele>132.115799</ele>
        <time>2025-03-06T16:37:37.988Z</time>
      </trkpt>
      <trkpt lat="49.051966" lon="2.288285">
        <ele>122.947495</ele>
        <time>2025-03-06T16:38:10.849Z</time>
      </trkpt>
      <trkpt lat="49.052613" lon="2.289526">
        <ele>118.025236</ele>
        <time>2025-03-06T16:38:40.648Z</time>
      </trkpt>
      <trkpt lat="49.053270" lon="2.290563">
        <ele>114.285280</ele>
        <time>2025-03-06T16:39:09.688Z</time>
      </trkpt>
      <trkpt lat="49.053750" lon="2.291244">
        <ele>112.771373</ele>
        <time>2025-03-06T16:39:30.738Z</time>
      </trkpt>
      <trkpt lat="49.054016" lon="2.291678">
        <ele>111.871875</ele>
        <time>2025-03-06T16:39:43.388Z</time>
      </trkpt>
      <trkpt lat="49.054494" lon="2.292339">
        <ele>110.550840</ele>
        <time>2025-03-06T16:40:04.523Z</time>
      </trkpt>
      <trkpt lat="49.056170" lon="2.293054">
        <ele>108.213064</ele>
        <time>2025-03-06T16:41:03.029Z</time>
      </trkpt>
      <trkpt lat="49.056472" lon="2.293219">
        <ele>108.158763</ele>
        <time>2025-03-06T16:41:14.254Z</time>
      </trkpt>
      <trkpt lat="49.056622" lon="2.293192">
        <ele>108.133195</ele>
        <time>2025-03-06T16:41:19.636Z</time>
      </trkpt>
      <trkpt lat="49.056468" lon="2.292524">
        <ele>108.054641</ele>
        <time>2025-03-06T16:41:29.650Z</time>
      </trkpt>
      <trkpt lat="49.056219" lon="2.291254">
        <ele>107.994177</ele>
        <time>2025-03-06T16:41:51.347Z</time>
      </trkpt>
      <trkpt lat="49.056103" lon="2.290833">
        <ele>108.125267</ele>
        <time>2025-03-06T16:41:59.528Z</time>
      </trkpt>
      <trkpt lat="49.055976" lon="2.290544">
        <ele>108.225146</ele>
        <time>2025-03-06T16:42:05.621Z</time>
      </trkpt>
      <trkpt lat="49.055653" lon="2.290065">
        <ele>108.422427</ele>
        <time>2025-03-06T16:42:16.654Z</time>
      </trkpt>
      <trkpt lat="49.055594" lon="2.289927">
        <ele>108.469723</ele>
        <time>2025-03-06T16:42:19.201Z</time>
      </trkpt>
      <trkpt lat="49.055583" lon="2.289749">
        <ele>108.521043</ele>
        <time>2025-03-06T16:42:21.987Z</time>
      </trkpt>
      <trkpt lat="49.055612" lon="2.289584">
        <ele>108.570079</ele>
        <time>2025-03-06T16:42:24.617Z</time>
      </trkpt>
      <trkpt lat="49.055710" lon="2.289413">
        <ele>108.635285</ele>
        <time>2025-03-06T16:42:28.080Z</time>
      </trkpt>
      <trkpt lat="49.055778" lon="2.289368">
        <ele>108.667750</ele>
        <time>2025-03-06T16:42:29.770Z</time>
      </trkpt>
      <trkpt lat="49.055840" lon="2.289354">
        <ele>108.695202</ele>
        <time>2025-03-06T16:42:31.212Z</time>
      </trkpt>
      <trkpt lat="49.055944" lon="2.289260">
        <ele>108.718540</ele>
        <time>2025-03-06T16:42:33.903Z</time>
      </trkpt>
      <trkpt lat="49.056074" lon="2.289201">
        <ele>108.716439</ele>
        <time>2025-03-06T16:42:36.911Z</time>
      </trkpt>
      <trkpt lat="49.056426" lon="2.289184">
        <ele>108.710986</ele>
        <time>2025-03-06T16:42:44.566Z</time>
      </trkpt>
      <trkpt lat="49.056746" lon="2.289270">
        <ele>108.705954</ele>
        <time>2025-03-06T16:42:51.469Z</time>
      </trkpt>
      <trkpt lat="49.057355" lon="2.289414">
        <ele>108.696410</ele>
        <time>2025-03-06T16:43:05.106Z</time>
      </trkpt>
      <trkpt lat="49.057554" lon="2.289501">
        <ele>108.693205</ele>
        <time>2025-03-06T16:43:10.002Z</time>
      </trkpt>
      <trkpt lat="49.057644" lon="2.289512">
        <ele>108.691806</ele>
        <time>2025-03-06T16:43:12.146Z</time>
      </trkpt>
      <trkpt lat="49.057710" lon="2.289479">
        <ele>108.688240</ele>
        <time>2025-03-06T16:43:13.795Z</time>
      </trkpt>
      <trkpt lat="49.057735" lon="2.289455">
        <ele>108.686604</ele>
        <time>2025-03-06T16:43:14.479Z</time>
      </trkpt>
      <trkpt lat="49.057785" lon="2.289596">
        <ele>108.680783</ele>
        <time>2025-03-06T16:43:21.731Z</time>
      </trkpt>
      <trkpt lat="49.058091" lon="2.289622">
        <ele>108.663802</ele>
        <time>2025-03-06T16:43:28.794Z</time>
      </trkpt>
      <trkpt lat="49.058096" lon="2.289623">
        <ele>108.663522</ele>
        <time>2025-03-06T16:43:28.903Z</time>
      </trkpt>
      <trkpt lat="49.058385" lon="2.289707">
        <ele>108.647221</ele>
        <time>2025-03-06T16:43:35.541Z</time>
      </trkpt>
      <trkpt lat="49.058889" lon="2.290120">
        <ele>108.615524</ele>
        <time>2025-03-06T16:43:48.182Z</time>
      </trkpt>
      <trkpt lat="49.059381" lon="2.289537">
        <ele>108.378444</ele>
        <time>2025-03-06T16:44:01.505Z</time>
      </trkpt>
      <trkpt lat="49.059992" lon="2.288973">
        <ele>107.612064</ele>
        <time>2025-03-06T16:44:16.102Z</time>
      </trkpt>
      <trkpt lat="49.060632" lon="2.288115">
        <ele>106.697795</ele>
        <time>2025-03-06T16:44:32.406Z</time>
      </trkpt>
      <trkpt lat="49.060878" lon="2.287836">
        <ele>106.171442</ele>
        <time>2025-03-06T16:44:38.039Z</time>
      </trkpt>
      <trkpt lat="49.061449" lon="2.287462">
        <ele>105.054938</ele>
        <time>2025-03-06T16:44:49.336Z</time>
      </trkpt>
      <trkpt lat="49.061711" lon="2.287239">
        <ele>104.515898</ele>
        <time>2025-03-06T16:44:54.821Z</time>
      </trkpt>
      <trkpt lat="49.062085" lon="2.286790">
        <ele>103.660869</ele>
        <time>2025-03-06T16:45:03.687Z</time>
      </trkpt>
      <trkpt lat="49.062339" lon="2.286342">
        <ele>103.255308</ele>
        <time>2025-03-06T16:45:11.176Z</time>
      </trkpt>
      <trkpt lat="49.062566" lon="2.285821">
        <ele>102.979775</ele>
        <time>2025-03-06T16:45:19.428Z</time>
      </trkpt>
      <trkpt lat="49.063023" lon="2.284630">
        <ele>102.371967</ele>
        <time>2025-03-06T16:45:38.663Z</time>
      </trkpt>
      <trkpt lat="49.063366" lon="2.283333">
        <ele>101.762015</ele>
        <time>2025-03-06T16:45:58.292Z</time>
      </trkpt>
      <trkpt lat="49.063761" lon="2.282645">
        <ele>101.364368</ele>
        <time>2025-03-06T16:46:10.525Z</time>
      </trkpt>
      <trkpt lat="49.063925" lon="2.282522">
        <ele>101.243135</ele>
        <time>2025-03-06T16:46:14.155Z</time>
      </trkpt>
      <trkpt lat="49.064482" lon="2.282301">
        <ele>100.815868</ele>
        <time>2025-03-06T16:46:25.566Z</time>
      </trkpt>
      <trkpt lat="49.064614" lon="2.282190">
        <ele>100.688554</ele>
        <time>2025-03-06T16:46:28.530Z</time>
      </trkpt>
      <trkpt lat="49.064897" lon="2.281862">
        <ele>100.388366</ele>
        <time>2025-03-06T16:46:35.610Z</time>
      </trkpt>
      <trkpt lat="49.065229" lon="2.281222">
        <ele>99.936547</ele>
        <time>2025-03-06T16:46:46.341Z</time>
      </trkpt>
      <trkpt lat="49.065296" lon="2.281173">
        <ele>99.873785</ele>
        <time>2025-03-06T16:46:47.864Z</time>
      </trkpt>
      <trkpt lat="49.065364" lon="2.281132">
        <ele>99.812021</ele>
        <time>2025-03-06T16:46:49.331Z</time>
      </trkpt>
      <trkpt lat="49.065519" lon="2.281132">
        <ele>99.681083</ele>
        <time>2025-03-06T16:46:52.493Z</time>
      </trkpt>
      <trkpt lat="49.065754" lon="2.281230">
        <ele>99.501794</ele>
        <time>2025-03-06T16:46:57.567Z</time>
      </trkpt>
      <trkpt lat="49.065804" lon="2.280495">
        <ele>99.422538</ele>
        <time>2025-03-06T16:47:14.968Z</time>
      </trkpt>
      <trkpt lat="49.065781" lon="2.280008">
        <ele>99.370170</ele>
        <time>2025-03-06T16:47:26.582Z</time>
      </trkpt>
      <trkpt lat="49.065590" lon="2.279486">
        <ele>99.306044</ele>
        <time>2025-03-06T16:47:40.913Z</time>
      </trkpt>
      <trkpt lat="49.065455" lon="2.278193">
        <ele>99.269849</ele>
        <time>2025-03-06T16:48:13.539Z</time>
      </trkpt>
      <trkpt lat="49.065350" lon="2.277770">
        <ele>99.326435</ele>
        <time>2025-03-06T16:48:25.116Z</time>
      </trkpt>
      <trkpt lat="49.064844" lon="2.276478">
        <ele>99.514734</ele>
        <time>2025-03-06T16:49:02.816Z</time>
      </trkpt>
      <trkpt lat="49.064684" lon="2.275964">
        <ele>99.516418</ele>
        <time>2025-03-06T16:49:16.699Z</time>
      </trkpt>
      <trkpt lat="49.064594" lon="2.275571">
        <ele>99.442715</ele>
        <time>2025-03-06T16:49:26.816Z</time>
      </trkpt>
      <trkpt lat="49.064349" lon="2.273918">
        <ele>99.142678</ele>
        <time>2025-03-06T16:50:07.105Z</time>
      </trkpt>
      <trkpt lat="49.064081" lon="2.272453">
        <ele>99.453468</ele>
        <time>2025-03-06T16:50:42.105Z</time>
      </trkpt>
      <trkpt lat="49.064066" lon="2.272193">
        <ele>99.542803</ele>
        <time>2025-03-06T16:50:48.382Z</time>
      </trkpt>
      <trkpt lat="49.064083" lon="2.271887">
        <ele>99.647913</ele>
        <time>2025-03-06T16:50:56.121Z</time>
      </trkpt>
      <trkpt lat="49.064176" lon="2.271606">
        <ele>99.755664</ele>
        <time>2025-03-06T16:51:04.550Z</time>
      </trkpt>
      <trkpt lat="49.064365" lon="2.271196">
        <ele>99.927245</ele>
        <time>2025-03-06T16:51:19.003Z</time>
      </trkpt>
      <trkpt lat="49.065567" lon="2.271496">
        <ele>102.899546</ele>
        <time>2025-03-06T16:52:22.920Z</time>
      </trkpt>
      <trkpt lat="49.065763" lon="2.271638">
        <ele>103.491857</ele>
        <time>2025-03-06T16:52:34.942Z</time>
      </trkpt>
      <trkpt lat="49.065755" lon="2.271731">
        <ele>103.659634</ele>
        <time>2025-03-06T16:52:38.240Z</time>
      </trkpt>
      <trkpt lat="49.065747" lon="2.271809">
        <ele>103.800852</ele>
        <time>2025-03-06T16:52:41.027Z</time>
      </trkpt>
      <trkpt lat="49.065815" lon="2.272160">
        <ele>104.455556</ele>
        <time>2025-03-06T16:52:53.610Z</time>
      </trkpt>
      <trkpt lat="49.066155" lon="2.273491">
        <ele>105.556227</ele>
        <time>2025-03-06T16:53:36.095Z</time>
      </trkpt>
      <trkpt lat="49.066178" lon="2.273930">
        <ele>105.795643</ele>
        <time>2025-03-06T16:53:47.118Z</time>
      </trkpt>
      <trkpt lat="49.066359" lon="2.274730">
        <ele>106.255749</ele>
        <time>2025-03-06T16:54:07.330Z</time>
      </trkpt>
      <trkpt lat="49.066443" lon="2.275204">
        <ele>106.553897</ele>
        <time>2025-03-06T16:54:19.064Z</time>
      </trkpt>
      <trkpt lat="49.066434" lon="2.275728">
        <ele>106.920295</ele>
        <time>2025-03-06T16:54:31.859Z</time>
      </trkpt>
      <trkpt lat="49.066454" lon="2.275911">
        <ele>107.049978</ele>
        <time>2025-03-06T16:54:36.583Z</time>
      </trkpt>
      <trkpt lat="49.066457" lon="2.275933">
        <ele>107.065685</ele>
        <time>2025-03-06T16:54:37.162Z</time>
      </trkpt>
      <trkpt lat="49.066551" lon="2.276086">
        <ele>107.212295</ele>
        <time>2025-03-06T16:54:42.648Z</time>
      </trkpt>
      <trkpt lat="49.069004" lon="2.276974">
        <ele>110.707978</ele>
        <time>2025-03-06T16:56:38.140Z</time>
      </trkpt>
      <trkpt lat="49.069027" lon="2.276993">
        <ele>110.750208</ele>
        <time>2025-03-06T16:56:39.320Z</time>
      </trkpt>
      <trkpt lat="49.069027" lon="2.276993">
        <ele>110.750208</ele>
        <time>2025-03-06T16:56:39.330Z</time>
      </trkpt>
      <trkpt lat="49.069784" lon="2.277672">
        <ele>111.921830</ele>
        <time>2025-03-06T16:57:02.036Z</time>
      </trkpt>
      <trkpt lat="49.070541" lon="2.278352">
        <ele>112.965194</ele>
        <time>2025-03-06T16:57:24.751Z</time>
      </trkpt>
      <trkpt lat="49.071299" lon="2.279031">
        <ele>114.330944</ele>
        <time>2025-03-06T16:57:47.481Z</time>
      </trkpt>
      <trkpt lat="49.072635" lon="2.279777">
        <ele>117.112315</ele>
        <time>2025-03-06T16:58:53.633Z</time>
      </trkpt>
      <trkpt lat="49.073673" lon="2.280356">
        <ele>120.730353</ele>
        <time>2025-03-06T16:59:51.854Z</time>
      </trkpt>
      <trkpt lat="49.073916" lon="2.280510">
        <ele>121.591735</ele>
        <time>2025-03-06T17:00:06.692Z</time>
      </trkpt>
      <trkpt lat="49.075829" lon="2.281724">
        <ele>130.217943</ele>
        <time>2025-03-06T17:02:09.040Z</time>
      </trkpt>
      <trkpt lat="49.076768" lon="2.282320">
        <ele>133.989685</ele>
        <time>2025-03-06T17:03:07.342Z</time>
      </trkpt>
      <trkpt lat="49.079050" lon="2.284028">
        <ele>142.296661</ele>
        <time>2025-03-06T17:05:21.858Z</time>
      </trkpt>
      <trkpt lat="49.079155" lon="2.284106">
        <ele>142.596283</ele>
        <time>2025-03-06T17:05:27.735Z</time>
      </trkpt>
      <trkpt lat="49.079216" lon="2.284152">
        <ele>142.754857</ele>
        <time>2025-03-06T17:05:31.121Z</time>
      </trkpt>
      <trkpt lat="49.079155" lon="2.284106">
        <ele>142.913431</ele>
        <time>2025-03-06T17:05:34.586Z</time>
      </trkpt>
      <trkpt lat="49.079050" lon="2.284028">
        <ele>143.185594</ele>
        <time>2025-03-06T17:05:40.413Z</time>
      </trkpt>
      <trkpt lat="49.079724" lon="2.279460">
        <ele>148.855316</ele>
        <time>2025-03-06T17:08:07.268Z</time>
      </trkpt>
      <trkpt lat="49.079747" lon="2.278992">
        <ele>148.921467</ele>
        <time>2025-03-06T17:08:17.625Z</time>
      </trkpt>
      <trkpt lat="49.079811" lon="2.278150">
        <ele>147.850581</ele>
        <time>2025-03-06T17:08:35.290Z</time>
      </trkpt>
      <trkpt lat="49.081940" lon="2.274994">
        <ele>142.435187</ele>
        <time>2025-03-06T17:10:10.231Z</time>
      </trkpt>
      <trkpt lat="49.083579" lon="2.272564">
        <ele>147.248368</ele>
        <time>2025-03-06T17:11:57.949Z</time>
      </trkpt>
      <trkpt lat="49.086055" lon="2.268793">
        <ele>162.672244</ele>
        <time>2025-03-06T17:15:38.048Z</time>
      </trkpt>
      <trkpt lat="49.086272" lon="2.268682">
        <ele>163.167941</ele>
        <time>2025-03-06T17:15:51.167Z</time>
      </trkpt>
      <trkpt lat="49.086284" lon="2.268681">
        <ele>163.193972</ele>
        <time>2025-03-06T17:15:51.819Z</time>
      </trkpt>
      <trkpt lat="49.086641" lon="2.268638">
        <ele>163.969637</ele>
        <time>2025-03-06T17:16:10.862Z</time>
      </trkpt>
      <trkpt lat="49.087196" lon="2.268573">
        <ele>165.175300</ele>
        <time>2025-03-06T17:16:34.327Z</time>
      </trkpt>
      <trkpt lat="49.087666" lon="2.268723">
        <ele>164.223910</ele>
        <time>2025-03-06T17:16:49.997Z</time>
      </trkpt>
      <trkpt lat="49.088279" lon="2.268877">
        <ele>160.778467</ele>
        <time>2025-03-06T17:17:08.388Z</time>
      </trkpt>
      <trkpt lat="49.089182" lon="2.269002">
        <ele>155.749834</ele>
        <time>2025-03-06T17:17:32.866Z</time>
      </trkpt>
      <trkpt lat="49.090727" lon="2.269406">
        <ele>140.803009</ele>
        <time>2025-03-06T17:18:13.043Z</time>
      </trkpt>
      <trkpt lat="49.090811" lon="2.269428">
        <ele>139.987601</ele>
        <time>2025-03-06T17:18:15.249Z</time>
      </trkpt>
      <trkpt lat="49.090844" lon="2.269337">
        <ele>139.335865</ele>
        <time>2025-03-06T17:18:16.222Z</time>
      </trkpt>
      <trkpt lat="49.090967" lon="2.269153">
        <ele>137.996986</ele>
        <time>2025-03-06T17:18:18.700Z</time>
      </trkpt>
      <trkpt lat="49.091155" lon="2.268970">
        <ele>136.703781</ele>
        <time>2025-03-06T17:18:21.945Z</time>
      </trkpt>
      <trkpt lat="49.091348" lon="2.268889">
        <ele>135.542773</ele>
        <time>2025-03-06T17:18:24.898Z</time>
      </trkpt>
      <trkpt lat="49.091549" lon="2.268893">
        <ele>134.376773</ele>
        <time>2025-03-06T17:18:27.916Z</time>
      </trkpt>
      <trkpt lat="49.091626" lon="2.268923">
        <ele>133.915826</ele>
        <time>2025-03-06T17:18:29.129Z</time>
      </trkpt>
      <trkpt lat="49.091727" lon="2.268994">
        <ele>133.270881</ele>
        <time>2025-03-06T17:18:30.839Z</time>
      </trkpt>
      <trkpt lat="49.092697" lon="2.269925">
        <ele>126.986857</ele>
        <time>2025-03-06T17:18:49.970Z</time>
      </trkpt>
      <trkpt lat="49.093089" lon="2.270307">
        <ele>124.979309</ele>
        <time>2025-03-06T17:18:57.922Z</time>
      </trkpt>
      <trkpt lat="49.093371" lon="2.270860">
        <ele>122.997840</ele>
        <time>2025-03-06T17:19:05.521Z</time>
      </trkpt>
      <trkpt lat="49.093722" lon="2.271869">
        <ele>119.567094</ele>
        <time>2025-03-06T17:19:17.302Z</time>
      </trkpt>
      <trkpt lat="49.093933" lon="2.272835">
        <ele>115.546134</ele>
        <time>2025-03-06T17:19:27.442Z</time>
      </trkpt>
      <trkpt lat="49.094130" lon="2.273392">
        <ele>113.046465</ele>
        <time>2025-03-06T17:19:33.696Z</time>
      </trkpt>
      <trkpt lat="49.094940" lon="2.274593">
        <ele>108.924541</ele>
        <time>2025-03-06T17:19:51.100Z</time>
      </trkpt>
      <trkpt lat="49.095071" lon="2.274787">
        <ele>108.750827</ele>
        <time>2025-03-06T17:19:54.549Z</time>
      </trkpt>
      <trkpt lat="49.095231" lon="2.274907">
        <ele>108.581136</ele>
        <time>2025-03-06T17:19:58.063Z</time>
      </trkpt>
      <trkpt lat="49.095368" lon="2.275014">
        <ele>108.434650</ele>
        <time>2025-03-06T17:20:01.314Z</time>
      </trkpt>
      <trkpt lat="49.095414" lon="2.275036">
        <ele>108.388763</ele>
        <time>2025-03-06T17:20:02.296Z</time>
      </trkpt>
      <trkpt lat="49.095694" lon="2.274371">
        <ele>107.895932</ele>
        <time>2025-03-06T17:20:25.278Z</time>
      </trkpt>
      <trkpt lat="49.095769" lon="2.274294">
        <ele>107.809901</ele>
        <time>2025-03-06T17:20:29.812Z</time>
      </trkpt>
      <trkpt lat="49.095775" lon="2.274204">
        <ele>107.753510</ele>
        <time>2025-03-06T17:20:33.329Z</time>
      </trkpt>
      <trkpt lat="49.095734" lon="2.274129">
        <ele>107.843785</ele>
        <time>2025-03-06T17:20:36.885Z</time>
      </trkpt>
      <trkpt lat="49.095538" lon="2.274143">
        <ele>108.875194</ele>
        <time>2025-03-06T17:20:48.868Z</time>
      </trkpt>
      <trkpt lat="49.095426" lon="2.274118">
        <ele>109.470183</ele>
        <time>2025-03-06T17:20:56.699Z</time>
      </trkpt>
      <trkpt lat="49.095317" lon="2.273861">
        <ele>110.524124</ele>
        <time>2025-03-06T17:21:11.457Z</time>
      </trkpt>
      <trkpt lat="49.095292" lon="2.273590">
        <ele>111.466117</ele>
        <time>2025-03-06T17:21:24.380Z</time>
      </trkpt>
      <trkpt lat="49.095272" lon="2.270513">
        <ele>119.272696</ele>
        <time>2025-03-06T17:23:33.476Z</time>
      </trkpt>
      <trkpt lat="49.095236" lon="2.266785">
        <ele>119.350928</ele>
        <time>2025-03-06T17:24:57.012Z</time>
      </trkpt>
      <trkpt lat="49.095233" lon="2.266528">
        <ele>119.149010</ele>
        <time>2025-03-06T17:25:02.555Z</time>
      </trkpt>
      <trkpt lat="49.095232" lon="2.266413">
        <ele>119.056143</ele>
        <time>2025-03-06T17:25:05.040Z</time>
      </trkpt>
      <trkpt lat="49.095185" lon="2.261178">
        <ele>114.929577</ele>
        <time>2025-03-06T17:27:00.902Z</time>
      </trkpt>
      <trkpt lat="49.095184" lon="2.261060">
        <ele>114.848300</ele>
        <time>2025-03-06T17:27:03.681Z</time>
      </trkpt>
      <trkpt lat="49.095168" lon="2.260159">
        <ele>114.946804</ele>
        <time>2025-03-06T17:27:17.302Z</time>
      </trkpt>
      <trkpt lat="49.095168" lon="2.260116">
        <ele>114.956448</ele>
        <time>2025-03-06T17:27:18.423Z</time>
      </trkpt>
      <trkpt lat="49.095172" lon="2.258794">
        <ele>115.252966</ele>
        <time>2025-03-06T17:27:54.266Z</time>
      </trkpt>
      <trkpt lat="49.095132" lon="2.255874">
        <ele>115.029746</ele>
        <time>2025-03-06T17:29:08.106Z</time>
      </trkpt>
      <trkpt lat="49.095122" lon="2.252558">
        <ele>110.875849</ele>
        <time>2025-03-06T17:30:17.463Z</time>
      </trkpt>
      <trkpt lat="49.095115" lon="2.250121">
        <ele>107.547668</ele>
        <time>2025-03-06T17:31:09.152Z</time>
      </trkpt>
      <trkpt lat="49.095933" lon="2.250034">
        <ele>105.051408</ele>
        <time>2025-03-06T17:31:24.487Z</time>
      </trkpt>
      <trkpt lat="49.098488" lon="2.249763">
        <ele>95.268800</ele>
        <time>2025-03-06T17:32:06.540Z</time>
      </trkpt>
      <trkpt lat="49.100033" lon="2.249584">
        <ele>88.784749</ele>
        <time>2025-03-06T17:32:31.099Z</time>
      </trkpt>
      <trkpt lat="49.101147" lon="2.249465">
        <ele>85.708271</ele>
        <time>2025-03-06T17:32:50.751Z</time>
      </trkpt>
      <trkpt lat="49.102267" lon="2.250888">
        <ele>83.962939</ele>
        <time>2025-03-06T17:33:42.663Z</time>
      </trkpt>
      <trkpt lat="49.103720" lon="2.249338">
        <ele>82.801944</ele>
        <time>2025-03-06T17:34:45.058Z</time>
      </trkpt>
      <trkpt lat="49.103759" lon="2.249409">
        <ele>82.757498</ele>
        <time>2025-03-06T17:34:46.376Z</time>
      </trkpt>
      <trkpt lat="49.103822" lon="2.249472">
        <ele>82.702341</ele>
        <time>2025-03-06T17:34:47.973Z</time>
      </trkpt>
      <trkpt lat="49.103862" lon="2.249493">
        <ele>82.671359</ele>
        <time>2025-03-06T17:34:48.886Z</time>
      </trkpt>
      <trkpt lat="49.103904" lon="2.249503">
        <ele>82.640223</ele>
        <time>2025-03-06T17:34:49.810Z</time>
      </trkpt>
      <trkpt lat="49.104017" lon="2.249472">
        <ele>82.556126</ele>
        <time>2025-03-06T17:34:52.276Z</time>
      </trkpt>
      <trkpt lat="49.104067" lon="2.249426">
        <ele>82.513371</ele>
        <time>2025-03-06T17:34:53.532Z</time>
      </trkpt>
      <trkpt lat="49.104121" lon="2.249336">
        <ele>82.454828</ele>
        <time>2025-03-06T17:34:55.250Z</time>
      </trkpt>
      <trkpt lat="49.104158" lon="2.249102">
        <ele>82.339386</ele>
        <time>2025-03-06T17:34:58.651Z</time>
      </trkpt>
      <trkpt lat="49.105049" lon="2.249010">
        <ele>81.685244</ele>
        <time>2025-03-06T17:35:17.795Z</time>
      </trkpt>
      <trkpt lat="49.107297" lon="2.248777">
        <ele>78.776367</ele>
        <time>2025-03-06T17:36:04.165Z</time>
      </trkpt>
      <trkpt lat="49.107822" lon="2.248722">
        <ele>77.540594</ele>
        <time>2025-03-06T17:36:14.239Z</time>
      </trkpt>
      <trkpt lat="49.107936" lon="2.248708">
        <ele>77.272019</ele>
        <time>2025-03-06T17:36:17.902Z</time>
      </trkpt>
      <trkpt lat="49.110602" lon="2.248390">
        <ele>69.472639</ele>
        <time>2025-03-06T17:37:40.039Z</time>
      </trkpt>
      <trkpt lat="49.111880" lon="2.248797">
        <ele>65.842895</ele>
        <time>2025-03-06T17:38:21.437Z</time>
      </trkpt>
      <trkpt lat="49.112042" lon="2.248848">
        <ele>65.383005</ele>
        <time>2025-03-06T17:38:26.748Z</time>
      </trkpt>
      <trkpt lat="49.113014" lon="2.249153">
        <ele>61.177839</ele>
        <time>2025-03-06T17:38:57.033Z</time>
      </trkpt>
      <trkpt lat="49.113410" lon="2.249277">
        <ele>59.264175</ele>
        <time>2025-03-06T17:39:08.575Z</time>
      </trkpt>
      <trkpt lat="49.113540" lon="2.249267">
        <ele>58.647966</ele>
        <time>2025-03-06T17:39:12.203Z</time>
      </trkpt>
      <trkpt lat="49.114578" lon="2.248715">
        <ele>53.837465</ele>
        <time>2025-03-06T17:39:42.784Z</time>
      </trkpt>
      <trkpt lat="49.118943" lon="2.246367">
        <ele>37.130703</ele>
        <time>2025-03-06T17:42:02.684Z</time>
      </trkpt>
      <trkpt lat="49.121709" lon="2.244844">
        <ele>38.281449</ele>
        <time>2025-03-06T17:44:04.889Z</time>
      </trkpt>
      <trkpt lat="49.121709" lon="2.244844">
        <ele>38.281449</ele>
        <time>2025-03-06T17:44:04.904Z</time>
      </trkpt>
      <trkpt lat="49.121704" lon="2.244801">
        <ele>38.303151</ele>
        <time>2025-03-06T17:44:05.643Z</time>
      </trkpt>
      <trkpt lat="49.122343" lon="2.244537">
        <ele>38.805766</ele>
        <time>2025-03-06T17:44:22.770Z</time>
      </trkpt>
      <trkpt lat="49.122270" lon="2.244221">
        <ele>38.839920</ele>
        <time>2025-03-06T17:44:28.047Z</time>
      </trkpt>
      <trkpt lat="49.122318" lon="2.244124">
        <ele>38.723193</ele>
        <time>2025-03-06T17:44:31.241Z</time>
      </trkpt>
      <trkpt lat="49.122362" lon="2.244034">
        <ele>38.615362</ele>
        <time>2025-03-06T17:44:33.914Z</time>
      </trkpt>
      <trkpt lat="49.122454" lon="2.244108">
        <ele>38.462874</ele>
        <time>2025-03-06T17:44:37.870Z</time>
      </trkpt>
      <trkpt lat="49.124348" lon="2.237820">
        <ele>31.675600</ele>
        <time>2025-03-06T17:47:07.401Z</time>
      </trkpt>
      <trkpt lat="49.125341" lon="2.234602">
        <ele>28.799397</ele>
        <time>2025-03-06T17:48:26.287Z</time>
      </trkpt>
      <trkpt lat="49.126343" lon="2.235046">
        <ele>28.455254</ele>
        <time>2025-03-06T17:48:49.365Z</time>
      </trkpt>
      <trkpt lat="49.126582" lon="2.235151">
        <ele>28.377054</ele>
        <time>2025-03-06T17:48:55.150Z</time>
      </trkpt>
      <trkpt lat="49.127023" lon="2.235345">
        <ele>28.232744</ele>
        <time>2025-03-06T17:49:05.263Z</time>
      </trkpt>
      <trkpt lat="49.127974" lon="2.235770">
        <ele>27.053582</ele>
        <time>2025-03-06T17:49:24.803Z</time>
      </trkpt>
      <trkpt lat="49.128831" lon="2.236139">
        <ele>25.945779</ele>
        <time>2025-03-06T17:49:41.424Z</time>
      </trkpt>
      <trkpt lat="49.128960" lon="2.236142">
        <ele>25.859591</ele>
        <time>2025-03-06T17:49:43.875Z</time>
      </trkpt>
      <trkpt lat="49.129053" lon="2.236107">
        <ele>25.795607</ele>
        <time>2025-03-06T17:49:45.710Z</time>
      </trkpt>
      <trkpt lat="49.129249" lon="2.235759">
        <ele>25.594893</ele>
        <time>2025-03-06T17:49:51.553Z</time>
      </trkpt>
      <trkpt lat="49.129398" lon="2.235619">
        <ele>25.478046</ele>
        <time>2025-03-06T17:49:55.064Z</time>
      </trkpt>
      <trkpt lat="49.128932" lon="2.234294">
        <ele>24.820478</ele>
        <time>2025-03-06T17:50:30.791Z</time>
      </trkpt>
      <trkpt lat="49.128925" lon="2.234194">
        <ele>24.776514</ele>
        <time>2025-03-06T17:50:33.226Z</time>
      </trkpt>
      <trkpt lat="49.128947" lon="2.234075">
        <ele>24.751058</ele>
        <time>2025-03-06T17:50:36.249Z</time>
      </trkpt>
      <trkpt lat="49.129044" lon="2.233997">
        <ele>24.743708</ele>
        <time>2025-03-06T17:50:40.344Z</time>
      </trkpt>
      <trkpt lat="49.129114" lon="2.233890">
        <ele>24.737069</ele>
        <time>2025-03-06T17:50:44.038Z</time>
      </trkpt>
      <trkpt lat="49.129122" lon="2.233877">
        <ele>24.736286</ele>
        <time>2025-03-06T17:50:44.485Z</time>
      </trkpt>
      <trkpt lat="49.129134" lon="2.233753">
        <ele>24.730786</ele>
        <time>2025-03-06T17:50:47.519Z</time>
      </trkpt>
      <trkpt lat="49.129052" lon="2.233360">
        <ele>24.712686</ele>
        <time>2025-03-06T17:50:57.533Z</time>
      </trkpt>
      <trkpt lat="49.128946" lon="2.232314">
        <ele>24.666241</ele>
        <time>2025-03-06T17:51:23.020Z</time>
      </trkpt>
      <trkpt lat="49.128705" lon="2.229884">
        <ele>24.621467</ele>
        <time>2025-03-06T17:52:22.154Z</time>
      </trkpt>
      <trkpt lat="49.128679" lon="2.228773">
        <ele>24.620836</ele>
        <time>2025-03-06T17:52:49.357Z</time>
      </trkpt>
      <trkpt lat="49.128425" lon="2.227471">
        <ele>24.738068</ele>
        <time>2025-03-06T17:53:23.351Z</time>
      </trkpt>
      <trkpt lat="49.128301" lon="2.226951">
        <ele>24.785823</ele>
        <time>2025-03-06T17:53:37.142Z</time>
      </trkpt>
      <trkpt lat="49.128076" lon="2.226007">
        <ele>24.842405</ele>
        <time>2025-03-06T17:54:01.787Z</time>
      </trkpt>
      <trkpt lat="49.128031" lon="2.225371">
        <ele>24.819248</ele>
        <time>2025-03-06T17:54:17.269Z</time>
      </trkpt>
      <trkpt lat="49.127874" lon="2.224301">
        <ele>24.779553</ele>
        <time>2025-03-06T17:54:43.449Z</time>
      </trkpt>
      <trkpt lat="49.127544" lon="2.222995">
        <ele>24.977934</ele>
        <time>2025-03-06T17:55:17.248Z</time>
      </trkpt>
      <trkpt lat="49.127185" lon="2.221858">
        <ele>25.428625</ele>
        <time>2025-03-06T17:55:50.286Z</time>
      </trkpt>
      <trkpt lat="49.126334" lon="2.220397">
        <ele>26.031724</ele>
        <time>2025-03-06T17:56:44.114Z</time>
      </trkpt>
      <trkpt lat="49.126154" lon="2.220157">
        <ele>26.130553</ele>
        <time>2025-03-06T17:56:53.819Z</time>
      </trkpt>
      <trkpt lat="49.124419" lon="2.218449">
        <ele>26.069836</ele>
        <time>2025-03-06T17:58:09.515Z</time>
      </trkpt>
      <trkpt lat="49.124296" lon="2.218393">
        <ele>26.027194</ele>
        <time>2025-03-06T17:58:13.995Z</time>
      </trkpt>
      <trkpt lat="49.124166" lon="2.218258">
        <ele>25.974971</ele>
        <time>2025-03-06T17:58:19.533Z</time>
      </trkpt>
      <trkpt lat="49.124102" lon="2.218165">
        <ele>25.945628</ele>
        <time>2025-03-06T17:58:22.597Z</time>
      </trkpt>
      <trkpt lat="49.123888" lon="2.217967">
        <ele>25.850700</ele>
        <time>2025-03-06T17:58:31.344Z</time>
      </trkpt>
      <trkpt lat="49.123694" lon="2.217834">
        <ele>25.731186</ele>
        <time>2025-03-06T17:58:38.773Z</time>
      </trkpt>
      <trkpt lat="49.123384" lon="2.217562">
        <ele>25.530262</ele>
        <time>2025-03-06T17:58:51.180Z</time>
      </trkpt>
      <trkpt lat="49.122796" lon="2.217008">
        <ele>25.141989</ele>
        <time>2025-03-06T17:59:16.003Z</time>
      </trkpt>
      <trkpt lat="49.122740" lon="2.217036">
        <ele>25.108871</ele>
        <time>2025-03-06T17:59:18.138Z</time>
      </trkpt>
      <trkpt lat="49.122719" lon="2.217082">
        <ele>25.088240</ele>
        <time>2025-03-06T17:59:19.434Z</time>
      </trkpt>
      <trkpt lat="49.122662" lon="2.217019">
        <ele>25.048700</ele>
        <time>2025-03-06T17:59:21.992Z</time>
      </trkpt>
      <trkpt lat="49.122549" lon="2.217228">
        <ele>24.948978</ele>
        <time>2025-03-06T17:59:25.742Z</time>
      </trkpt>
      <trkpt lat="49.122469" lon="2.217121">
        <ele>24.889219</ele>
        <time>2025-03-06T17:59:28.061Z</time>
      </trkpt>
      <trkpt lat="49.122623" lon="2.216850">
        <ele>24.782994</ele>
        <time>2025-03-06T17:59:32.947Z</time>
      </trkpt>
      <trkpt lat="49.122551" lon="2.216723">
        <ele>24.735497</ele>
        <time>2025-03-06T17:59:36.864Z</time>
      </trkpt>
      <trkpt lat="49.122433" lon="2.216661">
        <ele>24.681600</ele>
        <time>2025-03-06T17:59:41.276Z</time>
      </trkpt>
      <trkpt lat="49.122344" lon="2.216623">
        <ele>24.641685</ele>
        <time>2025-03-06T17:59:44.540Z</time>
      </trkpt>
      <trkpt lat="49.122174" lon="2.216477">
        <ele>24.557453</ele>
        <time>2025-03-06T17:59:51.455Z</time>
      </trkpt>
      <trkpt lat="49.122140" lon="2.216448">
        <ele>24.540634</ele>
        <time>2025-03-06T17:59:52.856Z</time>
      </trkpt>
      <trkpt lat="49.122167" lon="2.216367">
        <ele>24.514938</ele>
        <time>2025-03-06T17:59:54.958Z</time>
      </trkpt>
      <trkpt lat="49.121466" lon="2.215839">
        <ele>24.177363</ele>
        <time>2025-03-06T18:00:22.792Z</time>
      </trkpt>
      <trkpt lat="49.118593" lon="2.214172">
        <ele>24.139810</ele>
        <time>2025-03-06T18:02:17.506Z</time>
      </trkpt>
      <trkpt lat="49.118407" lon="2.214065">
        <ele>24.141629</ele>
        <time>2025-03-06T18:02:24.918Z</time>
      </trkpt>
      <trkpt lat="49.117522" lon="2.213586">
        <ele>24.127654</ele>
        <time>2025-03-06T18:02:47.905Z</time>
      </trkpt>
      <trkpt lat="49.117522" lon="2.213586">
        <ele>24.127654</ele>
        <time>2025-03-06T18:02:47.917Z</time>
      </trkpt>
      <trkpt lat="49.116988" lon="2.213069">
        <ele>24.099082</ele>
        <time>2025-03-06T18:03:04.270Z</time>
      </trkpt>
      <trkpt lat="49.117094" lon="2.213125">
        <ele>24.094013</ele>
        <time>2025-03-06T18:03:07.612Z</time>
      </trkpt>
      <trkpt lat="49.117032" lon="2.213379">
        <ele>24.085993</ele>
        <time>2025-03-06T18:03:12.645Z</time>
      </trkpt>
      <trkpt lat="49.116186" lon="2.212919">
        <ele>23.969414</ele>
        <time>2025-03-06T18:03:34.792Z</time>
      </trkpt>
      <trkpt lat="49.115378" lon="2.212495">
        <ele>23.782014</ele>
        <time>2025-03-06T18:03:54.731Z</time>
      </trkpt>
      <trkpt lat="49.115057" lon="2.212339">
        <ele>23.708126</ele>
        <time>2025-03-06T18:04:02.929Z</time>
      </trkpt>
      <trkpt lat="49.114571" lon="2.212174">
        <ele>23.692443</ele>
        <time>2025-03-06T18:04:15.665Z</time>
      </trkpt>
      <trkpt lat="49.114224" lon="2.212043">
        <ele>23.716344</ele>
        <time>2025-03-06T18:04:29.267Z</time>
      </trkpt>
      <trkpt lat="49.113809" lon="2.211892">
        <ele>23.744871</ele>
        <time>2025-03-06T18:04:38.847Z</time>
      </trkpt>
      <trkpt lat="49.113591" lon="2.211727">
        <ele>23.761139</ele>
        <time>2025-03-06T18:04:44.210Z</time>
      </trkpt>
      <trkpt lat="49.113244" lon="2.211541">
        <ele>23.785729</ele>
        <time>2025-03-06T18:04:52.403Z</time>
      </trkpt>
      <trkpt lat="49.113067" lon="2.211571">
        <ele>23.849787</ele>
        <time>2025-03-06T18:04:56.395Z</time>
      </trkpt>
      <trkpt lat="49.112298" lon="2.211767">
        <ele>24.303413</ele>
        <time>2025-03-06T18:05:15.487Z</time>
      </trkpt>
      <trkpt lat="49.111829" lon="2.212018">
        <ele>24.592561</ele>
        <time>2025-03-06T18:05:35.717Z</time>
      </trkpt>
      <trkpt lat="49.111574" lon="2.211720">
        <ele>24.779366</ele>
        <time>2025-03-06T18:05:44.370Z</time>
      </trkpt>
      <trkpt lat="49.111519" lon="2.211663">
        <ele>24.818037</ele>
        <time>2025-03-06T18:05:46.217Z</time>
      </trkpt>
      <trkpt lat="49.111252" lon="2.211530">
        <ele>24.873151</ele>
        <time>2025-03-06T18:05:54.159Z</time>
      </trkpt>
      <trkpt lat="49.110065" lon="2.210984">
        <ele>25.052156</ele>
        <time>2025-03-06T18:06:23.025Z</time>
      </trkpt>
      <trkpt lat="49.109522" lon="2.210539">
        <ele>24.923959</ele>
        <time>2025-03-06T18:06:35.562Z</time>
      </trkpt>
      <trkpt lat="49.109428" lon="2.210618">
        <ele>24.862994</ele>
        <time>2025-03-06T18:06:37.733Z</time>
      </trkpt>
      <trkpt lat="49.108625" lon="2.209890">
        <ele>24.332390</ele>
        <time>2025-03-06T18:06:57.478Z</time>
      </trkpt>
      <trkpt lat="49.108061" lon="2.209551">
        <ele>24.063718</ele>
        <time>2025-03-06T18:07:11.041Z</time>
      </trkpt>
      <trkpt lat="49.107366" lon="2.209486">
        <ele>24.012145</ele>
        <time>2025-03-06T18:07:27.831Z</time>
      </trkpt>
      <trkpt lat="49.107091" lon="2.209465">
        <ele>23.991751</ele>
        <time>2025-03-06T18:07:34.390Z</time>
      </trkpt>
      <trkpt lat="49.106900" lon="2.209450">
        <ele>23.977586</ele>
        <time>2025-03-06T18:07:38.909Z</time>
      </trkpt>
      <trkpt lat="49.106805" lon="2.209443">
        <ele>23.970541</ele>
        <time>2025-03-06T18:07:41.153Z</time>
      </trkpt>
      <trkpt lat="49.106500" lon="2.209420">
        <ele>23.947923</ele>
        <time>2025-03-06T18:07:48.117Z</time>
      </trkpt>
      <trkpt lat="49.106107" lon="2.209391">
        <ele>23.792094</ele>
        <time>2025-03-06T18:07:56.733Z</time>
      </trkpt>
      <trkpt lat="49.105569" lon="2.209409">
        <ele>23.533342</ele>
        <time>2025-03-06T18:08:08.146Z</time>
      </trkpt>
      <trkpt lat="49.105531" lon="2.209441">
        <ele>23.512477</ele>
        <time>2025-03-06T18:08:09.079Z</time>
      </trkpt>
      <trkpt lat="49.105223" lon="2.209419">
        <ele>23.364217</ele>
        <time>2025-03-06T18:08:19.982Z</time>
      </trkpt>
      <trkpt lat="49.105153" lon="2.209476">
        <ele>23.326075</ele>
        <time>2025-03-06T18:08:22.817Z</time>
      </trkpt>
      <trkpt lat="49.105090" lon="2.209486">
        <ele>23.295619</ele>
        <time>2025-03-06T18:08:25.096Z</time>
      </trkpt>
      <trkpt lat="49.104196" lon="2.209494">
        <ele>23.010412</ele>
        <time>2025-03-06T18:08:57.342Z</time>
      </trkpt>
      <trkpt lat="49.103376" lon="2.209548">
        <ele>22.886025</ele>
        <time>2025-03-06T18:09:27.392Z</time>
      </trkpt>
      <trkpt lat="49.102343" lon="2.209663">
        <ele>22.810994</ele>
        <time>2025-03-06T18:10:05.843Z</time>
      </trkpt>
      <trkpt lat="49.101416" lon="2.209687">
        <ele>22.823274</ele>
        <time>2025-03-06T18:10:40.462Z</time>
      </trkpt>
      <trkpt lat="49.101139" lon="2.209631">
        <ele>22.826974</ele>
        <time>2025-03-06T18:10:50.901Z</time>
      </trkpt>
      <trkpt lat="49.100957" lon="2.209658">
        <ele>22.834631</ele>
        <time>2025-03-06T18:10:57.720Z</time>
      </trkpt>
      <trkpt lat="49.100928" lon="2.209665">
        <ele>22.836768</ele>
        <time>2025-03-06T18:10:58.804Z</time>
      </trkpt>
      <trkpt lat="49.100889" lon="2.209674">
        <ele>22.839638</ele>
        <time>2025-03-06T18:11:00.253Z</time>
      </trkpt>
      <trkpt lat="49.100815" lon="2.209808">
        <ele>22.847989</ele>
        <time>2025-03-06T18:11:04.549Z</time>
      </trkpt>
      <trkpt lat="49.100575" lon="2.209801">
        <ele>22.865456</ele>
        <time>2025-03-06T18:11:13.486Z</time>
      </trkpt>
      <trkpt lat="49.100364" lon="2.209891">
        <ele>22.881397</ele>
        <time>2025-03-06T18:11:21.647Z</time>
      </trkpt>
      <trkpt lat="49.099823" lon="2.209957">
        <ele>22.920887</ele>
        <time>2025-03-06T18:11:41.993Z</time>
      </trkpt>
      <trkpt lat="49.099532" lon="2.209930">
        <ele>22.942101</ele>
        <time>2025-03-06T18:11:52.923Z</time>
      </trkpt>
      <trkpt lat="49.098345" lon="2.210269">
        <ele>23.073634</ele>
        <time>2025-03-06T18:12:38.667Z</time>
      </trkpt>
      <trkpt lat="49.097454" lon="2.210443">
        <ele>23.168815</ele>
        <time>2025-03-06T18:13:12.282Z</time>
      </trkpt>
      <trkpt lat="49.097326" lon="2.210422">
        <ele>23.165633</ele>
        <time>2025-03-06T18:13:17.103Z</time>
      </trkpt>
      <trkpt lat="49.097006" lon="2.210500">
        <ele>23.157623</ele>
        <time>2025-03-06T18:13:29.165Z</time>
      </trkpt>
      <trkpt lat="49.096578" lon="2.210581">
        <ele>23.146961</ele>
        <time>2025-03-06T18:13:45.126Z</time>
      </trkpt>
      <trkpt lat="49.095363" lon="2.210416">
        <ele>23.116820</ele>
        <time>2025-03-06T18:14:29.982Z</time>
      </trkpt>
      <trkpt lat="49.094008" lon="2.210077">
        <ele>23.082921</ele>
        <time>2025-03-06T18:15:20.351Z</time>
      </trkpt>
      <trkpt lat="49.093341" lon="2.209869">
        <ele>23.448410</ele>
        <time>2025-03-06T18:15:47.549Z</time>
      </trkpt>
      <trkpt lat="49.093130" lon="2.209765">
        <ele>23.576660</ele>
        <time>2025-03-06T18:15:56.621Z</time>
      </trkpt>
      <trkpt lat="49.092623" lon="2.209636">
        <ele>23.873973</ele>
        <time>2025-03-06T18:16:17.893Z</time>
      </trkpt>
      <trkpt lat="49.092559" lon="2.209688">
        <ele>23.915907</ele>
        <time>2025-03-06T18:16:20.859Z</time>
      </trkpt>
      <trkpt lat="49.092161" lon="2.209457">
        <ele>24.129370</ele>
        <time>2025-03-06T18:16:32.173Z</time>
      </trkpt>
      <trkpt lat="49.092159" lon="2.209456">
        <ele>24.129589</ele>
        <time>2025-03-06T18:16:32.225Z</time>
      </trkpt>
      <trkpt lat="49.090643" lon="2.208803">
        <ele>24.293443</ele>
        <time>2025-03-06T18:17:08.231Z</time>
      </trkpt>
      <trkpt lat="49.089438" lon="2.208251">
        <ele>23.922563</ele>
        <time>2025-03-06T18:17:34.308Z</time>
      </trkpt>
      <trkpt lat="49.087301" lon="2.207269">
        <ele>24.322007</ele>
        <time>2025-03-06T18:18:22.800Z</time>
      </trkpt>
      <trkpt lat="49.086899" lon="2.207073">
        <ele>25.069961</ele>
        <time>2025-03-06T18:18:36.397Z</time>
      </trkpt>
      <trkpt lat="49.086829" lon="2.207039">
        <ele>25.359565</ele>
        <time>2025-03-06T18:18:39.085Z</time>
      </trkpt>
      <trkpt lat="49.086575" lon="2.206918">
        <ele>26.408576</ele>
        <time>2025-03-06T18:18:49.791Z</time>
      </trkpt>
      <trkpt lat="49.086297" lon="2.206840">
        <ele>27.522952</ele>
        <time>2025-03-06T18:19:02.693Z</time>
      </trkpt>
      <trkpt lat="49.086085" lon="2.206828">
        <ele>28.359345</ele>
        <time>2025-03-06T18:19:13.044Z</time>
      </trkpt>
      <trkpt lat="49.085192" lon="2.206935">
        <ele>31.671239</ele>
        <time>2025-03-06T18:19:54.716Z</time>
      </trkpt>
      <trkpt lat="49.085017" lon="2.206920">
        <ele>31.951331</ele>
        <time>2025-03-06T18:20:02.424Z</time>
      </trkpt>
      <trkpt lat="49.084681" lon="2.206824">
        <ele>32.497583</ele>
        <time>2025-03-06T18:20:16.033Z</time>
      </trkpt>
      <trkpt lat="49.083888" lon="2.206392">
        <ele>33.843051</ele>
        <time>2025-03-06T18:20:37.175Z</time>
      </trkpt>
      <trkpt lat="49.083741" lon="2.206317">
        <ele>34.090727</ele>
        <time>2025-03-06T18:20:40.410Z</time>
      </trkpt>
      <trkpt lat="49.083588" lon="2.206238">
        <ele>34.348825</ele>
        <time>2025-03-06T18:20:43.806Z</time>
      </trkpt>
      <trkpt lat="49.083301" lon="2.206133">
        <ele>34.268602</ele>
        <time>2025-03-06T18:20:50.038Z</time>
      </trkpt>
      <trkpt lat="49.083108" lon="2.206098">
        <ele>34.175567</ele>
        <time>2025-03-06T18:20:54.064Z</time>
      </trkpt>
      <trkpt lat="49.082206" lon="2.206186">
        <ele>33.742914</ele>
        <time>2025-03-06T18:21:11.997Z</time>
      </trkpt>
      <trkpt lat="49.082067" lon="2.206199">
        <ele>33.676252</ele>
        <time>2025-03-06T18:21:15.206Z</time>
      </trkpt>
      <trkpt lat="49.081899" lon="2.206103">
        <ele>33.590385</ele>
        <time>2025-03-06T18:21:19.423Z</time>
      </trkpt>
      <trkpt lat="49.081878" lon="2.206052">
        <ele>33.571498</ele>
        <time>2025-03-06T18:21:20.391Z</time>
      </trkpt>
      <trkpt lat="49.081821" lon="2.206030">
        <ele>33.543354</ele>
        <time>2025-03-06T18:21:21.797Z</time>
      </trkpt>
      <trkpt lat="49.081775" lon="2.206083">
        <ele>33.571959</ele>
        <time>2025-03-06T18:21:23.145Z</time>
      </trkpt>
      <trkpt lat="49.081785" lon="2.206198">
        <ele>33.642861</ele>
        <time>2025-03-06T18:21:25.003Z</time>
      </trkpt>
      <trkpt lat="49.081490" lon="2.206245">
        <ele>33.919625</ele>
        <time>2025-03-06T18:21:31.954Z</time>
      </trkpt>
      <trkpt lat="49.081183" lon="2.206206">
        <ele>34.207081</ele>
        <time>2025-03-06T18:21:39.082Z</time>
      </trkpt>
      <trkpt lat="49.081179" lon="2.206204">
        <ele>34.211009</ele>
        <time>2025-03-06T18:21:39.188Z</time>
      </trkpt>
      <trkpt lat="49.080615" lon="2.205981">
        <ele>34.754648</ele>
        <time>2025-03-06T18:21:55.349Z</time>
      </trkpt>
      <trkpt lat="49.080256" lon="2.205840">
        <ele>35.100544</ele>
        <time>2025-03-06T18:22:06.017Z</time>
      </trkpt>
      <trkpt lat="49.080098" lon="2.205770">
        <ele>35.341153</ele>
        <time>2025-03-06T18:22:10.740Z</time>
      </trkpt>
      <trkpt lat="49.079948" lon="2.205700">
        <ele>35.799209</ele>
        <time>2025-03-06T18:22:15.903Z</time>
      </trkpt>
      <trkpt lat="49.079306" lon="2.205363">
        <ele>37.781785</ele>
        <time>2025-03-06T18:22:40.812Z</time>
      </trkpt>
      <trkpt lat="49.079088" lon="2.205251">
        <ele>38.453497</ele>
        <time>2025-03-06T18:22:50.300Z</time>
      </trkpt>
      <trkpt lat="49.079130" lon="2.205360">
        <ele>38.695400</ele>
        <time>2025-03-06T18:22:56.091Z</time>
      </trkpt>
      <trkpt lat="49.079089" lon="2.205548">
        <ele>39.074427</ele>
        <time>2025-03-06T18:23:05.119Z</time>
      </trkpt>
      <trkpt lat="49.079151" lon="2.205633">
        <ele>39.317777</ele>
        <time>2025-03-06T18:23:08.434Z</time>
      </trkpt>
      <trkpt lat="49.079280" lon="2.206057">
        <ele>40.212050</ele>
        <time>2025-03-06T18:23:20.948Z</time>
      </trkpt>
      <trkpt lat="49.079336" lon="2.206271">
        <ele>40.629545</ele>
        <time>2025-03-06T18:23:26.925Z</time>
      </trkpt>
      <trkpt lat="49.079391" lon="2.206467">
        <ele>40.986586</ele>
        <time>2025-03-06T18:23:32.256Z</time>
      </trkpt>
      <trkpt lat="49.079649" lon="2.206743">
        <ele>41.791928</ele>
        <time>2025-03-06T18:23:43.186Z</time>
      </trkpt>
      <trkpt lat="49.079878" lon="2.206917">
        <ele>42.445830</ele>
        <time>2025-03-06T18:23:52.432Z</time>
      </trkpt>
      <trkpt lat="49.080149" lon="2.207060">
        <ele>43.178817</ele>
        <time>2025-03-06T18:24:03.816Z</time>
      </trkpt>
      <trkpt lat="49.080276" lon="2.207076">
        <ele>43.504578</ele>
        <time>2025-03-06T18:24:08.639Z</time>
      </trkpt>
      <trkpt lat="49.080476" lon="2.207006">
        <ele>44.029114</ele>
        <time>2025-03-06T18:24:15.568Z</time>
      </trkpt>
      <trkpt lat="49.080579" lon="2.206922">
        <ele>44.327631</ele>
        <time>2025-03-06T18:24:19.142Z</time>
      </trkpt>
      <trkpt lat="49.080646" lon="2.207243">
        <ele>44.891746</ele>
        <time>2025-03-06T18:24:34.443Z</time>
      </trkpt>
      <trkpt lat="49.080661" lon="2.207511">
        <ele>45.495327</ele>
        <time>2025-03-06T18:24:46.691Z</time>
      </trkpt>
      <trkpt lat="49.080665" lon="2.207531">
        <ele>45.549614</ele>
        <time>2025-03-06T18:24:47.643Z</time>
      </trkpt>
      <trkpt lat="49.080544" lon="2.207575">
        <ele>46.042600</ele>
        <time>2025-03-06T18:24:51.392Z</time>
      </trkpt>
      <trkpt lat="49.080441" lon="2.207559">
        <ele>46.452937</ele>
        <time>2025-03-06T18:24:54.363Z</time>
      </trkpt>
      <trkpt lat="49.080048" lon="2.207361">
        <ele>48.093174</ele>
        <time>2025-03-06T18:25:09.393Z</time>
      </trkpt>
      <trkpt lat="49.079356" lon="2.207116">
        <ele>50.908628</ele>
        <time>2025-03-06T18:25:44.276Z</time>
      </trkpt>
      <trkpt lat="49.079240" lon="2.207151">
        <ele>51.377275</ele>
        <time>2025-03-06T18:25:50.082Z</time>
      </trkpt>
      <trkpt lat="49.079112" lon="2.207285">
        <ele>51.992405</ele>
        <time>2025-03-06T18:25:57.860Z</time>
      </trkpt>
      <trkpt lat="49.078710" lon="2.207792">
        <ele>54.540921</ele>
        <time>2025-03-06T18:26:25.432Z</time>
      </trkpt>
      <trkpt lat="49.078548" lon="2.207921">
        <ele>55.452038</ele>
        <time>2025-03-06T18:26:35.634Z</time>
      </trkpt>
      <trkpt lat="49.078355" lon="2.208023">
        <ele>56.470491</ele>
        <time>2025-03-06T18:26:47.248Z</time>
      </trkpt>
      <trkpt lat="49.077595" lon="2.208426">
        <ele>60.482419</ele>
        <time>2025-03-06T18:27:25.598Z</time>
      </trkpt>
      <trkpt lat="49.077170" lon="2.208770">
        <ele>61.893437</ele>
        <time>2025-03-06T18:27:42.368Z</time>
      </trkpt>
      <trkpt lat="49.076734" lon="2.209073">
        <ele>62.910066</ele>
        <time>2025-03-06T18:27:57.868Z</time>
      </trkpt>
      <trkpt lat="49.076606" lon="2.209703">
        <ele>63.827005</ele>
        <time>2025-03-06T18:28:11.228Z</time>
      </trkpt>
      <trkpt lat="49.076282" lon="2.211294">
        <ele>66.083122</ele>
        <time>2025-03-06T18:28:46.069Z</time>
      </trkpt>
      <trkpt lat="49.076221" lon="2.211439">
        <ele>66.310337</ele>
        <time>2025-03-06T18:28:50.036Z</time>
      </trkpt>
      <trkpt lat="49.075938" lon="2.212426">
        <ele>67.730918</ele>
        <time>2025-03-06T18:29:15.364Z</time>
      </trkpt>
      <trkpt lat="49.075454" lon="2.213322">
        <ele>69.398524</ele>
        <time>2025-03-06T18:29:38.645Z</time>
      </trkpt>
      <trkpt lat="49.075216" lon="2.212269">
        <ele>71.169221</ele>
        <time>2025-03-06T18:30:01.786Z</time>
      </trkpt>
      <trkpt lat="49.075193" lon="2.212328">
        <ele>71.278360</ele>
        <time>2025-03-06T18:30:03.337Z</time>
      </trkpt>
      <trkpt lat="49.075212" lon="2.213604">
        <ele>73.576256</ele>
        <time>2025-03-06T18:30:34.198Z</time>
      </trkpt>
      <trkpt lat="49.075277" lon="2.215745">
        <ele>79.651332</ele>
        <time>2025-03-06T18:31:42.563Z</time>
      </trkpt>
      <trkpt lat="49.075309" lon="2.216811">
        <ele>81.876789</ele>
        <time>2025-03-06T18:32:10.429Z</time>
      </trkpt>
      <trkpt lat="49.075350" lon="2.218705">
        <ele>85.023418</ele>
        <time>2025-03-06T18:32:51.494Z</time>
      </trkpt>
      <trkpt lat="49.074647" lon="2.219597">
        <ele>86.842142</ele>
        <time>2025-03-06T18:33:23.280Z</time>
      </trkpt>
      <trkpt lat="49.074503" lon="2.219781">
        <ele>87.201562</ele>
        <time>2025-03-06T18:33:29.898Z</time>
      </trkpt>
      <trkpt lat="49.073944" lon="2.220490">
        <ele>88.592576</ele>
        <time>2025-03-06T18:33:53.469Z</time>
      </trkpt>
      <trkpt lat="49.073613" lon="2.220910">
        <ele>88.834247</ele>
        <time>2025-03-06T18:34:05.304Z</time>
      </trkpt>
      <trkpt lat="49.073089" lon="2.220289">
        <ele>88.997922</ele>
        <time>2025-03-06T18:34:21.262Z</time>
      </trkpt>
      <trkpt lat="49.072512" lon="2.219630">
        <ele>89.175722</ele>
        <time>2025-03-06T18:34:37.353Z</time>
      </trkpt>
      <trkpt lat="49.071927" lon="2.218982">
        <ele>89.380448</ele>
        <time>2025-03-06T18:34:53.502Z</time>
      </trkpt>
      <trkpt lat="49.071355" lon="2.218333">
        <ele>89.584910</ele>
        <time>2025-03-06T18:35:11.633Z</time>
      </trkpt>
      <trkpt lat="49.070723" lon="2.219623">
        <ele>90.932130</ele>
        <time>2025-03-06T18:35:39.694Z</time>
      </trkpt>
      <trkpt lat="49.070722" lon="2.219625">
        <ele>90.935350</ele>
        <time>2025-03-06T18:35:39.749Z</time>
      </trkpt>
      <trkpt lat="49.070616" lon="2.219750">
        <ele>91.197029</ele>
        <time>2025-03-06T18:35:43.738Z</time>
      </trkpt>
      <trkpt lat="49.070428" lon="2.219834">
        <ele>91.579714</ele>
        <time>2025-03-06T18:35:49.895Z</time>
      </trkpt>
      <trkpt lat="49.070369" lon="2.219815">
        <ele>91.697513</ele>
        <time>2025-03-06T18:35:51.820Z</time>
      </trkpt>
      <trkpt lat="49.070312" lon="2.219847">
        <ele>91.816160</ele>
        <time>2025-03-06T18:35:53.907Z</time>
      </trkpt>
      <trkpt lat="49.070271" lon="2.219936">
        <ele>91.955409</ele>
        <time>2025-03-06T18:35:56.322Z</time>
      </trkpt>
      <trkpt lat="49.070273" lon="2.220044">
        <ele>92.093688</ele>
        <time>2025-03-06T18:35:58.798Z</time>
      </trkpt>
      <trkpt lat="49.070289" lon="2.220090">
        <ele>92.160345</ele>
        <time>2025-03-06T18:36:00.029Z</time>
      </trkpt>
      <trkpt lat="49.070312" lon="2.220244">
        <ele>92.362499</ele>
        <time>2025-03-06T18:36:03.706Z</time>
      </trkpt>
      <trkpt lat="49.070317" lon="2.220406">
        <ele>92.570066</ele>
        <time>2025-03-06T18:36:07.549Z</time>
      </trkpt>
      <trkpt lat="49.070302" lon="2.220477">
        <ele>92.665544</ele>
        <time>2025-03-06T18:36:09.357Z</time>
      </trkpt>
      <trkpt lat="49.070261" lon="2.220577">
        <ele>92.816527</ele>
        <time>2025-03-06T18:36:12.229Z</time>
      </trkpt>
      <trkpt lat="49.070237" lon="2.220625">
        <ele>92.893807</ele>
        <time>2025-03-06T18:36:13.641Z</time>
      </trkpt>
      <trkpt lat="49.069945" lon="2.221212">
        <ele>94.344495</ele>
        <time>2025-03-06T18:36:32.335Z</time>
      </trkpt>
      <trkpt lat="49.069883" lon="2.221334">
        <ele>94.705024</ele>
        <time>2025-03-06T18:36:36.483Z</time>
      </trkpt>
      <trkpt lat="49.069745" lon="2.221622">
        <ele>95.538181</ele>
        <time>2025-03-06T18:36:46.162Z</time>
      </trkpt>
      <trkpt lat="49.069387" lon="2.222239">
        <ele>97.462684</ele>
        <time>2025-03-06T18:37:09.667Z</time>
      </trkpt>
      <trkpt lat="49.068304" lon="2.223808">
        <ele>102.230854</ele>
        <time>2025-03-06T18:38:06.642Z</time>
      </trkpt>
      <trkpt lat="49.067775" lon="2.224578">
        <ele>104.378572</ele>
        <time>2025-03-06T18:38:32.265Z</time>
      </trkpt>
      <trkpt lat="49.067569" lon="2.225024">
        <ele>105.506562</ele>
        <time>2025-03-06T18:38:45.141Z</time>
      </trkpt>
      <trkpt lat="49.067434" lon="2.225503">
        <ele>106.662337</ele>
        <time>2025-03-06T18:38:58.063Z</time>
      </trkpt>
      <trkpt lat="49.067357" lon="2.225885">
        <ele>107.548212</ele>
        <time>2025-03-06T18:39:08.173Z</time>
      </trkpt>
      <trkpt lat="49.067311" lon="2.226454">
        <ele>108.818975</ele>
        <time>2025-03-06T18:39:22.752Z</time>
      </trkpt>
      <trkpt lat="49.067388" lon="2.227598">
        <ele>111.356081</ele>
        <time>2025-03-06T18:39:54.213Z</time>
      </trkpt>
      <trkpt lat="49.067397" lon="2.227712">
        <ele>111.602296</ele>
        <time>2025-03-06T18:39:57.391Z</time>
      </trkpt>
      <trkpt lat="49.067454" lon="2.228207">
        <ele>112.679976</ele>
        <time>2025-03-06T18:40:11.384Z</time>
      </trkpt>
      <trkpt lat="49.067471" lon="2.228300">
        <ele>112.887008</ele>
        <time>2025-03-06T18:40:14.042Z</time>
      </trkpt>
      <trkpt lat="49.067579" lon="2.228771">
        <ele>113.957023</ele>
        <time>2025-03-06T18:40:26.947Z</time>
      </trkpt>
      <trkpt lat="49.067580" lon="2.228776">
        <ele>113.968232</ele>
        <time>2025-03-06T18:40:27.068Z</time>
      </trkpt>
      <trkpt lat="49.067641" lon="2.229367">
        <ele>115.251117</ele>
        <time>2025-03-06T18:40:41.481Z</time>
      </trkpt>
      <trkpt lat="49.067665" lon="2.229624">
        <ele>115.807761</ele>
        <time>2025-03-06T18:40:47.715Z</time>
      </trkpt>
      <trkpt lat="49.067771" lon="2.230747">
        <ele>118.171988</ele>
        <time>2025-03-06T18:41:13.673Z</time>
      </trkpt>
      <trkpt lat="49.067821" lon="2.231252">
        <ele>119.211540</ele>
        <time>2025-03-06T18:41:26.133Z</time>
      </trkpt>
      <trkpt lat="49.067865" lon="2.231805">
        <ele>120.345388</ele>
        <time>2025-03-06T18:41:40.499Z</time>
      </trkpt>
      <trkpt lat="49.067853" lon="2.232120">
        <ele>120.987623</ele>
        <time>2025-03-06T18:41:48.395Z</time>
      </trkpt>
      <trkpt lat="49.067800" lon="2.232383">
        <ele>121.547686</ele>
        <time>2025-03-06T18:41:55.241Z</time>
      </trkpt>
      <trkpt lat="49.067593" lon="2.233054">
        <ele>122.967035</ele>
        <time>2025-03-06T18:42:14.273Z</time>
      </trkpt>
      <trkpt lat="49.067481" lon="2.233366">
        <ele>123.578659</ele>
        <time>2025-03-06T18:42:23.547Z</time>
      </trkpt>
      <trkpt lat="49.067419" lon="2.233475">
        <ele>123.826820</ele>
        <time>2025-03-06T18:42:27.352Z</time>
      </trkpt>
      <trkpt lat="49.067281" lon="2.233608">
        <ele>124.255086</ele>
        <time>2025-03-06T18:42:33.909Z</time>
      </trkpt>
      <trkpt lat="49.066846" lon="2.233915">
        <ele>125.512660</ele>
        <time>2025-03-06T18:42:52.376Z</time>
      </trkpt>
      <trkpt lat="49.066562" lon="2.234038">
        <ele>126.287309</ele>
        <time>2025-03-06T18:43:02.031Z</time>
      </trkpt>
      <trkpt lat="49.066071" lon="2.234126">
        <ele>127.599085</ele>
        <time>2025-03-06T18:43:15.108Z</time>
      </trkpt>
      <trkpt lat="49.065640" lon="2.234132">
        <ele>128.772373</ele>
        <time>2025-03-06T18:43:26.814Z</time>
      </trkpt>
      <trkpt lat="49.065563" lon="2.234180">
        <ele>128.998787</ele>
        <time>2025-03-06T18:43:29.209Z</time>
      </trkpt>
      <trkpt lat="49.065258" lon="2.234544">
        <ele>130.052725</ele>
        <time>2025-03-06T18:43:42.316Z</time>
      </trkpt>
      <trkpt lat="49.065175" lon="2.234601">
        <ele>130.300480</ele>
        <time>2025-03-06T18:43:45.600Z</time>
      </trkpt>
      <trkpt lat="49.065106" lon="2.234597">
        <ele>130.488443</ele>
        <time>2025-03-06T18:43:48.032Z</time>
      </trkpt>
      <trkpt lat="49.064587" lon="2.234353">
        <ele>131.966738</ele>
        <time>2025-03-06T18:44:09.773Z</time>
      </trkpt>
      <trkpt lat="49.064580" lon="2.234351">
        <ele>131.986124</ele>
        <time>2025-03-06T18:44:10.095Z</time>
      </trkpt>
      <trkpt lat="49.064293" lon="2.234267">
        <ele>133.529116</ele>
        <time>2025-03-06T18:44:24.849Z</time>
      </trkpt>
      <trkpt lat="49.064195" lon="2.234259">
        <ele>134.085968</ele>
        <time>2025-03-06T18:44:30.240Z</time>
      </trkpt>
      <trkpt lat="49.064170" lon="2.234023">
        <ele>134.974741</ele>
        <time>2025-03-06T18:44:39.650Z</time>
      </trkpt>
      <trkpt lat="49.064100" lon="2.233769">
        <ele>135.999171</ele>
        <time>2025-03-06T18:44:50.831Z</time>
      </trkpt>
      <trkpt lat="49.064118" lon="2.233007">
        <ele>138.833913</ele>
        <time>2025-03-06T18:45:20.672Z</time>
      </trkpt>
      <trkpt lat="49.063143" lon="2.232938">
        <ele>143.119404</ele>
        <time>2025-03-06T18:46:06.152Z</time>
      </trkpt>
      <trkpt lat="49.063070" lon="2.233001">
        <ele>143.307870</ele>
        <time>2025-03-06T18:46:09.262Z</time>
      </trkpt>
      <trkpt lat="49.062354" lon="2.234159">
        <ele>145.652386</ele>
        <time>2025-03-06T18:46:42.041Z</time>
      </trkpt>
      <trkpt lat="49.061452" lon="2.234425">
        <ele>146.569437</ele>
        <time>2025-03-06T18:47:05.984Z</time>
      </trkpt>
      <trkpt lat="49.061391" lon="2.234415">
        <ele>146.592409</ele>
        <time>2025-03-06T18:47:07.619Z</time>
      </trkpt>
      <trkpt lat="49.061347" lon="2.234457">
        <ele>146.611842</ele>
        <time>2025-03-06T18:47:09.623Z</time>
      </trkpt>
      <trkpt lat="49.059714" lon="2.234958">
        <ele>147.366425</ele>
        <time>2025-03-06T18:48:12.891Z</time>
      </trkpt>
      <trkpt lat="49.059193" lon="2.235001">
        <ele>147.676959</ele>
        <time>2025-03-06T18:48:34.269Z</time>
      </trkpt>
      <trkpt lat="49.058012" lon="2.235011">
        <ele>147.782092</ele>
        <time>2025-03-06T18:49:23.110Z</time>
      </trkpt>
      <trkpt lat="49.055777" lon="2.235580">
        <ele>144.093413</ele>
        <time>2025-03-06T18:50:40.273Z</time>
      </trkpt>
      <trkpt lat="49.056016" lon="2.238037">
        <ele>136.850103</ele>
        <time>2025-03-06T18:51:27.037Z</time>
      </trkpt>
      <trkpt lat="49.056034" lon="2.238183">
        <ele>136.269032</ele>
        <time>2025-03-06T18:51:29.708Z</time>
      </trkpt>
      <trkpt lat="49.056127" lon="2.238928">
        <ele>133.302705</ele>
        <time>2025-03-06T18:51:43.339Z</time>
      </trkpt>
      <trkpt lat="49.056251" lon="2.239822">
        <ele>129.813180</ele>
        <time>2025-03-06T18:51:59.803Z</time>
      </trkpt>
      <trkpt lat="49.056347" lon="2.241068">
        <ele>125.276246</ele>
        <time>2025-03-06T18:52:22.692Z</time>
      </trkpt>
      <trkpt lat="49.056571" lon="2.242779">
        <ele>119.645331</ele>
        <time>2025-03-06T18:52:56.073Z</time>
      </trkpt>
      <trkpt lat="49.056768" lon="2.244013">
        <ele>116.644098</ele>
        <time>2025-03-06T18:53:21.136Z</time>
      </trkpt>
      <trkpt lat="49.057084" lon="2.245418">
        <ele>114.034645</ele>
        <time>2025-03-06T18:53:51.515Z</time>
      </trkpt>
      <trkpt lat="49.057260" lon="2.245858">
        <ele>113.656938</ele>
        <time>2025-03-06T18:54:02.431Z</time>
      </trkpt>
      <trkpt lat="49.057661" lon="2.247242">
        <ele>112.548172</ele>
        <time>2025-03-06T18:54:37.227Z</time>
      </trkpt>
      <trkpt lat="49.056893" lon="2.247514">
        <ele>114.489987</ele>
        <time>2025-03-06T18:55:12.932Z</time>
      </trkpt>
      <trkpt lat="49.056514" lon="2.247579">
        <ele>115.644188</ele>
        <time>2025-03-06T18:55:33.450Z</time>
      </trkpt>
      <trkpt lat="49.055846" lon="2.247772">
        <ele>117.701695</ele>
        <time>2025-03-06T18:56:13.868Z</time>
      </trkpt>
      <trkpt lat="49.055628" lon="2.247890">
        <ele>118.684945</ele>
        <time>2025-03-06T18:56:28.355Z</time>
      </trkpt>
      <trkpt lat="49.055325" lon="2.247997">
        <ele>120.129067</ele>
        <time>2025-03-06T18:56:47.893Z</time>
      </trkpt>
      <trkpt lat="49.055164" lon="2.248029">
        <ele>120.882963</ele>
        <time>2025-03-06T18:56:57.986Z</time>
      </trkpt>
      <trkpt lat="49.054875" lon="2.248029">
        <ele>122.224895</ele>
        <time>2025-03-06T18:57:15.413Z</time>
      </trkpt>
      <trkpt lat="49.054390" lon="2.248201">
        <ele>124.536946</ele>
        <time>2025-03-06T18:57:44.761Z</time>
      </trkpt>
      <trkpt lat="49.053919" lon="2.248169">
        <ele>126.896998</ele>
        <time>2025-03-06T18:58:11.962Z</time>
      </trkpt>
      <trkpt lat="49.053856" lon="2.248126">
        <ele>127.326371</ele>
        <time>2025-03-06T18:58:15.985Z</time>
      </trkpt>
      <trkpt lat="49.053881" lon="2.248658">
        <ele>129.501012</ele>
        <time>2025-03-06T18:58:37.760Z</time>
      </trkpt>
      <trkpt lat="49.053927" lon="2.249039">
        <ele>131.080567</ele>
        <time>2025-03-06T18:58:54.444Z</time>
      </trkpt>
      <trkpt lat="49.054018" lon="2.249485">
        <ele>132.985089</ele>
        <time>2025-03-06T18:59:11.793Z</time>
      </trkpt>
      <trkpt lat="49.054042" lon="2.249725">
        <ele>133.974941</ele>
        <time>2025-03-06T18:59:21.367Z</time>
      </trkpt>
      <trkpt lat="49.054239" lon="2.251190">
        <ele>140.409330</ele>
        <time>2025-03-06T19:00:21.624Z</time>
      </trkpt>
      <trkpt lat="49.054291" lon="2.251420">
        <ele>141.526993</ele>
        <time>2025-03-06T19:00:30.852Z</time>
      </trkpt>
      <trkpt lat="49.054417" lon="2.251780">
        <ele>143.401804</ele>
        <time>2025-03-06T19:00:46.392Z</time>
      </trkpt>
      <trkpt lat="49.054517" lon="2.251789">
        <ele>144.103985</ele>
        <time>2025-03-06T19:00:52.114Z</time>
      </trkpt>
      <trkpt lat="49.054417" lon="2.251780">
        <ele>144.806167</ele>
        <time>2025-03-06T19:00:58.042Z</time>
      </trkpt>
      <trkpt lat="49.054119" lon="2.251819">
        <ele>146.902707</ele>
        <time>2025-03-06T19:01:15.537Z</time>
      </trkpt>
      <trkpt lat="49.053930" lon="2.251778">
        <ele>148.240849</ele>
        <time>2025-03-06T19:01:26.359Z</time>
      </trkpt>
      <trkpt lat="49.053926" lon="2.251894">
        <ele>148.774462</ele>
        <time>2025-03-06T19:01:30.608Z</time>
      </trkpt>
      <trkpt lat="49.053985" lon="2.252131">
        <ele>149.939085</ele>
        <time>2025-03-06T19:01:39.950Z</time>
      </trkpt>
      <trkpt lat="49.054189" lon="2.252887">
        <ele>152.560196</ele>
        <time>2025-03-06T19:02:06.797Z</time>
      </trkpt>
      <trkpt lat="49.054447" lon="2.253757">
        <ele>155.591961</ele>
        <time>2025-03-06T19:02:35.220Z</time>
      </trkpt>
      <trkpt lat="49.054187" lon="2.253184">
        <ele>157.804659</ele>
        <time>2025-03-06T19:03:01.385Z</time>
      </trkpt>
      <trkpt lat="49.054057" lon="2.253052">
        <ele>158.561145</ele>
        <time>2025-03-06T19:03:09.641Z</time>
      </trkpt>
      <trkpt lat="49.053432" lon="2.252660">
        <ele>162.802555</ele>
        <time>2025-03-06T19:03:48.465Z</time>
      </trkpt>
      <trkpt lat="49.053176" lon="2.252683">
        <ele>164.432772</ele>
        <time>2025-03-06T19:04:05.984Z</time>
      </trkpt>
      <trkpt lat="49.053047" lon="2.252886">
        <ele>165.610798</ele>
        <time>2025-03-06T19:04:20.167Z</time>
      </trkpt>
      <trkpt lat="49.052869" lon="2.253287">
        <ele>167.628569</ele>
        <time>2025-03-06T19:04:45.655Z</time>
      </trkpt>
      <trkpt lat="49.052734" lon="2.253517">
        <ele>168.914914</ele>
        <time>2025-03-06T19:05:01.784Z</time>
      </trkpt>
      <trkpt lat="49.052278" lon="2.253812">
        <ele>171.630278</ele>
        <time>2025-03-06T19:05:40.819Z</time>
      </trkpt>
      <trkpt lat="49.052248" lon="2.254921">
        <ele>175.197091</ele>
        <time>2025-03-06T19:06:30.481Z</time>
      </trkpt>
      <trkpt lat="49.052365" lon="2.255327">
        <ele>176.622334</ele>
        <time>2025-03-06T19:06:46.475Z</time>
      </trkpt>
      <trkpt lat="49.052639" lon="2.255668">
        <ele>178.356062</ele>
        <time>2025-03-06T19:07:03.465Z</time>
      </trkpt>
      <trkpt lat="49.052765" lon="2.255893">
        <ele>179.046837</ele>
        <time>2025-03-06T19:07:11.930Z</time>
      </trkpt>
      <trkpt lat="49.052811" lon="2.256134">
        <ele>179.194785</ele>
        <time>2025-03-06T19:07:18.671Z</time>
      </trkpt>
      <trkpt lat="49.053007" lon="2.256692">
        <ele>179.567931</ele>
        <time>2025-03-06T19:07:34.326Z</time>
      </trkpt>
      <trkpt lat="49.053039" lon="2.256910">
        <ele>179.699604</ele>
        <time>2025-03-06T19:07:39.646Z</time>
      </trkpt>
      <trkpt lat="49.053126" lon="2.257102">
        <ele>179.837184</ele>
        <time>2025-03-06T19:07:45.238Z</time>
      </trkpt>
      <trkpt lat="49.053366" lon="2.257446">
        <ele>180.133322</ele>
        <time>2025-03-06T19:07:57.836Z</time>
      </trkpt>
      <trkpt lat="49.053453" lon="2.257726">
        <ele>180.315961</ele>
        <time>2025-03-06T19:08:06.398Z</time>
      </trkpt>
      <trkpt lat="49.053450" lon="2.257926">
        <ele>180.433871</ele>
        <time>2025-03-06T19:08:12.108Z</time>
      </trkpt>
      <trkpt lat="49.053574" lon="2.258458">
        <ele>181.023815</ele>
        <time>2025-03-06T19:08:28.980Z</time>
      </trkpt>
      <trkpt lat="49.053603" lon="2.258676">
        <ele>181.364746</ele>
        <time>2025-03-06T19:08:35.916Z</time>
      </trkpt>
      <trkpt lat="49.053496" lon="2.259203">
        <ele>182.210326</ele>
        <time>2025-03-06T19:08:53.652Z</time>
      </trkpt>
      <trkpt lat="49.053430" lon="2.259261">
        <ele>182.388445</ele>
        <time>2025-03-06T19:08:57.457Z</time>
      </trkpt>
      <trkpt lat="49.053013" lon="2.259526">
        <ele>183.444862</ele>
        <time>2025-03-06T19:09:20.606Z</time>
      </trkpt>
      <trkpt lat="49.051983" lon="2.259534">
        <ele>185.620388</ele>
        <time>2025-03-06T19:10:11.886Z</time>
      </trkpt>
      <trkpt lat="49.050404" lon="2.259546">
        <ele>188.274503</ele>
        <time>2025-03-06T19:11:22.916Z</time>
      </trkpt>
      <trkpt lat="49.049842" lon="2.259550">
        <ele>188.768184</ele>
        <time>2025-03-06T19:11:47.060Z</time>
      </trkpt>
      <trkpt lat="49.048484" lon="2.259558">
        <ele>189.306040</ele>
        <time>2025-03-06T19:12:41.927Z</time>
      </trkpt>
      <trkpt lat="49.047600" lon="2.259543">
        <ele>188.413770</ele>
        <time>2025-03-06T19:13:12.979Z</time>
      </trkpt>
      <trkpt lat="49.044571" lon="2.259528">
        <ele>180.984744</ele>
        <time>2025-03-06T19:14:48.421Z</time>
      </trkpt>
      <trkpt lat="49.043586" lon="2.259467">
        <ele>177.796224</ele>
        <time>2025-03-06T19:15:17.786Z</time>
      </trkpt>
      <trkpt lat="49.043101" lon="2.260119">
        <ele>177.141905</ele>
        <time>2025-03-06T19:15:37.936Z</time>
      </trkpt>
      <trkpt lat="49.042499" lon="2.260939">
        <ele>176.867095</ele>
        <time>2025-03-06T19:16:11.506Z</time>
      </trkpt>
      <trkpt lat="49.042347" lon="2.261554">
        <ele>176.720389</ele>
        <time>2025-03-06T19:16:31.764Z</time>
      </trkpt>
      <trkpt lat="49.042335" lon="2.261599">
        <ele>176.709545</ele>
        <time>2025-03-06T19:16:33.171Z</time>
      </trkpt>
      <trkpt lat="49.042117" lon="2.262541">
        <ele>174.555699</ele>
        <time>2025-03-06T19:16:56.900Z</time>
      </trkpt>
      <trkpt lat="49.041700" lon="2.262518">
        <ele>173.118924</ele>
        <time>2025-03-06T19:17:04.088Z</time>
      </trkpt>
      <trkpt lat="49.040971" lon="2.262324">
        <ele>170.570887</ele>
        <time>2025-03-06T19:17:15.363Z</time>
      </trkpt>
      <trkpt lat="49.040748" lon="2.262327">
        <ele>169.376356</ele>
        <time>2025-03-06T19:17:18.635Z</time>
      </trkpt>
      <trkpt lat="49.040608" lon="2.262369">
        <ele>168.586593</ele>
        <time>2025-03-06T19:17:20.735Z</time>
      </trkpt>
      <trkpt lat="49.040304" lon="2.262547">
        <ele>166.784218</ele>
        <time>2025-03-06T19:17:25.530Z</time>
      </trkpt>
      <trkpt lat="49.039902" lon="2.262904">
        <ele>164.209506</ele>
        <time>2025-03-06T19:17:32.582Z</time>
      </trkpt>
      <trkpt lat="49.039703" lon="2.263081">
        <ele>162.934453</ele>
        <time>2025-03-06T19:17:36.221Z</time>
      </trkpt>
      <trkpt lat="49.039464" lon="2.263295">
        <ele>161.400500</ele>
        <time>2025-03-06T19:17:40.847Z</time>
      </trkpt>
      <trkpt lat="49.039339" lon="2.263383">
        <ele>160.638481</ele>
        <time>2025-03-06T19:17:43.262Z</time>
      </trkpt>
      <trkpt lat="49.039198" lon="2.263457">
        <ele>160.864389</ele>
        <time>2025-03-06T19:17:46.002Z</time>
      </trkpt>
      <trkpt lat="49.039063" lon="2.263485">
        <ele>161.186805</ele>
        <time>2025-03-06T19:17:48.578Z</time>
      </trkpt>
      <trkpt lat="49.038827" lon="2.263446">
        <ele>161.748564</ele>
        <time>2025-03-06T19:17:53.386Z</time>
      </trkpt>
      <trkpt lat="49.038679" lon="2.263369">
        <ele>162.118616</ele>
        <time>2025-03-06T19:17:57.385Z</time>
      </trkpt>
      <trkpt lat="49.038636" lon="2.263342">
        <ele>162.228659</ele>
        <time>2025-03-06T19:17:58.804Z</time>
      </trkpt>
      <trkpt lat="49.038091" lon="2.262689">
        <ele>163.868682</ele>
        <time>2025-03-06T19:18:27.961Z</time>
      </trkpt>
      <trkpt lat="49.037861" lon="2.262387">
        <ele>164.586847</ele>
        <time>2025-03-06T19:18:43.552Z</time>
      </trkpt>
      <trkpt lat="49.037666" lon="2.262035">
        <ele>166.082013</ele>
        <time>2025-03-06T19:19:00.133Z</time>
      </trkpt>
      <trkpt lat="49.037333" lon="2.261191">
        <ele>170.015188</ele>
        <time>2025-03-06T19:19:36.834Z</time>
      </trkpt>
      <trkpt lat="49.036337" lon="2.258569">
        <ele>180.267837</ele>
        <time>2025-03-06T19:21:18.251Z</time>
      </trkpt>
      <trkpt lat="49.036024" lon="2.257383">
        <ele>183.604158</ele>
        <time>2025-03-06T19:21:48.428Z</time>
      </trkpt>
      <trkpt lat="49.035925" lon="2.257075">
        <ele>183.802503</ele>
        <time>2025-03-06T19:21:54.936Z</time>
      </trkpt>
      <trkpt lat="49.035855" lon="2.256930">
        <ele>183.906624</ele>
        <time>2025-03-06T19:21:58.050Z</time>
      </trkpt>
      <trkpt lat="49.035450" lon="2.256482">
        <ele>184.347872</ele>
        <time>2025-03-06T19:22:10.861Z</time>
      </trkpt>
      <trkpt lat="49.034797" lon="2.258315">
        <ele>185.260237</ele>
        <time>2025-03-06T19:23:04.265Z</time>
      </trkpt>
      <trkpt lat="49.034075" lon="2.260317">
        <ele>185.533827</ele>
        <time>2025-03-06T19:24:02.085Z</time>
      </trkpt>
      <trkpt lat="49.033203" lon="2.262763">
        <ele>183.558680</ele>
        <time>2025-03-06T19:25:07.714Z</time>
      </trkpt>
      <trkpt lat="49.033074" lon="2.263127">
        <ele>182.170401</ele>
        <time>2025-03-06T19:25:15.986Z</time>
      </trkpt>
      <trkpt lat="49.032545" lon="2.264418">
        <ele>177.062485</ele>
        <time>2025-03-06T19:25:43.992Z</time>
      </trkpt>
      <trkpt lat="49.032500" lon="2.264684">
        <ele>176.140772</ele>
        <time>2025-03-06T19:25:48.800Z</time>
      </trkpt>
      <trkpt lat="49.032478" lon="2.265302">
        <ele>173.251871</ele>
        <time>2025-03-06T19:25:59.562Z</time>
      </trkpt>
      <trkpt lat="49.032545" lon="2.266040">
        <ele>169.323570</ele>
        <time>2025-03-06T19:26:12.425Z</time>
      </trkpt>
      <trkpt lat="49.032534" lon="2.266289">
        <ele>168.007718</ele>
        <time>2025-03-06T19:26:16.711Z</time>
      </trkpt>
      <trkpt lat="49.032478" lon="2.266564">
        <ele>166.489426</ele>
        <time>2025-03-06T19:26:21.669Z</time>
      </trkpt>
      <trkpt lat="49.032388" lon="2.266830">
        <ele>164.911168</ele>
        <time>2025-03-06T19:26:26.831Z</time>
      </trkpt>
      <trkpt lat="49.032241" lon="2.267122">
        <ele>162.970055</ele>
        <time>2025-03-06T19:26:33.218Z</time>
      </trkpt>
      <trkpt lat="49.031752" lon="2.267774">
        <ele>159.963681</ele>
        <time>2025-03-06T19:26:50.977Z</time>
      </trkpt>
      <trkpt lat="49.031706" lon="2.267878">
        <ele>159.750083</ele>
        <time>2025-03-06T19:26:53.293Z</time>
      </trkpt>
      <trkpt lat="49.031627" lon="2.268050">
        <ele>159.392524</ele>
        <time>2025-03-06T19:26:57.209Z</time>
      </trkpt>
      <trkpt lat="49.031543" lon="2.268281">
        <ele>158.942778</ele>
        <time>2025-03-06T19:27:02.253Z</time>
      </trkpt>
      <trkpt lat="49.031045" lon="2.269642">
        <ele>156.425955</ele>
        <time>2025-03-06T19:27:39.057Z</time>
      </trkpt>
      <trkpt lat="49.030938" lon="2.269864">
        <ele>157.008206</ele>
        <time>2025-03-06T19:27:48.689Z</time>
      </trkpt>
      <trkpt lat="49.030623" lon="2.270159">
        <ele>158.199585</ele>
        <time>2025-03-06T19:28:09.887Z</time>
      </trkpt>
      <trkpt lat="49.030195" lon="2.271300">
        <ele>160.977492</ele>
        <time>2025-03-06T19:29:01.846Z</time>
      </trkpt>
      <trkpt lat="49.029880" lon="2.271564">
        <ele>162.135943</ele>
        <time>2025-03-06T19:29:21.105Z</time>
      </trkpt>
      <trkpt lat="49.029766" lon="2.271750">
        <ele>162.191155</ele>
        <time>2025-03-06T19:29:29.051Z</time>
      </trkpt>
      <trkpt lat="49.029715" lon="2.271983">
        <ele>162.234401</ele>
        <time>2025-03-06T19:29:36.249Z</time>
      </trkpt>
      <trkpt lat="49.029757" lon="2.272515">
        <ele>162.328739</ele>
        <time>2025-03-06T19:29:50.391Z</time>
      </trkpt>
      <trkpt lat="49.029743" lon="2.272652">
        <ele>162.353150</ele>
        <time>2025-03-06T19:29:53.726Z</time>
      </trkpt>
      <trkpt lat="49.029483" lon="2.273472">
        <ele>162.513509</ele>
        <time>2025-03-06T19:30:14.702Z</time>
      </trkpt>
      <trkpt lat="49.026992" lon="2.280668">
        <ele>157.126153</ele>
        <time>2025-03-06T19:33:18.354Z</time>
      </trkpt>
      <trkpt lat="49.026938" lon="2.280824">
        <ele>156.964871</ele>
        <time>2025-03-06T19:33:22.290Z</time>
      </trkpt>
      <trkpt lat="49.026992" lon="2.280668">
        <ele>156.803590</ele>
        <time>2025-03-06T19:33:26.224Z</time>
      </trkpt>
      <trkpt lat="49.026186" lon="2.280693">
        <ele>154.118778</ele>
        <time>2025-03-06T19:33:51.760Z</time>
      </trkpt>
      <trkpt lat="49.025877" lon="2.280810">
        <ele>152.758683</ele>
        <time>2025-03-06T19:33:57.653Z</time>
      </trkpt>
      <trkpt lat="49.025618" lon="2.280964">
        <ele>151.571139</ele>
        <time>2025-03-06T19:34:02.665Z</time>
      </trkpt>
      <trkpt lat="49.025257" lon="2.281516">
        <ele>149.387298</ele>
        <time>2025-03-06T19:34:11.685Z</time>
      </trkpt>
      <trkpt lat="49.025146" lon="2.281538">
        <ele>148.909129</ele>
        <time>2025-03-06T19:34:13.630Z</time>
      </trkpt>
      <trkpt lat="49.025053" lon="2.281456">
        <ele>148.378406</ele>
        <time>2025-03-06T19:34:15.496Z</time>
      </trkpt>
      <trkpt lat="49.025017" lon="2.281373">
        <ele>148.033344</ele>
        <time>2025-03-06T19:34:16.618Z</time>
      </trkpt>
      <trkpt lat="49.024969" lon="2.280845">
        <ele>146.185011</ele>
        <time>2025-03-06T19:34:22.690Z</time>
      </trkpt>
      <trkpt lat="49.024957" lon="2.280306">
        <ele>144.314970</ele>
        <time>2025-03-06T19:34:28.888Z</time>
      </trkpt>
      <trkpt lat="49.025027" lon="2.279515">
        <ele>141.547339</ele>
        <time>2025-03-06T19:34:38.212Z</time>
      </trkpt>
      <trkpt lat="49.025066" lon="2.279087">
        <ele>140.049005</ele>
        <time>2025-03-06T19:34:43.307Z</time>
      </trkpt>
      <trkpt lat="49.025259" lon="2.277406">
        <ele>135.826902</ele>
        <time>2025-03-06T19:35:04.187Z</time>
      </trkpt>
      <trkpt lat="49.025348" lon="2.276622">
        <ele>133.983416</ele>
        <time>2025-03-06T19:35:14.288Z</time>
      </trkpt>
      <trkpt lat="49.025378" lon="2.276269">
        <ele>133.158702</ele>
        <time>2025-03-06T19:35:18.911Z</time>
      </trkpt>
      <trkpt lat="49.025336" lon="2.275818">
        <ele>132.229226</ele>
        <time>2025-03-06T19:35:24.940Z</time>
      </trkpt>
      <trkpt lat="49.025291" lon="2.275104">
        <ele>130.834810</ele>
        <time>2025-03-06T19:35:34.518Z</time>
      </trkpt>
      <trkpt lat="49.025369" lon="2.274606">
        <ele>129.839461</ele>
        <time>2025-03-06T19:35:41.137Z</time>
      </trkpt>
      <trkpt lat="49.025366" lon="2.274338">
        <ele>129.318392</ele>
        <time>2025-03-06T19:35:44.561Z</time>
      </trkpt>
      <trkpt lat="49.024939" lon="2.274023">
        <ele>127.912149</ele>
        <time>2025-03-06T19:35:59.010Z</time>
      </trkpt>
      <trkpt lat="49.023459" lon="2.272775">
        <ele>121.894405</ele>
        <time>2025-03-06T19:36:49.713Z</time>
      </trkpt>
      <trkpt lat="49.023247" lon="2.272576">
        <ele>121.013644</ele>
        <time>2025-03-06T19:36:57.402Z</time>
      </trkpt>
      <trkpt lat="49.023170" lon="2.272881">
        <ele>120.413361</ele>
        <time>2025-03-06T19:37:04.072Z</time>
      </trkpt>
      <trkpt lat="49.022855" lon="2.273347">
        <ele>119.184120</ele>
        <time>2025-03-06T19:37:17.989Z</time>
      </trkpt>
      <trkpt lat="49.022881" lon="2.273455">
        <ele>118.972807</ele>
        <time>2025-03-06T19:37:20.392Z</time>
      </trkpt>
      <trkpt lat="49.022873" lon="2.273821">
        <ele>118.300189</ele>
        <time>2025-03-06T19:37:28.134Z</time>
      </trkpt>
      <trkpt lat="49.022840" lon="2.274028">
        <ele>117.908911</ele>
        <time>2025-03-06T19:37:32.528Z</time>
      </trkpt>
      <trkpt lat="49.022849" lon="2.274205">
        <ele>117.582833</ele>
        <time>2025-03-06T19:37:36.131Z</time>
      </trkpt>
      <trkpt lat="49.022583" lon="2.274743">
        <ele>116.345267</ele>
        <time>2025-03-06T19:37:49.706Z</time>
      </trkpt>
      <trkpt lat="49.022442" lon="2.275243">
        <ele>115.872625</ele>
        <time>2025-03-06T19:38:00.721Z</time>
      </trkpt>
      <trkpt lat="49.022111" lon="2.276083">
        <ele>115.452479</ele>
        <time>2025-03-06T19:38:21.896Z</time>
      </trkpt>
      <trkpt lat="49.021824" lon="2.276368">
        <ele>115.228568</ele>
        <time>2025-03-06T19:38:34.127Z</time>
      </trkpt>
      <trkpt lat="49.020868" lon="2.276608">
        <ele>115.625782</ele>
        <time>2025-03-06T19:39:17.757Z</time>
      </trkpt>
      <trkpt lat="49.020744" lon="2.276668">
        <ele>115.875241</ele>
        <time>2025-03-06T19:39:23.550Z</time>
      </trkpt>
      <trkpt lat="49.020620" lon="2.276797">
        <ele>116.163082</ele>
        <time>2025-03-06T19:39:30.359Z</time>
      </trkpt>
      <trkpt lat="49.020508" lon="2.276968">
        <ele>116.466995</ele>
        <time>2025-03-06T19:39:37.543Z</time>
      </trkpt>
      <trkpt lat="49.020232" lon="2.277123">
        <ele>117.030990</ele>
        <time>2025-03-06T19:39:50.278Z</time>
      </trkpt>
      <trkpt lat="49.020057" lon="2.277174">
        <ele>117.372635</ele>
        <time>2025-03-06T19:39:57.547Z</time>
      </trkpt>
      <trkpt lat="49.019943" lon="2.277169">
        <ele>117.591326</ele>
        <time>2025-03-06T19:40:01.990Z</time>
      </trkpt>
      <trkpt lat="49.019568" lon="2.277844">
        <ele>118.182112</ele>
        <time>2025-03-06T19:40:19.010Z</time>
      </trkpt>
      <trkpt lat="49.018785" lon="2.279105">
        <ele>117.500730</ele>
        <time>2025-03-06T19:40:43.118Z</time>
      </trkpt>
      <trkpt lat="49.018160" lon="2.279869">
        <ele>116.467265</ele>
        <time>2025-03-06T19:40:58.958Z</time>
      </trkpt>
      <trkpt lat="49.017721" lon="2.280333">
        <ele>115.298503</ele>
        <time>2025-03-06T19:41:09.654Z</time>
      </trkpt>
      <trkpt lat="49.017223" lon="2.280763">
        <ele>114.046268</ele>
        <time>2025-03-06T19:41:20.598Z</time>
      </trkpt>
      <trkpt lat="49.016899" lon="2.281115">
        <ele>113.029147</ele>
        <time>2025-03-06T19:41:27.851Z</time>
      </trkpt>
      <trkpt lat="49.015851" lon="2.281092">
        <ele>107.902667</ele>
        <time>2025-03-06T19:41:44.591Z</time>
      </trkpt>
      <trkpt lat="49.015519" lon="2.281132">
        <ele>106.273736</ele>
        <time>2025-03-06T19:41:49.668Z</time>
      </trkpt>
      <trkpt lat="49.015289" lon="2.281207">
        <ele>105.123327</ele>
        <time>2025-03-06T19:41:53.281Z</time>
      </trkpt>
      <trkpt lat="49.014682" lon="2.281516">
        <ele>102.242169</ele>
        <time>2025-03-06T19:42:03.321Z</time>
      </trkpt>
      <trkpt lat="49.014208" lon="2.281661">
        <ele>100.112611</ele>
        <time>2025-03-06T19:42:11.213Z</time>
      </trkpt>
      <trkpt lat="49.012826" lon="2.281593">
        <ele>94.263812</ele>
        <time>2025-03-06T19:42:34.391Z</time>
      </trkpt>
      <trkpt lat="49.012748" lon="2.281590">
        <ele>93.952707</ele>
        <time>2025-03-06T19:42:35.660Z</time>
      </trkpt>
      <trkpt lat="49.012606" lon="2.281588">
        <ele>93.386492</ele>
        <time>2025-03-06T19:42:37.943Z</time>
      </trkpt>
      <trkpt lat="49.012251" lon="2.281586">
        <ele>91.971005</ele>
        <time>2025-03-06T19:42:43.652Z</time>
      </trkpt>
      <trkpt lat="49.011985" lon="2.281575">
        <ele>90.910004</ele>
        <time>2025-03-06T19:42:47.948Z</time>
      </trkpt>
      <trkpt lat="49.011517" lon="2.281315">
        <ele>89.095218</ele>
        <time>2025-03-06T19:42:56.038Z</time>
      </trkpt>
      <trkpt lat="49.010500" lon="2.280637">
        <ele>86.253701</ele>
        <time>2025-03-06T19:43:16.009Z</time>
      </trkpt>
      <trkpt lat="49.009949" lon="2.280303">
        <ele>84.728738</ele>
        <time>2025-03-06T19:43:26.906Z</time>
      </trkpt>
      <trkpt lat="49.009713" lon="2.280221">
        <ele>84.039206</ele>
        <time>2025-03-06T19:43:31.281Z</time>
      </trkpt>
      <trkpt lat="49.009590" lon="2.280228">
        <ele>83.688572</ele>
        <time>2025-03-06T19:43:33.487Z</time>
      </trkpt>
      <trkpt lat="49.009503" lon="2.280244">
        <ele>83.438938</ele>
        <time>2025-03-06T19:43:35.038Z</time>
      </trkpt>
      <trkpt lat="49.008819" lon="2.280548">
        <ele>81.409316</ele>
        <time>2025-03-06T19:43:47.612Z</time>
      </trkpt>
      <trkpt lat="49.008103" lon="2.281016">
        <ele>78.974809</ele>
        <time>2025-03-06T19:44:00.745Z</time>
      </trkpt>
      <trkpt lat="49.007860" lon="2.281125">
        <ele>77.932339</ele>
        <time>2025-03-06T19:44:04.920Z</time>
      </trkpt>
      <trkpt lat="49.007517" lon="2.281208">
        <ele>76.503033</ele>
        <time>2025-03-06T19:44:10.579Z</time>
      </trkpt>
      <trkpt lat="49.007323" lon="2.281234">
        <ele>75.701538</ele>
        <time>2025-03-06T19:44:13.716Z</time>
      </trkpt>
      <trkpt lat="49.007164" lon="2.281245">
        <ele>75.046492</ele>
        <time>2025-03-06T19:44:16.266Z</time>
      </trkpt>
      <trkpt lat="49.007059" lon="2.281289">
        <ele>74.598331</ele>
        <time>2025-03-06T19:44:18.012Z</time>
      </trkpt>
      <trkpt lat="49.006771" lon="2.281503">
        <ele>73.279750</ele>
        <time>2025-03-06T19:44:23.178Z</time>
      </trkpt>
      <trkpt lat="49.006440" lon="2.281667">
        <ele>71.956176</ele>
        <time>2025-03-06T19:44:28.904Z</time>
      </trkpt>
      <trkpt lat="49.006229" lon="2.281683">
        <ele>71.309656</ele>
        <time>2025-03-06T19:44:32.442Z</time>
      </trkpt>
      <trkpt lat="49.005563" lon="2.281588">
        <ele>69.262595</ele>
        <time>2025-03-06T19:44:43.873Z</time>
      </trkpt>
      <trkpt lat="49.005063" lon="2.281528">
        <ele>67.727714</ele>
        <time>2025-03-06T19:44:52.566Z</time>
      </trkpt>
      <trkpt lat="49.004476" lon="2.281650">
        <ele>66.401595</ele>
        <time>2025-03-06T19:45:03.307Z</time>
      </trkpt>
      <trkpt lat="49.004327" lon="2.281678">
        <ele>66.204508</ele>
        <time>2025-03-06T19:45:06.119Z</time>
      </trkpt>
      <trkpt lat="49.004203" lon="2.281683">
        <ele>66.041664</ele>
        <time>2025-03-06T19:45:08.500Z</time>
      </trkpt>
      <trkpt lat="49.003833" lon="2.281443">
        <ele>65.513784</ele>
        <time>2025-03-06T19:45:16.409Z</time>
      </trkpt>
      <trkpt lat="49.003650" lon="2.281251">
        <ele>65.222139</ele>
        <time>2025-03-06T19:45:20.885Z</time>
      </trkpt>
      <trkpt lat="49.003639" lon="2.281194">
        <ele>65.170970</ele>
        <time>2025-03-06T19:45:21.676Z</time>
      </trkpt>
      <trkpt lat="49.003589" lon="2.281106">
        <ele>65.070709</ele>
        <time>2025-03-06T19:45:23.213Z</time>
      </trkpt>
      <trkpt lat="49.003531" lon="2.281073">
        <ele>64.989436</ele>
        <time>2025-03-06T19:45:24.488Z</time>
      </trkpt>
      <trkpt lat="49.003470" lon="2.281082">
        <ele>64.908982</ele>
        <time>2025-03-06T19:45:25.725Z</time>
      </trkpt>
      <trkpt lat="49.003236" lon="2.280924">
        <ele>64.573000</ele>
        <time>2025-03-06T19:45:31.063Z</time>
      </trkpt>
      <trkpt lat="49.002900" lon="2.280605">
        <ele>63.987045</ele>
        <time>2025-03-06T19:45:39.308Z</time>
      </trkpt>
      <trkpt lat="49.001429" lon="2.279366">
        <ele>61.411508</ele>
        <time>2025-03-06T19:46:10.489Z</time>
      </trkpt>
      <trkpt lat="49.001133" lon="2.279119">
        <ele>60.986947</ele>
        <time>2025-03-06T19:46:16.788Z</time>
      </trkpt>
      <trkpt lat="49.001075" lon="2.279014">
        <ele>60.873651</ele>
        <time>2025-03-06T19:46:18.497Z</time>
      </trkpt>
      <trkpt lat="49.000913" lon="2.278781">
        <ele>60.593423</ele>
        <time>2025-03-06T19:46:22.734Z</time>
      </trkpt>
      <trkpt lat="49.000738" lon="2.278596">
        <ele>60.325480</ele>
        <time>2025-03-06T19:46:26.871Z</time>
      </trkpt>
      <trkpt lat="49.000468" lon="2.278313">
        <ele>59.913221</ele>
        <time>2025-03-06T19:46:33.277Z</time>
      </trkpt>
      <trkpt lat="49.000039" lon="2.278007">
        <ele>59.334955</ele>
        <time>2025-03-06T19:46:42.896Z</time>
      </trkpt>
      <trkpt lat="48.999823" lon="2.277850">
        <ele>59.288411</ele>
        <time>2025-03-06T19:46:48.013Z</time>
      </trkpt>
      <trkpt lat="48.999351" lon="2.277620">
        <ele>59.192029</ele>
        <time>2025-03-06T19:46:58.795Z</time>
      </trkpt>
      <trkpt lat="48.999045" lon="2.277514">
        <ele>59.130994</ele>
        <time>2025-03-06T19:47:05.714Z</time>
      </trkpt>
      <trkpt lat="48.998310" lon="2.277231">
        <ele>58.984382</ele>
        <time>2025-03-06T19:47:22.372Z</time>
      </trkpt>
      <trkpt lat="48.997974" lon="2.277152">
        <ele>58.929778</ele>
        <time>2025-03-06T19:47:30.039Z</time>
      </trkpt>
      <trkpt lat="48.997544" lon="2.277058">
        <ele>58.860008</ele>
        <time>2025-03-06T19:47:40.436Z</time>
      </trkpt>
      <trkpt lat="48.997322" lon="2.276970">
        <ele>58.823166</ele>
        <time>2025-03-06T19:47:45.795Z</time>
      </trkpt>
      <trkpt lat="48.996760" lon="2.276707">
        <ele>58.728744</ele>
        <time>2025-03-06T19:47:58.818Z</time>
      </trkpt>
      <trkpt lat="48.996793" lon="2.276590">
        <ele>58.715323</ele>
        <time>2025-03-06T19:48:00.641Z</time>
      </trkpt>
      <trkpt lat="48.996136" lon="2.276264">
        <ele>57.230681</ele>
        <time>2025-03-06T19:48:13.841Z</time>
      </trkpt>
      <trkpt lat="48.995228" lon="2.275716">
        <ele>54.808443</ele>
        <time>2025-03-06T19:48:30.746Z</time>
      </trkpt>
      <trkpt lat="48.995211" lon="2.275696">
        <ele>54.755178</ele>
        <time>2025-03-06T19:48:31.097Z</time>
      </trkpt>
      <trkpt lat="48.995117" lon="2.275605">
        <ele>54.478974</ele>
        <time>2025-03-06T19:48:32.912Z</time>
      </trkpt>
      <trkpt lat="48.995096" lon="2.275452">
        <ele>54.229402</ele>
        <time>2025-03-06T19:48:34.583Z</time>
      </trkpt>
      <trkpt lat="48.994990" lon="2.275343">
        <ele>54.023321</ele>
        <time>2025-03-06T19:48:36.693Z</time>
      </trkpt>
      <trkpt lat="48.994862" lon="2.275253">
        <ele>53.796137</ele>
        <time>2025-03-06T19:48:39.019Z</time>
      </trkpt>
      <trkpt lat="48.994726" lon="2.275278">
        <ele>53.575365</ele>
        <time>2025-03-06T19:48:41.342Z</time>
      </trkpt>
      <trkpt lat="48.994507" lon="2.275259">
        <ele>53.221845</ele>
        <time>2025-03-06T19:48:45.140Z</time>
      </trkpt>
      <trkpt lat="48.994183" lon="2.275024">
        <ele>52.643558</ele>
        <time>2025-03-06T19:48:51.700Z</time>
      </trkpt>
      <trkpt lat="48.993873" lon="2.274800">
        <ele>52.090642</ele>
        <time>2025-03-06T19:48:58.947Z</time>
      </trkpt>
      <trkpt lat="48.993768" lon="2.274693">
        <ele>51.887077</ele>
        <time>2025-03-06T19:49:01.679Z</time>
      </trkpt>
      <trkpt lat="48.993694" lon="2.274606">
        <ele>51.736454</ele>
        <time>2025-03-06T19:49:03.715Z</time>
      </trkpt>
      <trkpt lat="48.993675" lon="2.274534">
        <ele>51.654390</ele>
        <time>2025-03-06T19:49:04.835Z</time>
      </trkpt>
      <trkpt lat="48.993619" lon="2.274470">
        <ele>51.541582</ele>
        <time>2025-03-06T19:49:06.454Z</time>
      </trkpt>
      <trkpt lat="48.993556" lon="2.274463">
        <ele>51.439779</ele>
        <time>2025-03-06T19:49:07.927Z</time>
      </trkpt>
      <trkpt lat="48.993499" lon="2.274509">
        <ele>51.340695</ele>
        <time>2025-03-06T19:49:09.429Z</time>
      </trkpt>
      <trkpt lat="48.993465" lon="2.274615">
        <ele>51.379068</ele>
        <time>2025-03-06T19:49:11.375Z</time>
      </trkpt>
      <trkpt lat="48.993381" lon="2.274643">
        <ele>51.421689</ele>
        <time>2025-03-06T19:49:13.554Z</time>
      </trkpt>
      <trkpt lat="48.993152" lon="2.274690">
        <ele>51.536223</ele>
        <time>2025-03-06T19:49:19.945Z</time>
      </trkpt>
      <trkpt lat="48.993030" lon="2.274703">
        <ele>51.596842</ele>
        <time>2025-03-06T19:49:23.531Z</time>
      </trkpt>
      <trkpt lat="48.991900" lon="2.274752">
        <ele>52.157180</ele>
        <time>2025-03-06T19:49:53.185Z</time>
      </trkpt>
      <trkpt lat="48.991821" lon="2.274758">
        <ele>52.196386</ele>
        <time>2025-03-06T19:49:54.832Z</time>
      </trkpt>
      <trkpt lat="48.991777" lon="2.274758">
        <ele>52.218196</ele>
        <time>2025-03-06T19:49:55.732Z</time>
      </trkpt>
      <trkpt lat="48.991642" lon="2.274786">
        <ele>52.261861</ele>
        <time>2025-03-06T19:49:58.588Z</time>
      </trkpt>
      <trkpt lat="48.991636" lon="2.274770">
        <ele>52.265237</ele>
        <time>2025-03-06T19:49:58.822Z</time>
      </trkpt>
      <trkpt lat="48.991533" lon="2.274659">
        <ele>52.300452</ele>
        <time>2025-03-06T19:50:01.467Z</time>
      </trkpt>
      <trkpt lat="48.991411" lon="2.274698">
        <ele>52.335249</ele>
        <time>2025-03-06T19:50:04.060Z</time>
      </trkpt>
      <trkpt lat="48.991343" lon="2.274857">
        <ele>52.370014</ele>
        <time>2025-03-06T19:50:06.652Z</time>
      </trkpt>
      <trkpt lat="48.991342" lon="2.274921">
        <ele>52.381740</ele>
        <time>2025-03-06T19:50:07.563Z</time>
      </trkpt>
      <trkpt lat="48.991266" lon="2.274950">
        <ele>52.403610</ele>
        <time>2025-03-06T19:50:09.213Z</time>
      </trkpt>
      <trkpt lat="48.991106" lon="2.275011">
        <ele>52.449651</ele>
        <time>2025-03-06T19:50:12.704Z</time>
      </trkpt>
      <trkpt lat="48.990847" lon="2.275033">
        <ele>52.522064</ele>
        <time>2025-03-06T19:50:18.338Z</time>
      </trkpt>
      <trkpt lat="48.990245" lon="2.274846">
        <ele>52.693568</ele>
        <time>2025-03-06T19:50:33.269Z</time>
      </trkpt>
      <trkpt lat="48.989666" lon="2.274597">
        <ele>53.712093</ele>
        <time>2025-03-06T19:50:51.552Z</time>
      </trkpt>
      <trkpt lat="48.988905" lon="2.274260">
        <ele>55.399644</ele>
        <time>2025-03-06T19:51:18.854Z</time>
      </trkpt>
      <trkpt lat="48.988105" lon="2.273909">
        <ele>57.075191</ele>
        <time>2025-03-06T19:51:48.152Z</time>
      </trkpt>
      <trkpt lat="48.987972" lon="2.273854">
        <ele>57.321811</ele>
        <time>2025-03-06T19:51:52.875Z</time>
      </trkpt>
      <trkpt lat="48.987310" lon="2.273559">
        <ele>58.556116</ele>
        <time>2025-03-06T19:52:15.428Z</time>
      </trkpt>
      <trkpt lat="48.987258" lon="2.273537">
        <ele>58.652693</ele>
        <time>2025-03-06T19:52:17.084Z</time>
      </trkpt>
      <trkpt lat="48.986695" lon="2.273291">
        <ele>59.700818</ele>
        <time>2025-03-06T19:52:33.861Z</time>
      </trkpt>
      <trkpt lat="48.986508" lon="2.273214">
        <ele>59.727796</ele>
        <time>2025-03-06T19:52:38.978Z</time>
      </trkpt>
      <trkpt lat="48.985993" lon="2.272993">
        <ele>59.531845</ele>
        <time>2025-03-06T19:52:51.873Z</time>
      </trkpt>
      <trkpt lat="48.985239" lon="2.272669">
        <ele>59.244928</ele>
        <time>2025-03-06T19:53:08.036Z</time>
      </trkpt>
      <trkpt lat="48.985006" lon="2.272570">
        <ele>59.156338</ele>
        <time>2025-03-06T19:53:12.652Z</time>
      </trkpt>
      <trkpt lat="48.984661" lon="2.272418">
        <ele>58.398097</ele>
        <time>2025-03-06T19:53:19.387Z</time>
      </trkpt>
      <trkpt lat="48.984236" lon="2.272287">
        <ele>57.229446</ele>
        <time>2025-03-06T19:53:27.259Z</time>
      </trkpt>
      <trkpt lat="48.984040" lon="2.272210">
        <ele>56.683917</ele>
        <time>2025-03-06T19:53:30.849Z</time>
      </trkpt>
      <trkpt lat="48.983569" lon="2.272030">
        <ele>55.375172</ele>
        <time>2025-03-06T19:53:39.217Z</time>
      </trkpt>
      <trkpt lat="48.982878" lon="2.271762">
        <ele>53.288621</ele>
        <time>2025-03-06T19:53:51.071Z</time>
      </trkpt>
      <trkpt lat="48.982332" lon="2.271453">
        <ele>51.404213</ele>
        <time>2025-03-06T19:54:00.617Z</time>
      </trkpt>
      <trkpt lat="48.981805" lon="2.271101">
        <ele>49.542561</ele>
        <time>2025-03-06T19:54:10.401Z</time>
      </trkpt>
      <trkpt lat="48.981705" lon="2.271022">
        <ele>49.178126</ele>
        <time>2025-03-06T19:54:12.410Z</time>
      </trkpt>
      <trkpt lat="48.981650" lon="2.270922">
        <ele>48.901087</ele>
        <time>2025-03-06T19:54:13.927Z</time>
      </trkpt>
      <trkpt lat="48.981064" lon="2.270521">
        <ele>48.372769</ele>
        <time>2025-03-06T19:54:26.016Z</time>
      </trkpt>
      <trkpt lat="48.981020" lon="2.270503">
        <ele>48.365217</ele>
        <time>2025-03-06T19:54:26.979Z</time>
      </trkpt>
      <trkpt lat="48.980637" lon="2.270369">
        <ele>48.300080</ele>
        <time>2025-03-06T19:54:35.745Z</time>
      </trkpt>
      <trkpt lat="48.980552" lon="2.270348">
        <ele>48.285806</ele>
        <time>2025-03-06T19:54:38.085Z</time>
      </trkpt>
      <trkpt lat="48.980278" lon="2.270331">
        <ele>48.240351</ele>
        <time>2025-03-06T19:54:45.564Z</time>
      </trkpt>
      <trkpt lat="48.980202" lon="2.270333">
        <ele>48.227752</ele>
        <time>2025-03-06T19:54:47.609Z</time>
      </trkpt>
      <trkpt lat="48.980141" lon="2.270257">
        <ele>48.214691</ele>
        <time>2025-03-06T19:54:49.770Z</time>
      </trkpt>
      <trkpt lat="48.980084" lon="2.270165">
        <ele>48.200927</ele>
        <time>2025-03-06T19:54:52.049Z</time>
      </trkpt>
      <trkpt lat="48.980082" lon="2.270037">
        <ele>48.186998</ele>
        <time>2025-03-06T19:54:54.364Z</time>
      </trkpt>
      <trkpt lat="48.980042" lon="2.269898">
        <ele>48.170486</ele>
        <time>2025-03-06T19:54:57.067Z</time>
      </trkpt>
      <trkpt lat="48.979897" lon="2.269633">
        <ele>48.212034</ele>
        <time>2025-03-06T19:55:02.992Z</time>
      </trkpt>
      <trkpt lat="48.979736" lon="2.269427">
        <ele>48.285776</ele>
        <time>2025-03-06T19:55:08.447Z</time>
      </trkpt>
      <trkpt lat="48.979177" lon="2.268973">
        <ele>48.507960</ele>
        <time>2025-03-06T19:55:25.721Z</time>
      </trkpt>
      <trkpt lat="48.978937" lon="2.268791">
        <ele>48.601990</ele>
        <time>2025-03-06T19:55:32.224Z</time>
      </trkpt>
      <trkpt lat="48.978323" lon="2.268315">
        <ele>48.679728</ele>
        <time>2025-03-06T19:55:46.561Z</time>
      </trkpt>
      <trkpt lat="48.978164" lon="2.268187">
        <ele>48.552849</ele>
        <time>2025-03-06T19:55:50.097Z</time>
      </trkpt>
      <trkpt lat="48.977002" lon="2.267238">
        <ele>47.622646</ele>
        <time>2025-03-06T19:56:16.392Z</time>
      </trkpt>
      <trkpt lat="48.976974" lon="2.267229">
        <ele>47.602456</ele>
        <time>2025-03-06T19:56:16.994Z</time>
      </trkpt>
      <trkpt lat="48.976878" lon="2.267224">
        <ele>47.534684</ele>
        <time>2025-03-06T19:56:19.052Z</time>
      </trkpt>
      <trkpt lat="48.976799" lon="2.267142">
        <ele>47.545138</ele>
        <time>2025-03-06T19:56:21.124Z</time>
      </trkpt>
      <trkpt lat="48.976724" lon="2.267047">
        <ele>47.577585</ele>
        <time>2025-03-06T19:56:23.258Z</time>
      </trkpt>
      <trkpt lat="48.976646" lon="2.266986">
        <ele>47.606752</ele>
        <time>2025-03-06T19:56:25.232Z</time>
      </trkpt>
      <trkpt lat="48.976276" lon="2.266703">
        <ele>47.744481</ele>
        <time>2025-03-06T19:56:35.117Z</time>
      </trkpt>
      <trkpt lat="48.975212" lon="2.265929">
        <ele>48.162495</ele>
        <time>2025-03-06T19:57:05.238Z</time>
      </trkpt>
      <trkpt lat="48.974384" lon="2.265477">
        <ele>48.869701</ele>
        <time>2025-03-06T19:57:26.887Z</time>
      </trkpt>
      <trkpt lat="48.974109" lon="2.265318">
        <ele>49.106204</ele>
        <time>2025-03-06T19:57:34.554Z</time>
      </trkpt>
      <trkpt lat="48.973972" lon="2.265236">
        <ele>49.224556</ele>
        <time>2025-03-06T19:57:38.519Z</time>
      </trkpt>
      <trkpt lat="48.973532" lon="2.264988">
        <ele>49.633581</ele>
        <time>2025-03-06T19:57:51.721Z</time>
      </trkpt>
      <trkpt lat="48.973052" lon="2.264714">
        <ele>50.399662</ele>
        <time>2025-03-06T19:58:07.148Z</time>
      </trkpt>
      <trkpt lat="48.972564" lon="2.264438">
        <ele>51.177632</ele>
        <time>2025-03-06T19:58:23.286Z</time>
      </trkpt>
      <trkpt lat="48.971860" lon="2.264055">
        <ele>52.272905</ele>
        <time>2025-03-06T19:58:45.662Z</time>
      </trkpt>
      <trkpt lat="48.971654" lon="2.264034">
        <ele>52.420149</ele>
        <time>2025-03-06T19:58:51.484Z</time>
      </trkpt>
      <trkpt lat="48.970899" lon="2.264187">
        <ele>52.963345</ele>
        <time>2025-03-06T19:59:11.139Z</time>
      </trkpt>
      <trkpt lat="48.970221" lon="2.264337">
        <ele>53.451955</ele>
        <time>2025-03-06T19:59:28.036Z</time>
      </trkpt>
      <trkpt lat="48.970033" lon="2.264377">
        <ele>53.567294</ele>
        <time>2025-03-06T19:59:32.662Z</time>
      </trkpt>
      <trkpt lat="48.969390" lon="2.264517">
        <ele>53.850992</ele>
        <time>2025-03-06T19:59:48.196Z</time>
      </trkpt>
      <trkpt lat="48.969361" lon="2.264531">
        <ele>53.864279</ele>
        <time>2025-03-06T19:59:48.939Z</time>
      </trkpt>
      <trkpt lat="48.969341" lon="2.264544">
        <ele>53.873776</ele>
        <time>2025-03-06T19:59:49.467Z</time>
      </trkpt>
      <trkpt lat="48.969243" lon="2.264655">
        <ele>53.927115</ele>
        <time>2025-03-06T19:59:52.444Z</time>
      </trkpt>
      <trkpt lat="48.969117" lon="2.264588">
        <ele>53.985405</ele>
        <time>2025-03-06T19:59:55.727Z</time>
      </trkpt>
      <trkpt lat="48.968624" lon="2.264613">
        <ele>54.200852</ele>
        <time>2025-03-06T20:00:07.785Z</time>
      </trkpt>
      <trkpt lat="48.968159" lon="2.264528">
        <ele>54.522714</ele>
        <time>2025-03-06T20:00:18.935Z</time>
      </trkpt>
      <trkpt lat="48.967881" lon="2.264463">
        <ele>54.816729</ele>
        <time>2025-03-06T20:00:26.155Z</time>
      </trkpt>
      <trkpt lat="48.967606" lon="2.264398">
        <ele>55.107645</ele>
        <time>2025-03-06T20:00:33.587Z</time>
      </trkpt>
      <trkpt lat="48.967445" lon="2.264399">
        <ele>55.275950</ele>
        <time>2025-03-06T20:00:37.958Z</time>
      </trkpt>
      <trkpt lat="48.966990" lon="2.264293">
        <ele>55.757121</ele>
        <time>2025-03-06T20:00:50.701Z</time>
      </trkpt>
      <trkpt lat="48.966813" lon="2.264294">
        <ele>55.942152</ele>
        <time>2025-03-06T20:00:55.680Z</time>
      </trkpt>
      <trkpt lat="48.966773" lon="2.264299">
        <ele>55.984107</ele>
        <time>2025-03-06T20:00:56.812Z</time>
      </trkpt>
      <trkpt lat="48.966419" lon="2.264312">
        <ele>56.531536</ele>
        <time>2025-03-06T20:01:07.604Z</time>
      </trkpt>
      <trkpt lat="48.966310" lon="2.264286">
        <ele>56.780654</ele>
        <time>2025-03-06T20:01:11.309Z</time>
      </trkpt>
      <trkpt lat="48.966251" lon="2.264216">
        <ele>56.949517</ele>
        <time>2025-03-06T20:01:13.846Z</time>
      </trkpt>
      <trkpt lat="48.966178" lon="2.264214">
        <ele>57.114375</ele>
        <time>2025-03-06T20:01:16.328Z</time>
      </trkpt>
      <trkpt lat="48.966089" lon="2.264136">
        <ele>57.346222</ele>
        <time>2025-03-06T20:01:19.834Z</time>
      </trkpt>
      <trkpt lat="48.966030" lon="2.264002">
        <ele>57.585396</ele>
        <time>2025-03-06T20:01:23.420Z</time>
      </trkpt>
      <trkpt lat="48.966032" lon="2.263769">
        <ele>57.930817</ele>
        <time>2025-03-06T20:01:28.664Z</time>
      </trkpt>
      <trkpt lat="48.966049" lon="2.263680">
        <ele>58.068219</ele>
        <time>2025-03-06T20:01:30.761Z</time>
      </trkpt>
      <trkpt lat="48.966068" lon="2.263595">
        <ele>58.201323</ele>
        <time>2025-03-06T20:01:32.704Z</time>
      </trkpt>
      <trkpt lat="48.966139" lon="2.263235">
        <ele>58.758535</ele>
        <time>2025-03-06T20:01:41.150Z</time>
      </trkpt>
      <trkpt lat="48.966173" lon="2.262949">
        <ele>59.189386</ele>
        <time>2025-03-06T20:01:47.747Z</time>
      </trkpt>
      <trkpt lat="48.966353" lon="2.261901">
        <ele>60.600598</ele>
        <time>2025-03-06T20:02:12.455Z</time>
      </trkpt>
      <trkpt lat="48.966274" lon="2.261866">
        <ele>60.718479</ele>
        <time>2025-03-06T20:02:15.538Z</time>
      </trkpt>
      <trkpt lat="48.966201" lon="2.261837">
        <ele>60.826571</ele>
        <time>2025-03-06T20:02:18.202Z</time>
      </trkpt>
      <trkpt lat="48.966105" lon="2.261756">
        <ele>60.983812</ele>
        <time>2025-03-06T20:02:22.225Z</time>
      </trkpt>
      <trkpt lat="48.965624" lon="2.261580">
        <ele>61.692588</ele>
        <time>2025-03-06T20:02:38.251Z</time>
      </trkpt>
      <trkpt lat="48.965527" lon="2.261544">
        <ele>61.835635</ele>
        <time>2025-03-06T20:02:41.203Z</time>
      </trkpt>
      <trkpt lat="48.965472" lon="2.261453">
        <ele>61.951984</ele>
        <time>2025-03-06T20:02:43.457Z</time>
      </trkpt>
      <trkpt lat="48.965395" lon="2.261495">
        <ele>62.069169</ele>
        <time>2025-03-06T20:02:45.629Z</time>
      </trkpt>
      <trkpt lat="48.965319" lon="2.261478">
        <ele>62.179229</ele>
        <time>2025-03-06T20:02:47.541Z</time>
      </trkpt>
      <trkpt lat="48.965065" lon="2.261326">
        <ele>62.570236</ele>
        <time>2025-03-06T20:02:53.965Z</time>
      </trkpt>
      <trkpt lat="48.964470" lon="2.261005">
        <ele>62.471401</ele>
        <time>2025-03-06T20:03:07.792Z</time>
      </trkpt>
      <trkpt lat="48.964361" lon="2.260954">
        <ele>62.376592</ele>
        <time>2025-03-06T20:03:10.166Z</time>
      </trkpt>
      <trkpt lat="48.964265" lon="2.260903">
        <ele>62.292055</ele>
        <time>2025-03-06T20:03:12.178Z</time>
      </trkpt>
      <trkpt lat="48.963707" lon="2.260584">
        <ele>61.796495</ele>
        <time>2025-03-06T20:03:23.575Z</time>
      </trkpt>
      <trkpt lat="48.963654" lon="2.260556">
        <ele>61.749852</ele>
        <time>2025-03-06T20:03:24.652Z</time>
      </trkpt>
      <trkpt lat="48.963281" lon="2.260349">
        <ele>61.419771</ele>
        <time>2025-03-06T20:03:32.338Z</time>
      </trkpt>
      <trkpt lat="48.963113" lon="2.260244">
        <ele>61.260685</ele>
        <time>2025-03-06T20:03:35.995Z</time>
      </trkpt>
      <trkpt lat="48.962792" lon="2.260034">
        <ele>60.939059</ele>
        <time>2025-03-06T20:03:43.097Z</time>
      </trkpt>
      <trkpt lat="48.962535" lon="2.259864">
        <ele>60.681109</ele>
        <time>2025-03-06T20:03:48.774Z</time>
      </trkpt>
      <trkpt lat="48.961563" lon="2.259251">
        <ele>59.712586</ele>
        <time>2025-03-06T20:04:09.794Z</time>
      </trkpt>
      <trkpt lat="48.960927" lon="2.258851">
        <ele>58.911370</ele>
        <time>2025-03-06T20:04:23.617Z</time>
      </trkpt>
      <trkpt lat="48.960403" lon="2.258482">
        <ele>58.233580</ele>
        <time>2025-03-06T20:04:34.913Z</time>
      </trkpt>
      <trkpt lat="48.960358" lon="2.258419">
        <ele>58.161817</ele>
        <time>2025-03-06T20:04:36.097Z</time>
      </trkpt>
      <trkpt lat="48.960345" lon="2.258354">
        <ele>58.109438</ele>
        <time>2025-03-06T20:04:36.967Z</time>
      </trkpt>
      <trkpt lat="48.960292" lon="2.258247">
        <ele>58.006115</ele>
        <time>2025-03-06T20:04:38.672Z</time>
      </trkpt>
      <trkpt lat="48.960242" lon="2.258205">
        <ele>57.939075</ele>
        <time>2025-03-06T20:04:39.773Z</time>
      </trkpt>
      <trkpt lat="48.960187" lon="2.258188">
        <ele>57.873185</ele>
        <time>2025-03-06T20:04:40.872Z</time>
      </trkpt>
      <trkpt lat="48.960080" lon="2.258235">
        <ele>57.742439</ele>
        <time>2025-03-06T20:04:43.032Z</time>
      </trkpt>
      <trkpt lat="48.959661" lon="2.258043">
        <ele>57.028644</ele>
        <time>2025-03-06T20:04:51.435Z</time>
      </trkpt>
      <trkpt lat="48.959529" lon="2.257954">
        <ele>56.761708</ele>
        <time>2025-03-06T20:04:54.153Z</time>
      </trkpt>
      <trkpt lat="48.958607" lon="2.257355">
        <ele>54.908163</ele>
        <time>2025-03-06T20:05:12.477Z</time>
      </trkpt>
      <trkpt lat="48.956786" lon="2.256230">
        <ele>50.934843</ele>
        <time>2025-03-06T20:05:48.376Z</time>
      </trkpt>
      <trkpt lat="48.955655" lon="2.255529">
        <ele>48.570435</ele>
        <time>2025-03-06T20:06:10.886Z</time>
      </trkpt>
      <trkpt lat="48.954904" lon="2.255065">
        <ele>47.004236</ele>
        <time>2025-03-06T20:06:26.000Z</time>
      </trkpt>
      <trkpt lat="48.954600" lon="2.254875">
        <ele>46.260928</ele>
        <time>2025-03-06T20:06:32.055Z</time>
      </trkpt>
      <trkpt lat="48.954082" lon="2.254568">
        <ele>45.003605</ele>
        <time>2025-03-06T20:06:41.955Z</time>
      </trkpt>
      <trkpt lat="48.953768" lon="2.254371">
        <ele>44.235421</ele>
        <time>2025-03-06T20:06:47.970Z</time>
      </trkpt>
      <trkpt lat="48.953569" lon="2.254322">
        <ele>43.779437</ele>
        <time>2025-03-06T20:06:51.554Z</time>
      </trkpt>
      <trkpt lat="48.953188" lon="2.254178">
        <ele>42.935938</ele>
        <time>2025-03-06T20:06:58.548Z</time>
      </trkpt>
      <trkpt lat="48.952649" lon="2.253965">
        <ele>42.066923</ele>
        <time>2025-03-06T20:07:08.836Z</time>
      </trkpt>
      <trkpt lat="48.952429" lon="2.253906">
        <ele>41.718311</ele>
        <time>2025-03-06T20:07:13.036Z</time>
      </trkpt>
      <trkpt lat="48.952084" lon="2.253837">
        <ele>41.175286</ele>
        <time>2025-03-06T20:07:19.798Z</time>
      </trkpt>
      <trkpt lat="48.951724" lon="2.253798">
        <ele>40.612057</ele>
        <time>2025-03-06T20:07:27.012Z</time>
      </trkpt>
      <trkpt lat="48.950874" lon="2.253710">
        <ele>39.368648</ele>
        <time>2025-03-06T20:07:43.544Z</time>
      </trkpt>
      <trkpt lat="48.949561" lon="2.253561">
        <ele>37.502677</ele>
        <time>2025-03-06T20:08:08.494Z</time>
      </trkpt>
      <trkpt lat="48.949279" lon="2.253535">
        <ele>37.105451</ele>
        <time>2025-03-06T20:08:14.048Z</time>
      </trkpt>
      <trkpt lat="48.949048" lon="2.253389">
        <ele>36.753791</ele>
        <time>2025-03-06T20:08:18.932Z</time>
      </trkpt>
      <trkpt lat="48.948890" lon="2.253343">
        <ele>36.527615</ele>
        <time>2025-03-06T20:08:22.087Z</time>
      </trkpt>
      <trkpt lat="48.948744" lon="2.253672">
        <ele>36.160968</ele>
        <time>2025-03-06T20:08:27.189Z</time>
      </trkpt>
      <trkpt lat="48.948597" lon="2.253547">
        <ele>35.924237</ele>
        <time>2025-03-06T20:08:30.465Z</time>
      </trkpt>
      <trkpt lat="48.946744" lon="2.254114">
        <ele>32.829813</ele>
        <time>2025-03-06T20:09:05.891Z</time>
      </trkpt>
      <trkpt lat="48.946338" lon="2.254234">
        <ele>32.113228</ele>
        <time>2025-03-06T20:09:13.483Z</time>
      </trkpt>
      <trkpt lat="48.944647" lon="2.254795">
        <ele>29.206719</ele>
        <time>2025-03-06T20:09:45.663Z</time>
      </trkpt>
      <trkpt lat="48.944207" lon="2.254978">
        <ele>28.852737</ele>
        <time>2025-03-06T20:09:54.662Z</time>
      </trkpt>
      <trkpt lat="48.943898" lon="2.255056">
        <ele>28.705081</ele>
        <time>2025-03-06T20:10:01.069Z</time>
      </trkpt>
      <trkpt lat="48.943689" lon="2.255222">
        <ele>28.593955</ele>
        <time>2025-03-06T20:10:06.001Z</time>
      </trkpt>
      <trkpt lat="48.943658" lon="2.255248">
        <ele>28.577270</ele>
        <time>2025-03-06T20:10:06.761Z</time>
      </trkpt>
      <trkpt lat="48.943560" lon="2.255310">
        <ele>28.527242</ele>
        <time>2025-03-06T20:10:09.027Z</time>
      </trkpt>
      <trkpt lat="48.943520" lon="2.255226">
        <ele>28.495117</ele>
        <time>2025-03-06T20:10:10.501Z</time>
      </trkpt>
      <trkpt lat="48.943398" lon="2.255135">
        <ele>28.431073</ele>
        <time>2025-03-06T20:10:13.452Z</time>
      </trkpt>
      <trkpt lat="48.943318" lon="2.255143">
        <ele>28.393279</ele>
        <time>2025-03-06T20:10:15.207Z</time>
      </trkpt>
      <trkpt lat="48.943245" lon="2.255195">
        <ele>28.355285</ele>
        <time>2025-03-06T20:10:16.972Z</time>
      </trkpt>
      <trkpt lat="48.943181" lon="2.255078">
        <ele>28.308140</ele>
        <time>2025-03-06T20:10:19.233Z</time>
      </trkpt>
      <trkpt lat="48.942643" lon="2.254053">
        <ele>28.181050</ele>
        <time>2025-03-06T20:10:39.993Z</time>
      </trkpt>
      <trkpt lat="48.942602" lon="2.253970">
        <ele>28.182940</ele>
        <time>2025-03-06T20:10:41.736Z</time>
      </trkpt>
      <trkpt lat="48.942355" lon="2.253480">
        <ele>28.194179</ele>
        <time>2025-03-06T20:10:51.298Z</time>
      </trkpt>
      <trkpt lat="48.942327" lon="2.253412">
        <ele>28.195639</ele>
        <time>2025-03-06T20:10:52.623Z</time>
      </trkpt>
      <trkpt lat="48.942234" lon="2.253196">
        <ele>28.200338</ele>
        <time>2025-03-06T20:10:56.393Z</time>
      </trkpt>
      <trkpt lat="48.942190" lon="2.253102">
        <ele>28.202439</ele>
        <time>2025-03-06T20:10:57.989Z</time>
      </trkpt>
      <trkpt lat="48.942144" lon="2.253000">
        <ele>28.204690</ele>
        <time>2025-03-06T20:10:59.768Z</time>
      </trkpt>
      <trkpt lat="48.942092" lon="2.252894">
        <ele>28.207097</ele>
        <time>2025-03-06T20:11:01.575Z</time>
      </trkpt>
      <trkpt lat="48.942071" lon="2.252916">
        <ele>28.207803</ele>
        <time>2025-03-06T20:11:03.336Z</time>
      </trkpt>
      <trkpt lat="48.942060" lon="2.252928">
        <ele>28.208178</ele>
        <time>2025-03-06T20:11:04.301Z</time>
      </trkpt>
      <trkpt lat="48.942019" lon="2.252970">
        <ele>28.209547</ele>
        <time>2025-03-06T20:11:07.742Z</time>
      </trkpt>
      <trkpt lat="48.942068" lon="2.253078">
        <ele>28.211936</ele>
        <time>2025-03-06T20:11:09.534Z</time>
      </trkpt>
      <trkpt lat="48.941978" lon="2.253180">
        <ele>28.215044</ele>
        <time>2025-03-06T20:11:11.850Z</time>
      </trkpt>
      <trkpt lat="48.941701" lon="2.253489">
        <ele>28.133142</ele>
        <time>2025-03-06T20:11:18.982Z</time>
      </trkpt>
      <trkpt lat="48.941199" lon="2.254034">
        <ele>27.980034</ele>
        <time>2025-03-06T20:11:31.593Z</time>
      </trkpt>
      <trkpt lat="48.940100" lon="2.255192">
        <ele>28.085060</ele>
        <time>2025-03-06T20:12:02.101Z</time>
      </trkpt>
      <trkpt lat="48.939284" lon="2.256054">
        <ele>28.731986</ele>
        <time>2025-03-06T20:12:29.085Z</time>
      </trkpt>
      <trkpt lat="48.939233" lon="2.256106">
        <ele>28.771967</ele>
        <time>2025-03-06T20:12:30.731Z</time>
      </trkpt>
      <trkpt lat="48.939188" lon="2.256155">
        <ele>28.808004</ele>
        <time>2025-03-06T20:12:32.193Z</time>
      </trkpt>
      <trkpt lat="48.939015" lon="2.256340">
        <ele>28.940033</ele>
        <time>2025-03-06T20:12:37.961Z</time>
      </trkpt>
      <trkpt lat="48.938464" lon="2.256976">
        <ele>28.918590</ele>
        <time>2025-03-06T20:12:54.547Z</time>
      </trkpt>
      <trkpt lat="48.938143" lon="2.257396">
        <ele>28.905465</ele>
        <time>2025-03-06T20:13:03.764Z</time>
      </trkpt>
      <trkpt lat="48.937706" lon="2.257946">
        <ele>28.887882</ele>
        <time>2025-03-06T20:13:15.764Z</time>
      </trkpt>
      <trkpt lat="48.937589" lon="2.257981">
        <ele>28.879502</ele>
        <time>2025-03-06T20:13:18.266Z</time>
      </trkpt>
      <trkpt lat="48.937483" lon="2.258009">
        <ele>28.828876</ele>
        <time>2025-03-06T20:13:20.482Z</time>
      </trkpt>
      <trkpt lat="48.937285" lon="2.257974">
        <ele>28.735077</ele>
        <time>2025-03-06T20:13:24.411Z</time>
      </trkpt>
      <trkpt lat="48.936631" lon="2.257499">
        <ele>28.394091</ele>
        <time>2025-03-06T20:13:38.993Z</time>
      </trkpt>
      <trkpt lat="48.936194" lon="2.257178">
        <ele>28.165763</ele>
        <time>2025-03-06T20:13:49.580Z</time>
      </trkpt>
      <trkpt lat="48.936063" lon="2.257080">
        <ele>28.097077</ele>
        <time>2025-03-06T20:13:52.774Z</time>
      </trkpt>
      <trkpt lat="48.935572" lon="2.256715">
        <ele>28.151498</ele>
        <time>2025-03-06T20:14:04.883Z</time>
      </trkpt>
      <trkpt lat="48.935572" lon="2.256715">
        <ele>28.151498</ele>
        <time>2025-03-06T20:14:04.894Z</time>
      </trkpt>
      <trkpt lat="48.935090" lon="2.255698">
        <ele>28.373272</ele>
        <time>2025-03-06T20:14:26.197Z</time>
      </trkpt>
      <trkpt lat="48.934608" lon="2.254681">
        <ele>28.593507</ele>
        <time>2025-03-06T20:14:47.500Z</time>
      </trkpt>
      <trkpt lat="48.934126" lon="2.253664">
        <ele>28.810586</ele>
        <time>2025-03-06T20:15:08.803Z</time>
      </trkpt>
      <trkpt lat="48.933644" lon="2.252647">
        <ele>28.999111</ele>
        <time>2025-03-06T20:15:30.105Z</time>
      </trkpt>
      <trkpt lat="48.933437" lon="2.251637">
        <ele>29.015610</ele>
        <time>2025-03-06T20:15:45.724Z</time>
      </trkpt>
      <trkpt lat="48.933194" lon="2.250684">
        <ele>29.031551</ele>
        <time>2025-03-06T20:16:00.691Z</time>
      </trkpt>
      <trkpt lat="48.932174" lon="2.246915">
        <ele>28.720270</ele>
        <time>2025-03-06T20:16:59.191Z</time>
      </trkpt>
      <trkpt lat="48.932188" lon="2.246847">
        <ele>28.714249</ele>
        <time>2025-03-06T20:17:00.206Z</time>
      </trkpt>
      <trkpt lat="48.932193" lon="2.246824">
        <ele>28.712202</ele>
        <time>2025-03-06T20:17:00.555Z</time>
      </trkpt>
      <trkpt lat="48.932178" lon="2.246760">
        <ele>28.706462</ele>
        <time>2025-03-06T20:17:01.554Z</time>
      </trkpt>
      <trkpt lat="48.932020" lon="2.246263">
        <ele>28.659815</ele>
        <time>2025-03-06T20:17:09.783Z</time>
      </trkpt>
      <trkpt lat="48.931818" lon="2.245781">
        <ele>28.611512</ele>
        <time>2025-03-06T20:17:18.447Z</time>
      </trkpt>
      <trkpt lat="48.931810" lon="2.245714">
        <ele>28.605759</ele>
        <time>2025-03-06T20:17:19.491Z</time>
      </trkpt>
      <trkpt lat="48.931788" lon="2.245701">
        <ele>28.602724</ele>
        <time>2025-03-06T20:17:20.018Z</time>
      </trkpt>
      <trkpt lat="48.931706" lon="2.245672">
        <ele>28.591898</ele>
        <time>2025-03-06T20:17:21.788Z</time>
      </trkpt>
      <trkpt lat="48.931625" lon="2.245528">
        <ele>28.575882</ele>
        <time>2025-03-06T20:17:24.409Z</time>
      </trkpt>
      <trkpt lat="48.931273" lon="2.244681">
        <ele>28.202708</ele>
        <time>2025-03-06T20:17:37.931Z</time>
      </trkpt>
      <trkpt lat="48.931225" lon="2.244569">
        <ele>28.145232</ele>
        <time>2025-03-06T20:17:39.741Z</time>
      </trkpt>
      <trkpt lat="48.931177" lon="2.244615">
        <ele>28.108123</ele>
        <time>2025-03-06T20:17:40.890Z</time>
      </trkpt>
      <trkpt lat="48.931073" lon="2.244714">
        <ele>28.027873</ele>
        <time>2025-03-06T20:17:43.384Z</time>
      </trkpt>
      <trkpt lat="48.931035" lon="2.244742">
        <ele>28.000253</ele>
        <time>2025-03-06T20:17:44.247Z</time>
      </trkpt>
      <trkpt lat="48.930992" lon="2.244773">
        <ele>27.969125</ele>
        <time>2025-03-06T20:17:45.232Z</time>
      </trkpt>
      <trkpt lat="48.930973" lon="2.244792">
        <ele>27.954252</ele>
        <time>2025-03-06T20:17:45.696Z</time>
      </trkpt>
      <trkpt lat="48.930956" lon="2.244872">
        <ele>27.918113</ele>
        <time>2025-03-06T20:17:46.831Z</time>
      </trkpt>
      <trkpt lat="48.930950" lon="2.244911">
        <ele>27.900897</ele>
        <time>2025-03-06T20:17:47.373Z</time>
      </trkpt>
      <trkpt lat="48.930945" lon="2.244946">
        <ele>27.885502</ele>
        <time>2025-03-06T20:17:47.845Z</time>
      </trkpt>
      <trkpt lat="48.930929" lon="2.244959">
        <ele>27.873636</ele>
        <time>2025-03-06T20:17:48.216Z</time>
      </trkpt>
      <trkpt lat="48.930783" lon="2.244999">
        <ele>27.776583</ele>
        <time>2025-03-06T20:17:51.239Z</time>
      </trkpt>
      <trkpt lat="48.930637" lon="2.245112">
        <ele>27.669426</ele>
        <time>2025-03-06T20:17:54.562Z</time>
      </trkpt>
      <trkpt lat="48.930460" lon="2.245302">
        <ele>27.527727</ele>
        <time>2025-03-06T20:17:58.895Z</time>
      </trkpt>
      <trkpt lat="48.930317" lon="2.245534">
        <ele>27.390994</ele>
        <time>2025-03-06T20:18:03.021Z</time>
      </trkpt>
      <trkpt lat="48.930155" lon="2.245680">
        <ele>27.406300</ele>
        <time>2025-03-06T20:18:06.836Z</time>
      </trkpt>
      <trkpt lat="48.929926" lon="2.245984">
        <ele>27.442320</ele>
        <time>2025-03-06T20:18:13.384Z</time>
      </trkpt>
      <trkpt lat="48.929880" lon="2.246090">
        <ele>27.452214</ele>
        <time>2025-03-06T20:18:15.257Z</time>
      </trkpt>
      <trkpt lat="48.929839" lon="2.246126">
        <ele>27.457824</ele>
        <time>2025-03-06T20:18:16.355Z</time>
      </trkpt>
      <trkpt lat="48.929797" lon="2.246018">
        <ele>27.467599</ele>
        <time>2025-03-06T20:18:18.319Z</time>
      </trkpt>
      <trkpt lat="48.929752" lon="2.245975">
        <ele>27.473897</ele>
        <time>2025-03-06T20:18:19.537Z</time>
      </trkpt>
      <trkpt lat="48.929696" lon="2.246013">
        <ele>27.481165</ele>
        <time>2025-03-06T20:18:20.932Z</time>
      </trkpt>
      <trkpt lat="48.929391" lon="2.246240">
        <ele>27.521411</ele>
        <time>2025-03-06T20:18:29.076Z</time>
      </trkpt>
      <trkpt lat="48.929173" lon="2.246349">
        <ele>27.548612</ele>
        <time>2025-03-06T20:18:34.788Z</time>
      </trkpt>
      <trkpt lat="48.928641" lon="2.246532">
        <ele>27.680358</ele>
        <time>2025-03-06T20:18:48.612Z</time>
      </trkpt>
      <trkpt lat="48.928202" lon="2.246631">
        <ele>27.968362</ele>
        <time>2025-03-06T20:19:00.070Z</time>
      </trkpt>
      <trkpt lat="48.928180" lon="2.246639">
        <ele>27.983041</ele>
        <time>2025-03-06T20:19:00.721Z</time>
      </trkpt>
      <trkpt lat="48.927510" lon="2.246821">
        <ele>28.424714</ele>
        <time>2025-03-06T20:19:19.407Z</time>
      </trkpt>
      <trkpt lat="48.927368" lon="2.246768">
        <ele>28.519597</ele>
        <time>2025-03-06T20:19:23.081Z</time>
      </trkpt>
      <trkpt lat="48.927321" lon="2.246801">
        <ele>28.553187</ele>
        <time>2025-03-06T20:19:24.298Z</time>
      </trkpt>
      <trkpt lat="48.927152" lon="2.246266">
        <ele>28.753420</ele>
        <time>2025-03-06T20:19:33.685Z</time>
      </trkpt>
      <trkpt lat="48.926846" lon="2.245241">
        <ele>28.610966</ele>
        <time>2025-03-06T20:19:49.785Z</time>
      </trkpt>
      <trkpt lat="48.926628" lon="2.244513">
        <ele>28.509735</ele>
        <time>2025-03-06T20:20:00.794Z</time>
      </trkpt>
      <trkpt lat="48.926574" lon="2.244336">
        <ele>28.485042</ele>
        <time>2025-03-06T20:20:03.448Z</time>
      </trkpt>
      <trkpt lat="48.926454" lon="2.243949">
        <ele>28.430895</ele>
        <time>2025-03-06T20:20:09.413Z</time>
      </trkpt>
      <trkpt lat="48.926142" lon="2.242954">
        <ele>28.314319</ele>
        <time>2025-03-06T20:20:25.090Z</time>
      </trkpt>
      <trkpt lat="48.925749" lon="2.241695">
        <ele>28.169604</ele>
        <time>2025-03-06T20:20:45.284Z</time>
      </trkpt>
      <trkpt lat="48.925557" lon="2.241061">
        <ele>28.125355</ele>
        <time>2025-03-06T20:20:55.389Z</time>
      </trkpt>
      <trkpt lat="48.925548" lon="2.241036">
        <ele>28.124607</ele>
        <time>2025-03-06T20:20:55.800Z</time>
      </trkpt>
      <trkpt lat="48.925130" lon="2.240122">
        <ele>28.095360</ele>
        <time>2025-03-06T20:21:11.641Z</time>
      </trkpt>
      <trkpt lat="48.925029" lon="2.239901">
        <ele>28.088290</ele>
        <time>2025-03-06T20:21:15.539Z</time>
      </trkpt>
      <trkpt lat="48.924872" lon="2.239538">
        <ele>28.076876</ele>
        <time>2025-03-06T20:21:22.213Z</time>
      </trkpt>
      <trkpt lat="48.924715" lon="2.239193">
        <ele>28.065854</ele>
        <time>2025-03-06T20:21:28.596Z</time>
      </trkpt>
      <trkpt lat="48.924654" lon="2.239061">
        <ele>28.072360</ele>
        <time>2025-03-06T20:21:30.956Z</time>
      </trkpt>
      <trkpt lat="48.924577" lon="2.238888">
        <ele>28.108863</ele>
        <time>2025-03-06T20:21:33.992Z</time>
      </trkpt>
      <trkpt lat="48.924208" lon="2.238072">
        <ele>28.281909</ele>
        <time>2025-03-06T20:21:48.500Z</time>
      </trkpt>
      <trkpt lat="48.924046" lon="2.237703">
        <ele>28.359435</ele>
        <time>2025-03-06T20:21:55.834Z</time>
      </trkpt>
      <trkpt lat="48.923999" lon="2.237540">
        <ele>28.390531</ele>
        <time>2025-03-06T20:21:58.957Z</time>
      </trkpt>
      <trkpt lat="48.923642" lon="2.236726">
        <ele>28.541226</ele>
        <time>2025-03-06T20:22:14.425Z</time>
      </trkpt>
      <trkpt lat="48.923566" lon="2.236499">
        <ele>28.541226</ele>
        <time>2025-03-06T20:22:18.304Z</time>
      </trkpt>
      <trkpt lat="48.923468" lon="2.236242">
        <ele>28.541226</ele>
        <time>2025-03-06T20:22:22.870Z</time>
      </trkpt>
      <trkpt lat="48.923408" lon="2.236120">
        <ele>28.541226</ele>
        <time>2025-03-06T20:22:25.197Z</time>
      </trkpt>
      <trkpt lat="48.923355" lon="2.235976">
        <ele>28.541226</ele>
        <time>2025-03-06T20:22:27.730Z</time>
      </trkpt>
      <trkpt lat="48.923243" lon="2.235634">
        <ele>28.541226</ele>
        <time>2025-03-06T20:22:33.548Z</time>
      </trkpt>
      <trkpt lat="48.923230" lon="2.235511">
        <ele>28.541226</ele>
        <time>2025-03-06T20:22:35.378Z</time>
      </trkpt>
      <trkpt lat="48.923185" lon="2.235356">
        <ele>28.541226</ele>
        <time>2025-03-06T20:22:37.898Z</time>
      </trkpt>
    </trkseg>
  </trk>
</gpx>